<?xml version="1.0" encoding="UTF-8" standalone="no" ?>
<gpx xmlns="http://www.topografix.com/GPX/1/1" xmlns:xsi="http://www.w3.org/2001/XMLSchema-instance" xsi:schemaLocation="http://www.topografix.com/GPX/1/1 http://www.topografix.com/GPX/1/1/gpx.xsd" version="1.1" creator="VisuGPX - https://www.visugpx.com">
  <metadata>
    <name>vtt_prn_2010_05_09_rando Le Passage d'Agen</name>
    <desc><![CDATA[Multi-Rando LA PASSAGEOISE avec l'Association François Aupetit contre la maladie de crohn]]></desc>
  </metadata>
  <trk>
    <name><![CDATA[ACTIVE LOG 013]]></name>
    <trkseg>
      <trkpt lat="44.20289" lon="0.58895">
        <ele>39.55127</ele>
        <time>2010-05-09T06:41:26Z</time>
      </trkpt>
      <trkpt lat="44.20271" lon="0.58878">
        <ele>39.070679</ele>
        <time>2010-05-09T06:41:43Z</time>
      </trkpt>
      <trkpt lat="44.20245" lon="0.58853">
        <ele>39.55127</ele>
        <time>2010-05-09T06:41:55Z</time>
      </trkpt>
      <trkpt lat="44.20257" lon="0.5882">
        <ele>39.070679</ele>
        <time>2010-05-09T06:42:04Z</time>
      </trkpt>
      <trkpt lat="44.20275" lon="0.58773">
        <ele>38.109375</ele>
        <time>2010-05-09T06:42:17Z</time>
      </trkpt>
      <trkpt lat="44.20291" lon="0.58719">
        <ele>40.993408</ele>
        <time>2010-05-09T06:42:31Z</time>
      </trkpt>
      <trkpt lat="44.20306" lon="0.587">
        <ele>41.473999</ele>
        <time>2010-05-09T06:42:38Z</time>
      </trkpt>
      <trkpt lat="44.20315" lon="0.58705">
        <ele>41.473999</ele>
        <time>2010-05-09T06:42:42Z</time>
      </trkpt>
      <trkpt lat="44.20325" lon="0.58718">
        <ele>41.473999</ele>
        <time>2010-05-09T06:42:46Z</time>
      </trkpt>
      <trkpt lat="44.20337" lon="0.58764">
        <ele>39.55127</ele>
        <time>2010-05-09T06:42:56Z</time>
      </trkpt>
      <trkpt lat="44.20348" lon="0.58811">
        <ele>40.993408</ele>
        <time>2010-05-09T06:43:06Z</time>
      </trkpt>
      <trkpt lat="44.2035" lon="0.58821">
        <ele>40.993408</ele>
        <time>2010-05-09T06:43:08Z</time>
      </trkpt>
      <trkpt lat="44.20359" lon="0.58867">
        <ele>44.358032</ele>
        <time>2010-05-09T06:43:18Z</time>
      </trkpt>
      <trkpt lat="44.20369" lon="0.58907">
        <ele>44.358032</ele>
        <time>2010-05-09T06:43:26Z</time>
      </trkpt>
      <trkpt lat="44.20373" lon="0.58924">
        <ele>44.358032</ele>
        <time>2010-05-09T06:43:29Z</time>
      </trkpt>
      <trkpt lat="44.20383" lon="0.58958">
        <ele>44.838623</ele>
        <time>2010-05-09T06:43:35Z</time>
      </trkpt>
      <trkpt lat="44.20389" lon="0.58984">
        <ele>44.358032</ele>
        <time>2010-05-09T06:43:40Z</time>
      </trkpt>
      <trkpt lat="44.20405" lon="0.59054">
        <ele>46.28064</ele>
        <time>2010-05-09T06:43:53Z</time>
      </trkpt>
      <trkpt lat="44.20418" lon="0.59115">
        <ele>49.164551</ele>
        <time>2010-05-09T06:44:03Z</time>
      </trkpt>
      <trkpt lat="44.20427" lon="0.59149">
        <ele>44.358032</ele>
        <time>2010-05-09T06:44:08Z</time>
      </trkpt>
      <trkpt lat="44.20439" lon="0.59191">
        <ele>41.473999</ele>
        <time>2010-05-09T06:44:14Z</time>
      </trkpt>
      <trkpt lat="44.20446" lon="0.59222">
        <ele>40.993408</ele>
        <time>2010-05-09T06:44:18Z</time>
      </trkpt>
      <trkpt lat="44.20451" lon="0.59246">
        <ele>41.473999</ele>
        <time>2010-05-09T06:44:21Z</time>
      </trkpt>
      <trkpt lat="44.20473" lon="0.59343">
        <ele>40.993408</ele>
        <time>2010-05-09T06:44:35Z</time>
      </trkpt>
      <trkpt lat="44.2048" lon="0.59375">
        <ele>40.993408</ele>
        <time>2010-05-09T06:44:40Z</time>
      </trkpt>
      <trkpt lat="44.20486" lon="0.59406">
        <ele>41.473999</ele>
        <time>2010-05-09T06:44:45Z</time>
      </trkpt>
      <trkpt lat="44.205" lon="0.59462">
        <ele>43.877319</ele>
        <time>2010-05-09T06:44:54Z</time>
      </trkpt>
      <trkpt lat="44.20505" lon="0.59487">
        <ele>45.319214</ele>
        <time>2010-05-09T06:44:58Z</time>
      </trkpt>
      <trkpt lat="44.20525" lon="0.59562">
        <ele>44.838623</ele>
        <time>2010-05-09T06:45:09Z</time>
      </trkpt>
      <trkpt lat="44.20527" lon="0.59568">
        <ele>44.358032</ele>
        <time>2010-05-09T06:45:10Z</time>
      </trkpt>
      <trkpt lat="44.20535" lon="0.59606">
        <ele>44.838623</ele>
        <time>2010-05-09T06:45:16Z</time>
      </trkpt>
      <trkpt lat="44.2055" lon="0.5964">
        <ele>44.358032</ele>
        <time>2010-05-09T06:45:22Z</time>
      </trkpt>
      <trkpt lat="44.20555" lon="0.59651">
        <ele>44.358032</ele>
        <time>2010-05-09T06:45:24Z</time>
      </trkpt>
      <trkpt lat="44.2056" lon="0.59678">
        <ele>43.877319</ele>
        <time>2010-05-09T06:45:28Z</time>
      </trkpt>
      <trkpt lat="44.2058" lon="0.59778">
        <ele>42.916016</ele>
        <time>2010-05-09T06:45:42Z</time>
      </trkpt>
      <trkpt lat="44.20583" lon="0.59792">
        <ele>42.916016</ele>
        <time>2010-05-09T06:45:44Z</time>
      </trkpt>
      <trkpt lat="44.20605" lon="0.59884">
        <ele>41.473999</ele>
        <time>2010-05-09T06:45:58Z</time>
      </trkpt>
      <trkpt lat="44.20608" lon="0.59896">
        <ele>41.473999</ele>
        <time>2010-05-09T06:46:00Z</time>
      </trkpt>
      <trkpt lat="44.20619" lon="0.59942">
        <ele>41.954712</ele>
        <time>2010-05-09T06:46:07Z</time>
      </trkpt>
      <trkpt lat="44.20624" lon="0.59966">
        <ele>42.916016</ele>
        <time>2010-05-09T06:46:11Z</time>
      </trkpt>
      <trkpt lat="44.20628" lon="0.59983">
        <ele>42.435425</ele>
        <time>2010-05-09T06:46:14Z</time>
      </trkpt>
      <trkpt lat="44.20644" lon="0.60053">
        <ele>43.877319</ele>
        <time>2010-05-09T06:46:27Z</time>
      </trkpt>
      <trkpt lat="44.20649" lon="0.60075">
        <ele>44.358032</ele>
        <time>2010-05-09T06:46:32Z</time>
      </trkpt>
      <trkpt lat="44.20644" lon="0.60133">
        <ele>44.358032</ele>
        <time>2010-05-09T06:46:41Z</time>
      </trkpt>
      <trkpt lat="44.20645" lon="0.60141">
        <ele>44.358032</ele>
        <time>2010-05-09T06:46:42Z</time>
      </trkpt>
      <trkpt lat="44.20661" lon="0.60207">
        <ele>43.396606</ele>
        <time>2010-05-09T06:46:50Z</time>
      </trkpt>
      <trkpt lat="44.2065" lon="0.6027">
        <ele>42.916016</ele>
        <time>2010-05-09T06:46:57Z</time>
      </trkpt>
      <trkpt lat="44.20641" lon="0.60282">
        <ele>42.435425</ele>
        <time>2010-05-09T06:46:59Z</time>
      </trkpt>
      <trkpt lat="44.20643" lon="0.6033">
        <ele>41.473999</ele>
        <time>2010-05-09T06:47:06Z</time>
      </trkpt>
      <trkpt lat="44.20632" lon="0.60378">
        <ele>42.435425</ele>
        <time>2010-05-09T06:47:16Z</time>
      </trkpt>
      <trkpt lat="44.20586" lon="0.60432">
        <ele>40.993408</ele>
        <time>2010-05-09T06:47:30Z</time>
      </trkpt>
      <trkpt lat="44.20555" lon="0.60465">
        <ele>41.954712</ele>
        <time>2010-05-09T06:47:39Z</time>
      </trkpt>
      <trkpt lat="44.20524" lon="0.60499">
        <ele>42.435425</ele>
        <time>2010-05-09T06:47:48Z</time>
      </trkpt>
      <trkpt lat="44.20461" lon="0.60526">
        <ele>41.954712</ele>
        <time>2010-05-09T06:48:03Z</time>
      </trkpt>
      <trkpt lat="44.20439" lon="0.60535">
        <ele>41.954712</ele>
        <time>2010-05-09T06:48:08Z</time>
      </trkpt>
      <trkpt lat="44.20426" lon="0.6054">
        <ele>41.954712</ele>
        <time>2010-05-09T06:48:11Z</time>
      </trkpt>
      <trkpt lat="44.20377" lon="0.60562">
        <ele>41.954712</ele>
        <time>2010-05-09T06:48:24Z</time>
      </trkpt>
      <trkpt lat="44.20347" lon="0.60594">
        <ele>37.628662</ele>
        <time>2010-05-09T06:48:36Z</time>
      </trkpt>
      <trkpt lat="44.20341" lon="0.60599">
        <ele>37.148071</ele>
        <time>2010-05-09T06:48:38Z</time>
      </trkpt>
      <trkpt lat="44.20267" lon="0.6063">
        <ele>35.706055</ele>
        <time>2010-05-09T06:48:53Z</time>
      </trkpt>
      <trkpt lat="44.20158" lon="0.60677">
        <ele>37.148071</ele>
        <time>2010-05-09T06:49:13Z</time>
      </trkpt>
      <trkpt lat="44.20062" lon="0.60722">
        <ele>36.66748</ele>
        <time>2010-05-09T06:49:30Z</time>
      </trkpt>
      <trkpt lat="44.20021" lon="0.60747">
        <ele>36.66748</ele>
        <time>2010-05-09T06:49:39Z</time>
      </trkpt>
      <trkpt lat="44.19983" lon="0.60759">
        <ele>36.66748</ele>
        <time>2010-05-09T06:49:50Z</time>
      </trkpt>
      <trkpt lat="44.19974" lon="0.6076">
        <ele>38.590088</ele>
        <time>2010-05-09T06:49:54Z</time>
      </trkpt>
      <trkpt lat="44.19938" lon="0.60781">
        <ele>40.032104</ele>
        <time>2010-05-09T06:50:07Z</time>
      </trkpt>
      <trkpt lat="44.19931" lon="0.60785">
        <ele>40.032104</ele>
        <time>2010-05-09T06:50:09Z</time>
      </trkpt>
      <trkpt lat="44.19879" lon="0.60818">
        <ele>40.512817</ele>
        <time>2010-05-09T06:50:22Z</time>
      </trkpt>
      <trkpt lat="44.19856" lon="0.60826">
        <ele>40.032104</ele>
        <time>2010-05-09T06:50:27Z</time>
      </trkpt>
      <trkpt lat="44.19826" lon="0.6083">
        <ele>39.55127</ele>
        <time>2010-05-09T06:50:33Z</time>
      </trkpt>
      <trkpt lat="44.1978" lon="0.60836">
        <ele>38.590088</ele>
        <time>2010-05-09T06:50:42Z</time>
      </trkpt>
      <trkpt lat="44.19728" lon="0.60844">
        <ele>38.109375</ele>
        <time>2010-05-09T06:50:53Z</time>
      </trkpt>
      <trkpt lat="44.19648" lon="0.60855">
        <ele>39.55127</ele>
        <time>2010-05-09T06:51:09Z</time>
      </trkpt>
      <trkpt lat="44.19638" lon="0.60855">
        <ele>39.55127</ele>
        <time>2010-05-09T06:51:11Z</time>
      </trkpt>
      <trkpt lat="44.19618" lon="0.60854">
        <ele>38.590088</ele>
        <time>2010-05-09T06:51:15Z</time>
      </trkpt>
      <trkpt lat="44.19595" lon="0.60846">
        <ele>37.148071</ele>
        <time>2010-05-09T06:51:19Z</time>
      </trkpt>
      <trkpt lat="44.19565" lon="0.60849">
        <ele>35.706055</ele>
        <time>2010-05-09T06:51:27Z</time>
      </trkpt>
      <trkpt lat="44.19547" lon="0.60874">
        <ele>34.744873</ele>
        <time>2010-05-09T06:51:32Z</time>
      </trkpt>
      <trkpt lat="44.19536" lon="0.60879">
        <ele>34.744873</ele>
        <time>2010-05-09T06:51:34Z</time>
      </trkpt>
      <trkpt lat="44.1948" lon="0.60894">
        <ele>35.706055</ele>
        <time>2010-05-09T06:51:44Z</time>
      </trkpt>
      <trkpt lat="44.19457" lon="0.60909">
        <ele>35.706055</ele>
        <time>2010-05-09T06:51:49Z</time>
      </trkpt>
      <trkpt lat="44.19377" lon="0.60931">
        <ele>37.148071</ele>
        <time>2010-05-09T06:52:03Z</time>
      </trkpt>
      <trkpt lat="44.19366" lon="0.60933">
        <ele>37.148071</ele>
        <time>2010-05-09T06:52:05Z</time>
      </trkpt>
      <trkpt lat="44.19347" lon="0.60935">
        <ele>37.148071</ele>
        <time>2010-05-09T06:52:09Z</time>
      </trkpt>
      <trkpt lat="44.19327" lon="0.6094">
        <ele>36.66748</ele>
        <time>2010-05-09T06:52:13Z</time>
      </trkpt>
      <trkpt lat="44.19307" lon="0.60943">
        <ele>37.148071</ele>
        <time>2010-05-09T06:52:17Z</time>
      </trkpt>
      <trkpt lat="44.19262" lon="0.6095">
        <ele>36.186768</ele>
        <time>2010-05-09T06:52:25Z</time>
      </trkpt>
      <trkpt lat="44.19246" lon="0.60953">
        <ele>35.225464</ele>
        <time>2010-05-09T06:52:28Z</time>
      </trkpt>
      <trkpt lat="44.19235" lon="0.60955">
        <ele>34.26416</ele>
        <time>2010-05-09T06:52:30Z</time>
      </trkpt>
      <trkpt lat="44.19208" lon="0.60963">
        <ele>34.26416</ele>
        <time>2010-05-09T06:52:35Z</time>
      </trkpt>
      <trkpt lat="44.19192" lon="0.60965">
        <ele>34.26416</ele>
        <time>2010-05-09T06:52:38Z</time>
      </trkpt>
      <trkpt lat="44.19118" lon="0.60977">
        <ele>34.744873</ele>
        <time>2010-05-09T06:52:51Z</time>
      </trkpt>
      <trkpt lat="44.19103" lon="0.60982">
        <ele>34.744873</ele>
        <time>2010-05-09T06:52:54Z</time>
      </trkpt>
      <trkpt lat="44.19041" lon="0.60993">
        <ele>32.822266</ele>
        <time>2010-05-09T06:53:06Z</time>
      </trkpt>
      <trkpt lat="44.18966" lon="0.61007">
        <ele>32.822266</ele>
        <time>2010-05-09T06:53:21Z</time>
      </trkpt>
      <trkpt lat="44.18896" lon="0.6102">
        <ele>32.822266</ele>
        <time>2010-05-09T06:53:35Z</time>
      </trkpt>
      <trkpt lat="44.1889" lon="0.61022">
        <ele>32.822266</ele>
        <time>2010-05-09T06:53:36Z</time>
      </trkpt>
      <trkpt lat="44.18847" lon="0.61027">
        <ele>33.302856</ele>
        <time>2010-05-09T06:53:45Z</time>
      </trkpt>
      <trkpt lat="44.18794" lon="0.61032">
        <ele>32.341553</ele>
        <time>2010-05-09T06:53:57Z</time>
      </trkpt>
      <trkpt lat="44.18734" lon="0.61049">
        <ele>36.186768</ele>
        <time>2010-05-09T06:54:10Z</time>
      </trkpt>
      <trkpt lat="44.18671" lon="0.61057">
        <ele>35.706055</ele>
        <time>2010-05-09T06:54:24Z</time>
      </trkpt>
      <trkpt lat="44.18663" lon="0.61059">
        <ele>35.706055</ele>
        <time>2010-05-09T06:54:26Z</time>
      </trkpt>
      <trkpt lat="44.18646" lon="0.61061">
        <ele>35.706055</ele>
        <time>2010-05-09T06:54:30Z</time>
      </trkpt>
      <trkpt lat="44.18629" lon="0.61065">
        <ele>36.186768</ele>
        <time>2010-05-09T06:54:34Z</time>
      </trkpt>
      <trkpt lat="44.18554" lon="0.61078">
        <ele>37.148071</ele>
        <time>2010-05-09T06:54:51Z</time>
      </trkpt>
      <trkpt lat="44.18491" lon="0.61091">
        <ele>38.109375</ele>
        <time>2010-05-09T06:55:06Z</time>
      </trkpt>
      <trkpt lat="44.18482" lon="0.61092">
        <ele>38.109375</ele>
        <time>2010-05-09T06:55:08Z</time>
      </trkpt>
      <trkpt lat="44.18466" lon="0.61097">
        <ele>38.109375</ele>
        <time>2010-05-09T06:55:12Z</time>
      </trkpt>
      <trkpt lat="44.18442" lon="0.611">
        <ele>39.070679</ele>
        <time>2010-05-09T06:55:18Z</time>
      </trkpt>
      <trkpt lat="44.18391" lon="0.61104">
        <ele>36.66748</ele>
        <time>2010-05-09T06:55:31Z</time>
      </trkpt>
      <trkpt lat="44.18387" lon="0.61105">
        <ele>36.66748</ele>
        <time>2010-05-09T06:55:32Z</time>
      </trkpt>
      <trkpt lat="44.1835" lon="0.61106">
        <ele>35.706055</ele>
        <time>2010-05-09T06:55:41Z</time>
      </trkpt>
      <trkpt lat="44.18338" lon="0.61107">
        <ele>36.186768</ele>
        <time>2010-05-09T06:55:44Z</time>
      </trkpt>
      <trkpt lat="44.18316" lon="0.61109">
        <ele>36.186768</ele>
        <time>2010-05-09T06:55:49Z</time>
      </trkpt>
      <trkpt lat="44.18267" lon="0.61117">
        <ele>36.186768</ele>
        <time>2010-05-09T06:56:02Z</time>
      </trkpt>
      <trkpt lat="44.18247" lon="0.61119">
        <ele>35.225464</ele>
        <time>2010-05-09T06:56:07Z</time>
      </trkpt>
      <trkpt lat="44.18199" lon="0.61126">
        <ele>33.783447</ele>
        <time>2010-05-09T06:56:18Z</time>
      </trkpt>
      <trkpt lat="44.18179" lon="0.61128">
        <ele>33.783447</ele>
        <time>2010-05-09T06:56:22Z</time>
      </trkpt>
      <trkpt lat="44.18169" lon="0.61132">
        <ele>32.822266</ele>
        <time>2010-05-09T06:56:24Z</time>
      </trkpt>
      <trkpt lat="44.18147" lon="0.61139">
        <ele>31.860718</ele>
        <time>2010-05-09T06:56:29Z</time>
      </trkpt>
      <trkpt lat="44.18132" lon="0.61143">
        <ele>33.302856</ele>
        <time>2010-05-09T06:56:33Z</time>
      </trkpt>
      <trkpt lat="44.18124" lon="0.61144">
        <ele>33.302856</ele>
        <time>2010-05-09T06:56:35Z</time>
      </trkpt>
      <trkpt lat="44.18115" lon="0.61147">
        <ele>33.783447</ele>
        <time>2010-05-09T06:56:37Z</time>
      </trkpt>
      <trkpt lat="44.18049" lon="0.61161">
        <ele>34.26416</ele>
        <time>2010-05-09T06:56:52Z</time>
      </trkpt>
      <trkpt lat="44.18021" lon="0.61164">
        <ele>35.706055</ele>
        <time>2010-05-09T06:57:01Z</time>
      </trkpt>
      <trkpt lat="44.18013" lon="0.61159">
        <ele>35.706055</ele>
        <time>2010-05-09T06:57:04Z</time>
      </trkpt>
      <trkpt lat="44.17998" lon="0.61149">
        <ele>34.744873</ele>
        <time>2010-05-09T06:57:13Z</time>
      </trkpt>
      <trkpt lat="44.17979" lon="0.61153">
        <ele>34.26416</ele>
        <time>2010-05-09T06:57:18Z</time>
      </trkpt>
      <trkpt lat="44.17908" lon="0.61162">
        <ele>35.225464</ele>
        <time>2010-05-09T06:57:33Z</time>
      </trkpt>
      <trkpt lat="44.17816" lon="0.61177">
        <ele>35.225464</ele>
        <time>2010-05-09T06:57:49Z</time>
      </trkpt>
      <trkpt lat="44.17811" lon="0.61177">
        <ele>35.225464</ele>
        <time>2010-05-09T06:57:50Z</time>
      </trkpt>
      <trkpt lat="44.17773" lon="0.61183">
        <ele>34.744873</ele>
        <time>2010-05-09T06:57:57Z</time>
      </trkpt>
      <trkpt lat="44.17698" lon="0.61192">
        <ele>34.26416</ele>
        <time>2010-05-09T06:58:13Z</time>
      </trkpt>
      <trkpt lat="44.1762" lon="0.61203">
        <ele>35.706055</ele>
        <time>2010-05-09T06:58:29Z</time>
      </trkpt>
      <trkpt lat="44.17607" lon="0.61205">
        <ele>35.706055</ele>
        <time>2010-05-09T06:58:32Z</time>
      </trkpt>
      <trkpt lat="44.17565" lon="0.61203">
        <ele>36.186768</ele>
        <time>2010-05-09T06:58:44Z</time>
      </trkpt>
      <trkpt lat="44.17523" lon="0.61214">
        <ele>36.186768</ele>
        <time>2010-05-09T06:58:55Z</time>
      </trkpt>
      <trkpt lat="44.17519" lon="0.61216">
        <ele>36.186768</ele>
        <time>2010-05-09T06:58:56Z</time>
      </trkpt>
      <trkpt lat="44.17507" lon="0.61222">
        <ele>36.186768</ele>
        <time>2010-05-09T06:58:59Z</time>
      </trkpt>
      <trkpt lat="44.17464" lon="0.61242">
        <ele>33.783447</ele>
        <time>2010-05-09T06:59:11Z</time>
      </trkpt>
      <trkpt lat="44.17434" lon="0.61252">
        <ele>33.302856</ele>
        <time>2010-05-09T06:59:21Z</time>
      </trkpt>
      <trkpt lat="44.174" lon="0.61268">
        <ele>33.783447</ele>
        <time>2010-05-09T06:59:32Z</time>
      </trkpt>
      <trkpt lat="44.17371" lon="0.61278">
        <ele>35.225464</ele>
        <time>2010-05-09T06:59:43Z</time>
      </trkpt>
      <trkpt lat="44.17327" lon="0.61294">
        <ele>35.706055</ele>
        <time>2010-05-09T06:59:56Z</time>
      </trkpt>
      <trkpt lat="44.17301" lon="0.61301">
        <ele>35.706055</ele>
        <time>2010-05-09T07:00:05Z</time>
      </trkpt>
      <trkpt lat="44.17294" lon="0.61304">
        <ele>36.186768</ele>
        <time>2010-05-09T07:00:09Z</time>
      </trkpt>
      <trkpt lat="44.17258" lon="0.61317">
        <ele>39.070679</ele>
        <time>2010-05-09T07:00:21Z</time>
      </trkpt>
      <trkpt lat="44.17218" lon="0.61324">
        <ele>39.070679</ele>
        <time>2010-05-09T07:00:33Z</time>
      </trkpt>
      <trkpt lat="44.17205" lon="0.61333">
        <ele>39.55127</ele>
        <time>2010-05-09T07:00:38Z</time>
      </trkpt>
      <trkpt lat="44.17175" lon="0.61348">
        <ele>38.109375</ele>
        <time>2010-05-09T07:00:49Z</time>
      </trkpt>
      <trkpt lat="44.17167" lon="0.61347">
        <ele>38.109375</ele>
        <time>2010-05-09T07:00:52Z</time>
      </trkpt>
      <trkpt lat="44.1715" lon="0.61354">
        <ele>37.628662</ele>
        <time>2010-05-09T07:01:01Z</time>
      </trkpt>
      <trkpt lat="44.17146" lon="0.61354">
        <ele>37.628662</ele>
        <time>2010-05-09T07:01:03Z</time>
      </trkpt>
      <trkpt lat="44.17138" lon="0.6135">
        <ele>37.628662</ele>
        <time>2010-05-09T07:01:14Z</time>
      </trkpt>
      <trkpt lat="44.17133" lon="0.61342">
        <ele>37.628662</ele>
        <time>2010-05-09T07:01:25Z</time>
      </trkpt>
      <trkpt lat="44.17124" lon="0.61332">
        <ele>40.512817</ele>
        <time>2010-05-09T07:01:40Z</time>
      </trkpt>
      <trkpt lat="44.17121" lon="0.61329">
        <ele>40.993408</ele>
        <time>2010-05-09T07:01:49Z</time>
      </trkpt>
      <trkpt lat="44.1712" lon="0.61319">
        <ele>42.916016</ele>
        <time>2010-05-09T07:02:02Z</time>
      </trkpt>
      <trkpt lat="44.1712" lon="0.61306">
        <ele>45.799927</ele>
        <time>2010-05-09T07:02:13Z</time>
      </trkpt>
      <trkpt lat="44.17117" lon="0.61292">
        <ele>48.68396</ele>
        <time>2010-05-09T07:02:26Z</time>
      </trkpt>
      <trkpt lat="44.17114" lon="0.61285">
        <ele>50.125977</ele>
        <time>2010-05-09T07:02:37Z</time>
      </trkpt>
      <trkpt lat="44.17108" lon="0.61281">
        <ele>53.009766</ele>
        <time>2010-05-09T07:02:48Z</time>
      </trkpt>
      <trkpt lat="44.17106" lon="0.61274">
        <ele>53.971191</ele>
        <time>2010-05-09T07:02:52Z</time>
      </trkpt>
      <trkpt lat="44.17092" lon="0.61228">
        <ele>54.451782</ele>
        <time>2010-05-09T07:03:04Z</time>
      </trkpt>
      <trkpt lat="44.17084" lon="0.61188">
        <ele>56.374512</ele>
        <time>2010-05-09T07:03:12Z</time>
      </trkpt>
      <trkpt lat="44.17058" lon="0.61125">
        <ele>57.335815</ele>
        <time>2010-05-09T07:03:25Z</time>
      </trkpt>
      <trkpt lat="44.17037" lon="0.61066">
        <ele>60.219727</ele>
        <time>2010-05-09T07:03:37Z</time>
      </trkpt>
      <trkpt lat="44.17015" lon="0.61006">
        <ele>60.219727</ele>
        <time>2010-05-09T07:03:50Z</time>
      </trkpt>
      <trkpt lat="44.16989" lon="0.60957">
        <ele>58.77771</ele>
        <time>2010-05-09T07:04:02Z</time>
      </trkpt>
      <trkpt lat="44.1696" lon="0.60932">
        <ele>59.258423</ele>
        <time>2010-05-09T07:04:12Z</time>
      </trkpt>
      <trkpt lat="44.16944" lon="0.60926">
        <ele>59.258423</ele>
        <time>2010-05-09T07:04:16Z</time>
      </trkpt>
      <trkpt lat="44.16886" lon="0.60933">
        <ele>59.739136</ele>
        <time>2010-05-09T07:04:28Z</time>
      </trkpt>
      <trkpt lat="44.16877" lon="0.60937">
        <ele>59.739136</ele>
        <time>2010-05-09T07:04:30Z</time>
      </trkpt>
      <trkpt lat="44.16854" lon="0.60951">
        <ele>58.77771</ele>
        <time>2010-05-09T07:04:35Z</time>
      </trkpt>
      <trkpt lat="44.16823" lon="0.60948">
        <ele>59.739136</ele>
        <time>2010-05-09T07:04:42Z</time>
      </trkpt>
      <trkpt lat="44.16757" lon="0.60972">
        <ele>58.77771</ele>
        <time>2010-05-09T07:04:55Z</time>
      </trkpt>
      <trkpt lat="44.16675" lon="0.61002">
        <ele>58.297119</ele>
        <time>2010-05-09T07:05:10Z</time>
      </trkpt>
      <trkpt lat="44.16657" lon="0.61024">
        <ele>58.297119</ele>
        <time>2010-05-09T07:05:16Z</time>
      </trkpt>
      <trkpt lat="44.16636" lon="0.61016">
        <ele>58.297119</ele>
        <time>2010-05-09T07:05:22Z</time>
      </trkpt>
      <trkpt lat="44.16632" lon="0.61017">
        <ele>58.297119</ele>
        <time>2010-05-09T07:05:23Z</time>
      </trkpt>
      <trkpt lat="44.16562" lon="0.61047">
        <ele>58.297119</ele>
        <time>2010-05-09T07:05:40Z</time>
      </trkpt>
      <trkpt lat="44.16541" lon="0.61066">
        <ele>59.258423</ele>
        <time>2010-05-09T07:05:50Z</time>
      </trkpt>
      <trkpt lat="44.16539" lon="0.6107">
        <ele>59.739136</ele>
        <time>2010-05-09T07:05:51Z</time>
      </trkpt>
      <trkpt lat="44.16532" lon="0.61072">
        <ele>59.739136</ele>
        <time>2010-05-09T07:05:54Z</time>
      </trkpt>
      <trkpt lat="44.1651" lon="0.61028">
        <ele>61.661743</ele>
        <time>2010-05-09T07:06:04Z</time>
      </trkpt>
      <trkpt lat="44.16506" lon="0.61005">
        <ele>61.661743</ele>
        <time>2010-05-09T07:06:08Z</time>
      </trkpt>
      <trkpt lat="44.16504" lon="0.60987">
        <ele>61.661743</ele>
        <time>2010-05-09T07:06:11Z</time>
      </trkpt>
      <trkpt lat="44.16484" lon="0.60958">
        <ele>63.584351</ele>
        <time>2010-05-09T07:06:19Z</time>
      </trkpt>
      <trkpt lat="44.1644" lon="0.60955">
        <ele>65.026367</ele>
        <time>2010-05-09T07:06:28Z</time>
      </trkpt>
      <trkpt lat="44.16426" lon="0.60952">
        <ele>65.987671</ele>
        <time>2010-05-09T07:06:31Z</time>
      </trkpt>
      <trkpt lat="44.16359" lon="0.60927">
        <ele>67.429688</ele>
        <time>2010-05-09T07:06:45Z</time>
      </trkpt>
      <trkpt lat="44.16279" lon="0.60908">
        <ele>65.987671</ele>
        <time>2010-05-09T07:07:01Z</time>
      </trkpt>
      <trkpt lat="44.16235" lon="0.609">
        <ele>64.545654</ele>
        <time>2010-05-09T07:07:09Z</time>
      </trkpt>
      <trkpt lat="44.16156" lon="0.60884">
        <ele>60.700317</ele>
        <time>2010-05-09T07:07:21Z</time>
      </trkpt>
      <trkpt lat="44.16149" lon="0.60882">
        <ele>60.700317</ele>
        <time>2010-05-09T07:07:22Z</time>
      </trkpt>
      <trkpt lat="44.16121" lon="0.60874">
        <ele>59.258423</ele>
        <time>2010-05-09T07:07:26Z</time>
      </trkpt>
      <trkpt lat="44.16078" lon="0.60829">
        <ele>59.739136</ele>
        <time>2010-05-09T07:07:35Z</time>
      </trkpt>
      <trkpt lat="44.16064" lon="0.60806">
        <ele>61.661743</ele>
        <time>2010-05-09T07:07:39Z</time>
      </trkpt>
      <trkpt lat="44.16035" lon="0.60704">
        <ele>66.948975</ele>
        <time>2010-05-09T07:07:57Z</time>
      </trkpt>
      <trkpt lat="44.16033" lon="0.60629">
        <ele>69.832886</ele>
        <time>2010-05-09T07:08:13Z</time>
      </trkpt>
      <trkpt lat="44.16032" lon="0.60612">
        <ele>70.313477</ele>
        <time>2010-05-09T07:08:17Z</time>
      </trkpt>
      <trkpt lat="44.16012" lon="0.60622">
        <ele>68.390869</ele>
        <time>2010-05-09T07:08:24Z</time>
      </trkpt>
      <trkpt lat="44.16009" lon="0.60627">
        <ele>67.910278</ele>
        <time>2010-05-09T07:08:25Z</time>
      </trkpt>
      <trkpt lat="44.15961" lon="0.60692">
        <ele>62.622925</ele>
        <time>2010-05-09T07:08:37Z</time>
      </trkpt>
      <trkpt lat="44.15953" lon="0.60715">
        <ele>61.661743</ele>
        <time>2010-05-09T07:08:41Z</time>
      </trkpt>
      <trkpt lat="44.15951" lon="0.60747">
        <ele>58.297119</ele>
        <time>2010-05-09T07:08:51Z</time>
      </trkpt>
      <trkpt lat="44.15945" lon="0.60766">
        <ele>52.048584</ele>
        <time>2010-05-09T07:09:02Z</time>
      </trkpt>
      <trkpt lat="44.15938" lon="0.60783">
        <ele>47.241821</ele>
        <time>2010-05-09T07:09:08Z</time>
      </trkpt>
      <trkpt lat="44.15932" lon="0.60794">
        <ele>44.838623</ele>
        <time>2010-05-09T07:09:12Z</time>
      </trkpt>
      <trkpt lat="44.15932" lon="0.60785">
        <ele>40.993408</ele>
        <time>2010-05-09T07:09:21Z</time>
      </trkpt>
      <trkpt lat="44.15929" lon="0.60789">
        <ele>40.032104</ele>
        <time>2010-05-09T07:09:35Z</time>
      </trkpt>
      <trkpt lat="44.15928" lon="0.60786">
        <ele>39.070679</ele>
        <time>2010-05-09T07:09:42Z</time>
      </trkpt>
      <trkpt lat="44.15926" lon="0.60773">
        <ele>36.66748</ele>
        <time>2010-05-09T07:09:50Z</time>
      </trkpt>
      <trkpt lat="44.15918" lon="0.60772">
        <ele>33.783447</ele>
        <time>2010-05-09T07:09:58Z</time>
      </trkpt>
      <trkpt lat="44.15902" lon="0.60775">
        <ele>31.860718</ele>
        <time>2010-05-09T07:10:08Z</time>
      </trkpt>
      <trkpt lat="44.15889" lon="0.60786">
        <ele>30.899536</ele>
        <time>2010-05-09T07:10:15Z</time>
      </trkpt>
      <trkpt lat="44.15885" lon="0.60809">
        <ele>32.822266</ele>
        <time>2010-05-09T07:10:23Z</time>
      </trkpt>
      <trkpt lat="44.15889" lon="0.60826">
        <ele>35.225464</ele>
        <time>2010-05-09T07:10:31Z</time>
      </trkpt>
      <trkpt lat="44.1589" lon="0.6083">
        <ele>35.706055</ele>
        <time>2010-05-09T07:10:32Z</time>
      </trkpt>
      <trkpt lat="44.15893" lon="0.60845">
        <ele>38.109375</ele>
        <time>2010-05-09T07:10:37Z</time>
      </trkpt>
      <trkpt lat="44.15899" lon="0.60853">
        <ele>40.032104</ele>
        <time>2010-05-09T07:10:41Z</time>
      </trkpt>
      <trkpt lat="44.15923" lon="0.60859">
        <ele>42.435425</ele>
        <time>2010-05-09T07:10:49Z</time>
      </trkpt>
      <trkpt lat="44.15935" lon="0.60866">
        <ele>43.877319</ele>
        <time>2010-05-09T07:10:55Z</time>
      </trkpt>
      <trkpt lat="44.15949" lon="0.60884">
        <ele>43.877319</ele>
        <time>2010-05-09T07:11:03Z</time>
      </trkpt>
      <trkpt lat="44.15948" lon="0.60891">
        <ele>44.838623</ele>
        <time>2010-05-09T07:11:07Z</time>
      </trkpt>
      <trkpt lat="44.1595" lon="0.60901">
        <ele>47.722534</ele>
        <time>2010-05-09T07:11:20Z</time>
      </trkpt>
      <trkpt lat="44.15954" lon="0.60917">
        <ele>46.76123</ele>
        <time>2010-05-09T07:11:30Z</time>
      </trkpt>
      <trkpt lat="44.15954" lon="0.60919">
        <ele>47.241821</ele>
        <time>2010-05-09T07:11:33Z</time>
      </trkpt>
      <trkpt lat="44.15966" lon="0.60934">
        <ele>47.722534</ele>
        <time>2010-05-09T07:11:41Z</time>
      </trkpt>
      <trkpt lat="44.1598" lon="0.60946">
        <ele>47.722534</ele>
        <time>2010-05-09T07:11:48Z</time>
      </trkpt>
      <trkpt lat="44.15996" lon="0.60959">
        <ele>47.722534</ele>
        <time>2010-05-09T07:11:57Z</time>
      </trkpt>
      <trkpt lat="44.16008" lon="0.60967">
        <ele>47.722534</ele>
        <time>2010-05-09T07:12:08Z</time>
      </trkpt>
      <trkpt lat="44.16014" lon="0.60969">
        <ele>49.645264</ele>
        <time>2010-05-09T07:12:18Z</time>
      </trkpt>
      <trkpt lat="44.16017" lon="0.6098">
        <ele>52.048584</ele>
        <time>2010-05-09T07:12:27Z</time>
      </trkpt>
      <trkpt lat="44.16025" lon="0.60993">
        <ele>55.893799</ele>
        <time>2010-05-09T07:12:37Z</time>
      </trkpt>
      <trkpt lat="44.16034" lon="0.61003">
        <ele>60.700317</ele>
        <time>2010-05-09T07:12:46Z</time>
      </trkpt>
      <trkpt lat="44.16044" lon="0.61013">
        <ele>63.584351</ele>
        <time>2010-05-09T07:12:57Z</time>
      </trkpt>
      <trkpt lat="44.16045" lon="0.61015">
        <ele>64.065063</ele>
        <time>2010-05-09T07:13:05Z</time>
      </trkpt>
      <trkpt lat="44.1604" lon="0.6103">
        <ele>65.50708</ele>
        <time>2010-05-09T07:13:17Z</time>
      </trkpt>
      <trkpt lat="44.16036" lon="0.61045">
        <ele>70.313477</ele>
        <time>2010-05-09T07:13:32Z</time>
      </trkpt>
      <trkpt lat="44.16036" lon="0.61052">
        <ele>71.755493</ele>
        <time>2010-05-09T07:13:38Z</time>
      </trkpt>
      <trkpt lat="44.16036" lon="0.61056">
        <ele>71.274902</ele>
        <time>2010-05-09T07:13:41Z</time>
      </trkpt>
      <trkpt lat="44.16035" lon="0.61064">
        <ele>71.274902</ele>
        <time>2010-05-09T07:13:46Z</time>
      </trkpt>
      <trkpt lat="44.16033" lon="0.61079">
        <ele>72.236206</ele>
        <time>2010-05-09T07:13:56Z</time>
      </trkpt>
      <trkpt lat="44.16035" lon="0.61086">
        <ele>71.755493</ele>
        <time>2010-05-09T07:14:09Z</time>
      </trkpt>
      <trkpt lat="44.16036" lon="0.61087">
        <ele>70.794189</ele>
        <time>2010-05-09T07:14:14Z</time>
      </trkpt>
      <trkpt lat="44.1605" lon="0.61085">
        <ele>69.352295</ele>
        <time>2010-05-09T07:14:22Z</time>
      </trkpt>
      <trkpt lat="44.16055" lon="0.61092">
        <ele>68.390869</ele>
        <time>2010-05-09T07:14:26Z</time>
      </trkpt>
      <trkpt lat="44.1606" lon="0.61098">
        <ele>66.948975</ele>
        <time>2010-05-09T07:14:29Z</time>
      </trkpt>
      <trkpt lat="44.16069" lon="0.61106">
        <ele>66.468262</ele>
        <time>2010-05-09T07:14:34Z</time>
      </trkpt>
      <trkpt lat="44.16072" lon="0.61115">
        <ele>68.390869</ele>
        <time>2010-05-09T07:14:39Z</time>
      </trkpt>
      <trkpt lat="44.16071" lon="0.61121">
        <ele>70.313477</ele>
        <time>2010-05-09T07:14:43Z</time>
      </trkpt>
      <trkpt lat="44.16064" lon="0.61144">
        <ele>69.832886</ele>
        <time>2010-05-09T07:14:55Z</time>
      </trkpt>
      <trkpt lat="44.16053" lon="0.61176">
        <ele>69.352295</ele>
        <time>2010-05-09T07:15:08Z</time>
      </trkpt>
      <trkpt lat="44.1604" lon="0.61211">
        <ele>68.871582</ele>
        <time>2010-05-09T07:15:21Z</time>
      </trkpt>
      <trkpt lat="44.16037" lon="0.61263">
        <ele>71.755493</ele>
        <time>2010-05-09T07:15:36Z</time>
      </trkpt>
      <trkpt lat="44.16023" lon="0.61292">
        <ele>72.716919</ele>
        <time>2010-05-09T07:15:48Z</time>
      </trkpt>
      <trkpt lat="44.15995" lon="0.61315">
        <ele>72.236206</ele>
        <time>2010-05-09T07:16:02Z</time>
      </trkpt>
      <trkpt lat="44.15968" lon="0.61369">
        <ele>72.716919</ele>
        <time>2010-05-09T07:16:17Z</time>
      </trkpt>
      <trkpt lat="44.15936" lon="0.61439">
        <ele>73.197632</ele>
        <time>2010-05-09T07:16:34Z</time>
      </trkpt>
      <trkpt lat="44.15897" lon="0.61511">
        <ele>72.716919</ele>
        <time>2010-05-09T07:16:49Z</time>
      </trkpt>
      <trkpt lat="44.15861" lon="0.61577">
        <ele>72.236206</ele>
        <time>2010-05-09T07:17:03Z</time>
      </trkpt>
      <trkpt lat="44.1582" lon="0.61642">
        <ele>72.236206</ele>
        <time>2010-05-09T07:17:20Z</time>
      </trkpt>
      <trkpt lat="44.15792" lon="0.61678">
        <ele>71.274902</ele>
        <time>2010-05-09T07:17:30Z</time>
      </trkpt>
      <trkpt lat="44.15738" lon="0.61736">
        <ele>71.755493</ele>
        <time>2010-05-09T07:17:48Z</time>
      </trkpt>
      <trkpt lat="44.15706" lon="0.61765">
        <ele>72.236206</ele>
        <time>2010-05-09T07:17:59Z</time>
      </trkpt>
      <trkpt lat="44.15706" lon="0.6178">
        <ele>72.236206</ele>
        <time>2010-05-09T07:18:03Z</time>
      </trkpt>
      <trkpt lat="44.15736" lon="0.61851">
        <ele>71.755493</ele>
        <time>2010-05-09T07:18:18Z</time>
      </trkpt>
      <trkpt lat="44.15738" lon="0.61856">
        <ele>71.274902</ele>
        <time>2010-05-09T07:18:19Z</time>
      </trkpt>
      <trkpt lat="44.15731" lon="0.61883">
        <ele>69.832886</ele>
        <time>2010-05-09T07:18:26Z</time>
      </trkpt>
      <trkpt lat="44.15682" lon="0.61922">
        <ele>69.832886</ele>
        <time>2010-05-09T07:18:41Z</time>
      </trkpt>
      <trkpt lat="44.1563" lon="0.61965">
        <ele>69.832886</ele>
        <time>2010-05-09T07:18:56Z</time>
      </trkpt>
      <trkpt lat="44.15603" lon="0.61989">
        <ele>70.313477</ele>
        <time>2010-05-09T07:19:04Z</time>
      </trkpt>
      <trkpt lat="44.1559" lon="0.62017">
        <ele>69.832886</ele>
        <time>2010-05-09T07:19:09Z</time>
      </trkpt>
      <trkpt lat="44.15563" lon="0.62056">
        <ele>67.429688</ele>
        <time>2010-05-09T07:19:18Z</time>
      </trkpt>
      <trkpt lat="44.15545" lon="0.62062">
        <ele>66.468262</ele>
        <time>2010-05-09T07:19:22Z</time>
      </trkpt>
      <trkpt lat="44.15538" lon="0.621">
        <ele>64.545654</ele>
        <time>2010-05-09T07:19:30Z</time>
      </trkpt>
      <trkpt lat="44.15532" lon="0.62099">
        <ele>64.545654</ele>
        <time>2010-05-09T07:19:32Z</time>
      </trkpt>
      <trkpt lat="44.1552" lon="0.62082">
        <ele>64.065063</ele>
        <time>2010-05-09T07:19:36Z</time>
      </trkpt>
      <trkpt lat="44.15492" lon="0.62018">
        <ele>66.468262</ele>
        <time>2010-05-09T07:19:50Z</time>
      </trkpt>
      <trkpt lat="44.15464" lon="0.61977">
        <ele>69.832886</ele>
        <time>2010-05-09T07:20:01Z</time>
      </trkpt>
      <trkpt lat="44.15418" lon="0.61967">
        <ele>69.352295</ele>
        <time>2010-05-09T07:20:13Z</time>
      </trkpt>
      <trkpt lat="44.1541" lon="0.61965">
        <ele>69.352295</ele>
        <time>2010-05-09T07:20:15Z</time>
      </trkpt>
      <trkpt lat="44.15368" lon="0.61959">
        <ele>68.871582</ele>
        <time>2010-05-09T07:20:26Z</time>
      </trkpt>
      <trkpt lat="44.15361" lon="0.61961">
        <ele>68.390869</ele>
        <time>2010-05-09T07:20:28Z</time>
      </trkpt>
      <trkpt lat="44.153" lon="0.61981">
        <ele>67.429688</ele>
        <time>2010-05-09T07:20:44Z</time>
      </trkpt>
      <trkpt lat="44.15292" lon="0.61984">
        <ele>67.910278</ele>
        <time>2010-05-09T07:20:46Z</time>
      </trkpt>
      <trkpt lat="44.1524" lon="0.62001">
        <ele>68.390869</ele>
        <time>2010-05-09T07:20:59Z</time>
      </trkpt>
      <trkpt lat="44.15212" lon="0.62011">
        <ele>66.468262</ele>
        <time>2010-05-09T07:21:05Z</time>
      </trkpt>
      <trkpt lat="44.1518" lon="0.62028">
        <ele>65.026367</ele>
        <time>2010-05-09T07:21:12Z</time>
      </trkpt>
      <trkpt lat="44.15151" lon="0.62029">
        <ele>63.103638</ele>
        <time>2010-05-09T07:21:19Z</time>
      </trkpt>
      <trkpt lat="44.1515" lon="0.6203">
        <ele>63.103638</ele>
        <time>2010-05-09T07:21:20Z</time>
      </trkpt>
      <trkpt lat="44.1516" lon="0.6202">
        <ele>64.065063</ele>
        <time>2010-05-09T07:21:28Z</time>
      </trkpt>
      <trkpt lat="44.15158" lon="0.62006">
        <ele>63.584351</ele>
        <time>2010-05-09T07:21:31Z</time>
      </trkpt>
      <trkpt lat="44.15142" lon="0.61971">
        <ele>59.258423</ele>
        <time>2010-05-09T07:21:38Z</time>
      </trkpt>
      <trkpt lat="44.15128" lon="0.61974">
        <ele>58.297119</ele>
        <time>2010-05-09T07:21:40Z</time>
      </trkpt>
      <trkpt lat="44.15114" lon="0.61976">
        <ele>57.335815</ele>
        <time>2010-05-09T07:21:42Z</time>
      </trkpt>
      <trkpt lat="44.15083" lon="0.61978">
        <ele>60.219727</ele>
        <time>2010-05-09T07:21:52Z</time>
      </trkpt>
      <trkpt lat="44.15056" lon="0.61975">
        <ele>65.026367</ele>
        <time>2010-05-09T07:22:06Z</time>
      </trkpt>
      <trkpt lat="44.15024" lon="0.61976">
        <ele>69.832886</ele>
        <time>2010-05-09T07:22:21Z</time>
      </trkpt>
      <trkpt lat="44.14999" lon="0.61968">
        <ele>71.755493</ele>
        <time>2010-05-09T07:22:34Z</time>
      </trkpt>
      <trkpt lat="44.14974" lon="0.61973">
        <ele>71.274902</ele>
        <time>2010-05-09T07:22:48Z</time>
      </trkpt>
      <trkpt lat="44.14937" lon="0.61991">
        <ele>72.716919</ele>
        <time>2010-05-09T07:23:02Z</time>
      </trkpt>
      <trkpt lat="44.14893" lon="0.61998">
        <ele>73.678223</ele>
        <time>2010-05-09T07:23:16Z</time>
      </trkpt>
      <trkpt lat="44.14852" lon="0.62022">
        <ele>74.639526</ele>
        <time>2010-05-09T07:23:30Z</time>
      </trkpt>
      <trkpt lat="44.14813" lon="0.62043">
        <ele>77.042847</ele>
        <time>2010-05-09T07:23:45Z</time>
      </trkpt>
      <trkpt lat="44.14812" lon="0.62056">
        <ele>77.523438</ele>
        <time>2010-05-09T07:23:49Z</time>
      </trkpt>
      <trkpt lat="44.14823" lon="0.62134">
        <ele>73.678223</ele>
        <time>2010-05-09T07:24:01Z</time>
      </trkpt>
      <trkpt lat="44.14825" lon="0.62145">
        <ele>72.716919</ele>
        <time>2010-05-09T07:24:04Z</time>
      </trkpt>
      <trkpt lat="44.14818" lon="0.62162">
        <ele>69.352295</ele>
        <time>2010-05-09T07:24:10Z</time>
      </trkpt>
      <trkpt lat="44.1479" lon="0.62182">
        <ele>64.065063</ele>
        <time>2010-05-09T07:24:16Z</time>
      </trkpt>
      <trkpt lat="44.14779" lon="0.62192">
        <ele>61.661743</ele>
        <time>2010-05-09T07:24:18Z</time>
      </trkpt>
      <trkpt lat="44.14757" lon="0.62209">
        <ele>57.335815</ele>
        <time>2010-05-09T07:24:22Z</time>
      </trkpt>
      <trkpt lat="44.14714" lon="0.62258">
        <ele>48.68396</ele>
        <time>2010-05-09T07:24:32Z</time>
      </trkpt>
      <trkpt lat="44.14663" lon="0.62326">
        <ele>43.396606</ele>
        <time>2010-05-09T07:24:44Z</time>
      </trkpt>
      <trkpt lat="44.14642" lon="0.62353">
        <ele>42.916016</ele>
        <time>2010-05-09T07:24:49Z</time>
      </trkpt>
      <trkpt lat="44.14615" lon="0.62374">
        <ele>41.473999</ele>
        <time>2010-05-09T07:24:55Z</time>
      </trkpt>
      <trkpt lat="44.14598" lon="0.62393">
        <ele>40.993408</ele>
        <time>2010-05-09T07:24:59Z</time>
      </trkpt>
      <trkpt lat="44.14592" lon="0.62413">
        <ele>40.032104</ele>
        <time>2010-05-09T07:25:03Z</time>
      </trkpt>
      <trkpt lat="44.14584" lon="0.62457">
        <ele>40.512817</ele>
        <time>2010-05-09T07:25:13Z</time>
      </trkpt>
      <trkpt lat="44.1458" lon="0.62477">
        <ele>44.838623</ele>
        <time>2010-05-09T07:25:21Z</time>
      </trkpt>
      <trkpt lat="44.14579" lon="0.62492">
        <ele>48.203369</ele>
        <time>2010-05-09T07:25:28Z</time>
      </trkpt>
      <trkpt lat="44.14578" lon="0.62517">
        <ele>53.009766</ele>
        <time>2010-05-09T07:25:42Z</time>
      </trkpt>
      <trkpt lat="44.14578" lon="0.62529">
        <ele>55.893799</ele>
        <time>2010-05-09T07:25:53Z</time>
      </trkpt>
      <trkpt lat="44.14579" lon="0.62538">
        <ele>58.77771</ele>
        <time>2010-05-09T07:26:08Z</time>
      </trkpt>
      <trkpt lat="44.14581" lon="0.62543">
        <ele>60.700317</ele>
        <time>2010-05-09T07:26:21Z</time>
      </trkpt>
      <trkpt lat="44.14579" lon="0.62549">
        <ele>64.065063</ele>
        <time>2010-05-09T07:26:30Z</time>
      </trkpt>
      <trkpt lat="44.14578" lon="0.6255">
        <ele>64.545654</ele>
        <time>2010-05-09T07:26:38Z</time>
      </trkpt>
      <trkpt lat="44.14575" lon="0.62548">
        <ele>65.50708</ele>
        <time>2010-05-09T07:26:42Z</time>
      </trkpt>
      <trkpt lat="44.14571" lon="0.62541">
        <ele>66.948975</ele>
        <time>2010-05-09T07:26:48Z</time>
      </trkpt>
      <trkpt lat="44.14559" lon="0.62536">
        <ele>67.910278</ele>
        <time>2010-05-09T07:26:55Z</time>
      </trkpt>
      <trkpt lat="44.14531" lon="0.62537">
        <ele>66.468262</ele>
        <time>2010-05-09T07:27:08Z</time>
      </trkpt>
      <trkpt lat="44.14517" lon="0.6254">
        <ele>66.468262</ele>
        <time>2010-05-09T07:27:13Z</time>
      </trkpt>
      <trkpt lat="44.14486" lon="0.62535">
        <ele>67.429688</ele>
        <time>2010-05-09T07:27:26Z</time>
      </trkpt>
      <trkpt lat="44.14452" lon="0.62533">
        <ele>67.429688</ele>
        <time>2010-05-09T07:27:40Z</time>
      </trkpt>
      <trkpt lat="44.14424" lon="0.62513">
        <ele>65.026367</ele>
        <time>2010-05-09T07:27:49Z</time>
      </trkpt>
      <trkpt lat="44.14414" lon="0.62509">
        <ele>64.545654</ele>
        <time>2010-05-09T07:27:51Z</time>
      </trkpt>
      <trkpt lat="44.14402" lon="0.62505">
        <ele>64.065063</ele>
        <time>2010-05-09T07:27:53Z</time>
      </trkpt>
      <trkpt lat="44.14391" lon="0.62504">
        <ele>63.103638</ele>
        <time>2010-05-09T07:27:55Z</time>
      </trkpt>
      <trkpt lat="44.14349" lon="0.62505">
        <ele>61.661743</ele>
        <time>2010-05-09T07:28:05Z</time>
      </trkpt>
      <trkpt lat="44.14311" lon="0.62518">
        <ele>59.258423</ele>
        <time>2010-05-09T07:28:16Z</time>
      </trkpt>
      <trkpt lat="44.14291" lon="0.62515">
        <ele>59.258423</ele>
        <time>2010-05-09T07:28:21Z</time>
      </trkpt>
      <trkpt lat="44.14275" lon="0.62519">
        <ele>58.297119</ele>
        <time>2010-05-09T07:28:25Z</time>
      </trkpt>
      <trkpt lat="44.14226" lon="0.62527">
        <ele>57.335815</ele>
        <time>2010-05-09T07:28:37Z</time>
      </trkpt>
      <trkpt lat="44.14213" lon="0.62534">
        <ele>56.374512</ele>
        <time>2010-05-09T07:28:40Z</time>
      </trkpt>
      <trkpt lat="44.14198" lon="0.62542">
        <ele>54.451782</ele>
        <time>2010-05-09T07:28:43Z</time>
      </trkpt>
      <trkpt lat="44.14173" lon="0.62547">
        <ele>52.048584</ele>
        <time>2010-05-09T07:28:47Z</time>
      </trkpt>
      <trkpt lat="44.14163" lon="0.62546">
        <ele>50.606567</ele>
        <time>2010-05-09T07:28:49Z</time>
      </trkpt>
      <trkpt lat="44.14146" lon="0.62542">
        <ele>48.203369</ele>
        <time>2010-05-09T07:28:52Z</time>
      </trkpt>
      <trkpt lat="44.14113" lon="0.62515">
        <ele>42.916016</ele>
        <time>2010-05-09T07:29:01Z</time>
      </trkpt>
      <trkpt lat="44.14105" lon="0.6251">
        <ele>41.954712</ele>
        <time>2010-05-09T07:29:03Z</time>
      </trkpt>
      <trkpt lat="44.1409" lon="0.62483">
        <ele>37.628662</ele>
        <time>2010-05-09T07:29:10Z</time>
      </trkpt>
      <trkpt lat="44.14079" lon="0.62468">
        <ele>37.628662</ele>
        <time>2010-05-09T07:29:14Z</time>
      </trkpt>
      <trkpt lat="44.14073" lon="0.62456">
        <ele>37.628662</ele>
        <time>2010-05-09T07:29:17Z</time>
      </trkpt>
      <trkpt lat="44.14061" lon="0.62441">
        <ele>38.590088</ele>
        <time>2010-05-09T07:29:23Z</time>
      </trkpt>
      <trkpt lat="44.14046" lon="0.62419">
        <ele>41.954712</ele>
        <time>2010-05-09T07:29:32Z</time>
      </trkpt>
      <trkpt lat="44.14021" lon="0.62395">
        <ele>43.396606</ele>
        <time>2010-05-09T07:29:43Z</time>
      </trkpt>
      <trkpt lat="44.14015" lon="0.6239">
        <ele>43.396606</ele>
        <time>2010-05-09T07:29:45Z</time>
      </trkpt>
      <trkpt lat="44.13993" lon="0.62374">
        <ele>44.358032</ele>
        <time>2010-05-09T07:29:50Z</time>
      </trkpt>
      <trkpt lat="44.1395" lon="0.62376">
        <ele>47.722534</ele>
        <time>2010-05-09T07:30:01Z</time>
      </trkpt>
      <trkpt lat="44.1394" lon="0.62379">
        <ele>48.68396</ele>
        <time>2010-05-09T07:30:04Z</time>
      </trkpt>
      <trkpt lat="44.13908" lon="0.62386">
        <ele>50.125977</ele>
        <time>2010-05-09T07:30:14Z</time>
      </trkpt>
      <trkpt lat="44.13888" lon="0.62383">
        <ele>52.048584</ele>
        <time>2010-05-09T07:30:20Z</time>
      </trkpt>
      <trkpt lat="44.13857" lon="0.62358">
        <ele>55.893799</ele>
        <time>2010-05-09T07:30:31Z</time>
      </trkpt>
      <trkpt lat="44.13831" lon="0.62335">
        <ele>54.451782</ele>
        <time>2010-05-09T07:30:40Z</time>
      </trkpt>
      <trkpt lat="44.13798" lon="0.62301">
        <ele>53.009766</ele>
        <time>2010-05-09T07:30:52Z</time>
      </trkpt>
      <trkpt lat="44.13764" lon="0.62265">
        <ele>54.451782</ele>
        <time>2010-05-09T07:31:04Z</time>
      </trkpt>
      <trkpt lat="44.13738" lon="0.62238">
        <ele>49.164551</ele>
        <time>2010-05-09T07:31:14Z</time>
      </trkpt>
      <trkpt lat="44.13713" lon="0.62219">
        <ele>44.838623</ele>
        <time>2010-05-09T07:31:21Z</time>
      </trkpt>
      <trkpt lat="44.13682" lon="0.62199">
        <ele>38.590088</ele>
        <time>2010-05-09T07:31:30Z</time>
      </trkpt>
      <trkpt lat="44.13645" lon="0.62182">
        <ele>38.590088</ele>
        <time>2010-05-09T07:31:41Z</time>
      </trkpt>
      <trkpt lat="44.13613" lon="0.6217">
        <ele>39.070679</ele>
        <time>2010-05-09T07:31:51Z</time>
      </trkpt>
      <trkpt lat="44.1361" lon="0.6217">
        <ele>39.070679</ele>
        <time>2010-05-09T07:31:52Z</time>
      </trkpt>
      <trkpt lat="44.13598" lon="0.6216">
        <ele>42.435425</ele>
        <time>2010-05-09T07:31:59Z</time>
      </trkpt>
      <trkpt lat="44.13561" lon="0.62142">
        <ele>45.319214</ele>
        <time>2010-05-09T07:32:11Z</time>
      </trkpt>
      <trkpt lat="44.13539" lon="0.62105">
        <ele>46.76123</ele>
        <time>2010-05-09T07:32:21Z</time>
      </trkpt>
      <trkpt lat="44.1354" lon="0.62056">
        <ele>52.529175</ele>
        <time>2010-05-09T07:32:32Z</time>
      </trkpt>
      <trkpt lat="44.1354" lon="0.62054">
        <ele>56.855103</ele>
        <time>2010-05-09T07:32:41Z</time>
      </trkpt>
      <trkpt lat="44.1354" lon="0.62054">
        <ele>59.258423</ele>
        <time>2010-05-09T07:32:47Z</time>
      </trkpt>
      <trkpt lat="44.13537" lon="0.62082">
        <ele>59.258423</ele>
        <time>2010-05-09T07:32:57Z</time>
      </trkpt>
      <trkpt lat="44.13538" lon="0.62096">
        <ele>57.816528</ele>
        <time>2010-05-09T07:33:00Z</time>
      </trkpt>
      <trkpt lat="44.13543" lon="0.62112">
        <ele>56.855103</ele>
        <time>2010-05-09T07:33:03Z</time>
      </trkpt>
      <trkpt lat="44.13573" lon="0.6215">
        <ele>54.451782</ele>
        <time>2010-05-09T07:33:15Z</time>
      </trkpt>
      <trkpt lat="44.13588" lon="0.62156">
        <ele>53.009766</ele>
        <time>2010-05-09T07:33:20Z</time>
      </trkpt>
      <trkpt lat="44.13589" lon="0.62173">
        <ele>54.451782</ele>
        <time>2010-05-09T07:33:27Z</time>
      </trkpt>
      <trkpt lat="44.13581" lon="0.62179">
        <ele>55.893799</ele>
        <time>2010-05-09T07:33:35Z</time>
      </trkpt>
      <trkpt lat="44.13578" lon="0.62185">
        <ele>56.855103</ele>
        <time>2010-05-09T07:33:47Z</time>
      </trkpt>
      <trkpt lat="44.13578" lon="0.62186">
        <ele>56.855103</ele>
        <time>2010-05-09T07:33:48Z</time>
      </trkpt>
      <trkpt lat="44.13572" lon="0.62203">
        <ele>60.219727</ele>
        <time>2010-05-09T07:33:58Z</time>
      </trkpt>
      <trkpt lat="44.13566" lon="0.62213">
        <ele>60.700317</ele>
        <time>2010-05-09T07:34:03Z</time>
      </trkpt>
      <trkpt lat="44.13534" lon="0.62229">
        <ele>63.584351</ele>
        <time>2010-05-09T07:34:17Z</time>
      </trkpt>
      <trkpt lat="44.13502" lon="0.62252">
        <ele>62.622925</ele>
        <time>2010-05-09T07:34:28Z</time>
      </trkpt>
      <trkpt lat="44.13474" lon="0.62275">
        <ele>63.584351</ele>
        <time>2010-05-09T07:34:39Z</time>
      </trkpt>
      <trkpt lat="44.13468" lon="0.62285">
        <ele>64.545654</ele>
        <time>2010-05-09T07:34:43Z</time>
      </trkpt>
      <trkpt lat="44.13455" lon="0.62304">
        <ele>63.584351</ele>
        <time>2010-05-09T07:34:51Z</time>
      </trkpt>
      <trkpt lat="44.13426" lon="0.62338">
        <ele>61.661743</ele>
        <time>2010-05-09T07:35:02Z</time>
      </trkpt>
      <trkpt lat="44.13398" lon="0.62362">
        <ele>60.219727</ele>
        <time>2010-05-09T07:35:12Z</time>
      </trkpt>
      <trkpt lat="44.13396" lon="0.62365">
        <ele>60.219727</ele>
        <time>2010-05-09T07:35:13Z</time>
      </trkpt>
      <trkpt lat="44.13385" lon="0.62373">
        <ele>61.661743</ele>
        <time>2010-05-09T07:35:19Z</time>
      </trkpt>
      <trkpt lat="44.13378" lon="0.62379">
        <ele>61.661743</ele>
        <time>2010-05-09T07:35:22Z</time>
      </trkpt>
      <trkpt lat="44.13356" lon="0.62393">
        <ele>61.661743</ele>
        <time>2010-05-09T07:35:32Z</time>
      </trkpt>
      <trkpt lat="44.13349" lon="0.62401">
        <ele>62.622925</ele>
        <time>2010-05-09T07:35:36Z</time>
      </trkpt>
      <trkpt lat="44.13333" lon="0.62417">
        <ele>64.545654</ele>
        <time>2010-05-09T07:35:45Z</time>
      </trkpt>
      <trkpt lat="44.13313" lon="0.62442">
        <ele>66.948975</ele>
        <time>2010-05-09T07:35:58Z</time>
      </trkpt>
      <trkpt lat="44.13292" lon="0.62442">
        <ele>68.871582</ele>
        <time>2010-05-09T07:36:10Z</time>
      </trkpt>
      <trkpt lat="44.13277" lon="0.62424">
        <ele>69.832886</ele>
        <time>2010-05-09T07:36:21Z</time>
      </trkpt>
      <trkpt lat="44.13275" lon="0.62423">
        <ele>69.832886</ele>
        <time>2010-05-09T07:36:22Z</time>
      </trkpt>
      <trkpt lat="44.13263" lon="0.62418">
        <ele>70.794189</ele>
        <time>2010-05-09T07:36:29Z</time>
      </trkpt>
      <trkpt lat="44.13253" lon="0.62411">
        <ele>69.832886</ele>
        <time>2010-05-09T07:36:35Z</time>
      </trkpt>
      <trkpt lat="44.13246" lon="0.62408">
        <ele>70.313477</ele>
        <time>2010-05-09T07:36:39Z</time>
      </trkpt>
      <trkpt lat="44.13228" lon="0.62397">
        <ele>68.871582</ele>
        <time>2010-05-09T07:36:51Z</time>
      </trkpt>
      <trkpt lat="44.13218" lon="0.62392">
        <ele>69.832886</ele>
        <time>2010-05-09T07:36:57Z</time>
      </trkpt>
      <trkpt lat="44.13192" lon="0.6238">
        <ele>72.716919</ele>
        <time>2010-05-09T07:37:08Z</time>
      </trkpt>
      <trkpt lat="44.13166" lon="0.62369">
        <ele>73.678223</ele>
        <time>2010-05-09T07:37:17Z</time>
      </trkpt>
      <trkpt lat="44.1314" lon="0.62357">
        <ele>74.158813</ele>
        <time>2010-05-09T07:37:24Z</time>
      </trkpt>
      <trkpt lat="44.13122" lon="0.6235">
        <ele>73.197632</ele>
        <time>2010-05-09T07:37:29Z</time>
      </trkpt>
      <trkpt lat="44.13088" lon="0.62332">
        <ele>69.352295</ele>
        <time>2010-05-09T07:37:39Z</time>
      </trkpt>
      <trkpt lat="44.13069" lon="0.62323">
        <ele>69.352295</ele>
        <time>2010-05-09T07:37:46Z</time>
      </trkpt>
      <trkpt lat="44.13042" lon="0.62307">
        <ele>71.274902</ele>
        <time>2010-05-09T07:37:56Z</time>
      </trkpt>
      <trkpt lat="44.13039" lon="0.62295">
        <ele>73.197632</ele>
        <time>2010-05-09T07:38:01Z</time>
      </trkpt>
      <trkpt lat="44.1303" lon="0.62273">
        <ele>75.120239</ele>
        <time>2010-05-09T07:38:12Z</time>
      </trkpt>
      <trkpt lat="44.13024" lon="0.62243">
        <ele>78.965454</ele>
        <time>2010-05-09T07:38:26Z</time>
      </trkpt>
      <trkpt lat="44.13022" lon="0.62219">
        <ele>83.771973</ele>
        <time>2010-05-09T07:38:36Z</time>
      </trkpt>
      <trkpt lat="44.13022" lon="0.62216">
        <ele>83.771973</ele>
        <time>2010-05-09T07:38:39Z</time>
      </trkpt>
      <trkpt lat="44.13017" lon="0.62195">
        <ele>86.175293</ele>
        <time>2010-05-09T07:38:51Z</time>
      </trkpt>
      <trkpt lat="44.13012" lon="0.62178">
        <ele>87.617188</ele>
        <time>2010-05-09T07:39:01Z</time>
      </trkpt>
      <trkpt lat="44.13008" lon="0.6216">
        <ele>90.02063</ele>
        <time>2010-05-09T07:39:12Z</time>
      </trkpt>
      <trkpt lat="44.13006" lon="0.62155">
        <ele>90.981934</ele>
        <time>2010-05-09T07:39:16Z</time>
      </trkpt>
      <trkpt lat="44.13006" lon="0.62151">
        <ele>91.943237</ele>
        <time>2010-05-09T07:39:18Z</time>
      </trkpt>
      <trkpt lat="44.13004" lon="0.62139">
        <ele>94.827148</ele>
        <time>2010-05-09T07:39:27Z</time>
      </trkpt>
      <trkpt lat="44.13003" lon="0.62131">
        <ele>96.749878</ele>
        <time>2010-05-09T07:39:32Z</time>
      </trkpt>
      <trkpt lat="44.13001" lon="0.62125">
        <ele>99.633789</ele>
        <time>2010-05-09T07:39:36Z</time>
      </trkpt>
      <trkpt lat="44.12985" lon="0.62087">
        <ele>122.705444</ele>
        <time>2010-05-09T07:40:06Z</time>
      </trkpt>
      <trkpt lat="44.12987" lon="0.62084">
        <ele>115.976196</ele>
        <time>2010-05-09T07:40:09Z</time>
      </trkpt>
      <trkpt lat="44.12985" lon="0.62082">
        <ele>125.108765</ele>
        <time>2010-05-09T07:40:32Z</time>
      </trkpt>
      <trkpt lat="44.12984" lon="0.62081">
        <ele>124.628052</ele>
        <time>2010-05-09T07:40:43Z</time>
      </trkpt>
      <trkpt lat="44.12983" lon="0.62075">
        <ele>124.628052</ele>
        <time>2010-05-09T07:40:55Z</time>
      </trkpt>
      <trkpt lat="44.12982" lon="0.62072">
        <ele>124.628052</ele>
        <time>2010-05-09T07:40:57Z</time>
      </trkpt>
      <trkpt lat="44.12983" lon="0.62069">
        <ele>124.628052</ele>
        <time>2010-05-09T07:40:59Z</time>
      </trkpt>
      <trkpt lat="44.12981" lon="0.62059">
        <ele>124.628052</ele>
        <time>2010-05-09T07:41:10Z</time>
      </trkpt>
      <trkpt lat="44.12978" lon="0.62049">
        <ele>125.589355</ele>
        <time>2010-05-09T07:41:18Z</time>
      </trkpt>
      <trkpt lat="44.12973" lon="0.62035">
        <ele>127.511963</ele>
        <time>2010-05-09T07:41:28Z</time>
      </trkpt>
      <trkpt lat="44.12971" lon="0.62032">
        <ele>127.511963</ele>
        <time>2010-05-09T07:41:31Z</time>
      </trkpt>
      <trkpt lat="44.12968" lon="0.62026">
        <ele>125.589355</ele>
        <time>2010-05-09T07:41:35Z</time>
      </trkpt>
      <trkpt lat="44.12957" lon="0.62012">
        <ele>123.666748</ele>
        <time>2010-05-09T07:41:47Z</time>
      </trkpt>
      <trkpt lat="44.12955" lon="0.6201">
        <ele>123.666748</ele>
        <time>2010-05-09T07:41:50Z</time>
      </trkpt>
      <trkpt lat="44.12952" lon="0.62006">
        <ele>123.666748</ele>
        <time>2010-05-09T07:41:54Z</time>
      </trkpt>
      <trkpt lat="44.12948" lon="0.62001">
        <ele>123.666748</ele>
        <time>2010-05-09T07:41:59Z</time>
      </trkpt>
      <trkpt lat="44.12945" lon="0.61994">
        <ele>124.628052</ele>
        <time>2010-05-09T07:42:04Z</time>
      </trkpt>
      <trkpt lat="44.12935" lon="0.61981">
        <ele>125.108765</ele>
        <time>2010-05-09T07:42:14Z</time>
      </trkpt>
      <trkpt lat="44.1292" lon="0.6198">
        <ele>123.666748</ele>
        <time>2010-05-09T07:42:19Z</time>
      </trkpt>
      <trkpt lat="44.12881" lon="0.6196">
        <ele>118.860107</ele>
        <time>2010-05-09T07:42:31Z</time>
      </trkpt>
      <trkpt lat="44.12833" lon="0.61944">
        <ele>115.976196</ele>
        <time>2010-05-09T07:42:46Z</time>
      </trkpt>
      <trkpt lat="44.1283" lon="0.61939">
        <ele>115.976196</ele>
        <time>2010-05-09T07:42:48Z</time>
      </trkpt>
      <trkpt lat="44.12831" lon="0.61925">
        <ele>117.418213</ele>
        <time>2010-05-09T07:42:55Z</time>
      </trkpt>
      <trkpt lat="44.12837" lon="0.61896">
        <ele>120.302124</ele>
        <time>2010-05-09T07:43:12Z</time>
      </trkpt>
      <trkpt lat="44.12838" lon="0.6189">
        <ele>120.302124</ele>
        <time>2010-05-09T07:43:16Z</time>
      </trkpt>
      <trkpt lat="44.12839" lon="0.61886">
        <ele>120.302124</ele>
        <time>2010-05-09T07:43:19Z</time>
      </trkpt>
      <trkpt lat="44.12842" lon="0.61873">
        <ele>120.782837</ele>
        <time>2010-05-09T07:43:27Z</time>
      </trkpt>
      <trkpt lat="44.12845" lon="0.61862">
        <ele>121.26355</ele>
        <time>2010-05-09T07:43:34Z</time>
      </trkpt>
      <trkpt lat="44.12851" lon="0.61842">
        <ele>122.224731</ele>
        <time>2010-05-09T07:43:46Z</time>
      </trkpt>
      <trkpt lat="44.12863" lon="0.61797">
        <ele>120.782837</ele>
        <time>2010-05-09T07:44:01Z</time>
      </trkpt>
      <trkpt lat="44.12883" lon="0.6173">
        <ele>120.302124</ele>
        <time>2010-05-09T07:44:17Z</time>
      </trkpt>
      <trkpt lat="44.12875" lon="0.61684">
        <ele>122.224731</ele>
        <time>2010-05-09T07:44:29Z</time>
      </trkpt>
      <trkpt lat="44.12864" lon="0.6164">
        <ele>125.108765</ele>
        <time>2010-05-09T07:44:44Z</time>
      </trkpt>
      <trkpt lat="44.12855" lon="0.61594">
        <ele>127.511963</ele>
        <time>2010-05-09T07:44:59Z</time>
      </trkpt>
      <trkpt lat="44.1285" lon="0.61555">
        <ele>129.434692</ele>
        <time>2010-05-09T07:45:12Z</time>
      </trkpt>
      <trkpt lat="44.12846" lon="0.61513">
        <ele>131.3573</ele>
        <time>2010-05-09T07:45:26Z</time>
      </trkpt>
      <trkpt lat="44.12845" lon="0.61472">
        <ele>134.241211</ele>
        <time>2010-05-09T07:45:39Z</time>
      </trkpt>
      <trkpt lat="44.12849" lon="0.61424">
        <ele>136.644653</ele>
        <time>2010-05-09T07:45:55Z</time>
      </trkpt>
      <trkpt lat="44.12852" lon="0.61381">
        <ele>137.605835</ele>
        <time>2010-05-09T07:46:11Z</time>
      </trkpt>
      <trkpt lat="44.12849" lon="0.61337">
        <ele>139.528442</ele>
        <time>2010-05-09T07:46:27Z</time>
      </trkpt>
      <trkpt lat="44.12848" lon="0.61301">
        <ele>140.489868</ele>
        <time>2010-05-09T07:46:39Z</time>
      </trkpt>
      <trkpt lat="44.12847" lon="0.61256">
        <ele>140.489868</ele>
        <time>2010-05-09T07:46:53Z</time>
      </trkpt>
      <trkpt lat="44.12839" lon="0.61206">
        <ele>141.45105</ele>
        <time>2010-05-09T07:47:05Z</time>
      </trkpt>
      <trkpt lat="44.12821" lon="0.61166">
        <ele>140.970459</ele>
        <time>2010-05-09T07:47:15Z</time>
      </trkpt>
      <trkpt lat="44.12806" lon="0.61141">
        <ele>137.605835</ele>
        <time>2010-05-09T07:47:26Z</time>
      </trkpt>
      <trkpt lat="44.12806" lon="0.61142">
        <ele>137.605835</ele>
        <time>2010-05-09T07:47:27Z</time>
      </trkpt>
      <trkpt lat="44.12806" lon="0.61145">
        <ele>137.125244</ele>
        <time>2010-05-09T07:47:30Z</time>
      </trkpt>
      <trkpt lat="44.12806" lon="0.61148">
        <ele>137.125244</ele>
        <time>2010-05-09T07:47:32Z</time>
      </trkpt>
      <trkpt lat="44.12806" lon="0.61148">
        <ele>139.047852</ele>
        <time>2010-05-09T07:47:56Z</time>
      </trkpt>
      <trkpt lat="44.12806" lon="0.61147">
        <ele>137.125244</ele>
        <time>2010-05-09T07:51:58Z</time>
      </trkpt>
      <trkpt lat="44.12806" lon="0.61145">
        <ele>137.605835</ele>
        <time>2010-05-09T07:52:08Z</time>
      </trkpt>
      <trkpt lat="44.12802" lon="0.61137">
        <ele>137.125244</ele>
        <time>2010-05-09T07:52:16Z</time>
      </trkpt>
      <trkpt lat="44.12787" lon="0.61127">
        <ele>135.683105</ele>
        <time>2010-05-09T07:52:29Z</time>
      </trkpt>
      <trkpt lat="44.1278" lon="0.61121">
        <ele>135.202515</ele>
        <time>2010-05-09T07:52:34Z</time>
      </trkpt>
      <trkpt lat="44.12775" lon="0.61109">
        <ele>134.241211</ele>
        <time>2010-05-09T07:52:38Z</time>
      </trkpt>
      <trkpt lat="44.1276" lon="0.61069">
        <ele>125.589355</ele>
        <time>2010-05-09T07:52:49Z</time>
      </trkpt>
      <trkpt lat="44.12751" lon="0.61037">
        <ele>118.379395</ele>
        <time>2010-05-09T07:52:57Z</time>
      </trkpt>
      <trkpt lat="44.12739" lon="0.6101">
        <ele>112.611572</ele>
        <time>2010-05-09T07:53:05Z</time>
      </trkpt>
      <trkpt lat="44.12715" lon="0.60978">
        <ele>113.092285</ele>
        <time>2010-05-09T07:53:15Z</time>
      </trkpt>
      <trkpt lat="44.12708" lon="0.60966">
        <ele>113.092285</ele>
        <time>2010-05-09T07:53:19Z</time>
      </trkpt>
      <trkpt lat="44.12674" lon="0.60941">
        <ele>109.246948</ele>
        <time>2010-05-09T07:53:31Z</time>
      </trkpt>
      <trkpt lat="44.12667" lon="0.60937">
        <ele>108.285645</ele>
        <time>2010-05-09T07:53:33Z</time>
      </trkpt>
      <trkpt lat="44.12655" lon="0.60931">
        <ele>107.324341</ele>
        <time>2010-05-09T07:53:36Z</time>
      </trkpt>
      <trkpt lat="44.12641" lon="0.60914">
        <ele>105.882446</ele>
        <time>2010-05-09T07:53:43Z</time>
      </trkpt>
      <trkpt lat="44.12643" lon="0.60861">
        <ele>101.075684</ele>
        <time>2010-05-09T07:53:56Z</time>
      </trkpt>
      <trkpt lat="44.12648" lon="0.60804">
        <ele>98.672485</ele>
        <time>2010-05-09T07:54:09Z</time>
      </trkpt>
      <trkpt lat="44.12653" lon="0.60758">
        <ele>98.672485</ele>
        <time>2010-05-09T07:54:18Z</time>
      </trkpt>
      <trkpt lat="44.12658" lon="0.60731">
        <ele>98.672485</ele>
        <time>2010-05-09T07:54:23Z</time>
      </trkpt>
      <trkpt lat="44.12658" lon="0.60719">
        <ele>98.191895</ele>
        <time>2010-05-09T07:54:26Z</time>
      </trkpt>
      <trkpt lat="44.12653" lon="0.60712">
        <ele>95.307739</ele>
        <time>2010-05-09T07:54:35Z</time>
      </trkpt>
      <trkpt lat="44.12651" lon="0.6071">
        <ele>95.307739</ele>
        <time>2010-05-09T07:54:38Z</time>
      </trkpt>
      <trkpt lat="44.12647" lon="0.607">
        <ele>96.269287</ele>
        <time>2010-05-09T07:54:45Z</time>
      </trkpt>
      <trkpt lat="44.1264" lon="0.60697">
        <ele>97.230469</ele>
        <time>2010-05-09T07:54:51Z</time>
      </trkpt>
      <trkpt lat="44.12634" lon="0.60687">
        <ele>98.191895</ele>
        <time>2010-05-09T07:54:56Z</time>
      </trkpt>
      <trkpt lat="44.12607" lon="0.60671">
        <ele>99.153076</ele>
        <time>2010-05-09T07:55:06Z</time>
      </trkpt>
      <trkpt lat="44.12602" lon="0.60667">
        <ele>98.672485</ele>
        <time>2010-05-09T07:55:09Z</time>
      </trkpt>
      <trkpt lat="44.12591" lon="0.60658">
        <ele>97.711182</ele>
        <time>2010-05-09T07:55:16Z</time>
      </trkpt>
      <trkpt lat="44.12586" lon="0.60657">
        <ele>99.153076</ele>
        <time>2010-05-09T07:55:19Z</time>
      </trkpt>
      <trkpt lat="44.12577" lon="0.60652">
        <ele>100.114502</ele>
        <time>2010-05-09T07:55:24Z</time>
      </trkpt>
      <trkpt lat="44.12557" lon="0.60644">
        <ele>102.5177</ele>
        <time>2010-05-09T07:55:33Z</time>
      </trkpt>
      <trkpt lat="44.12549" lon="0.60634">
        <ele>103.959717</ele>
        <time>2010-05-09T07:55:37Z</time>
      </trkpt>
      <trkpt lat="44.12532" lon="0.60615">
        <ele>106.363037</ele>
        <time>2010-05-09T07:55:46Z</time>
      </trkpt>
      <trkpt lat="44.12519" lon="0.60603">
        <ele>107.805054</ele>
        <time>2010-05-09T07:55:51Z</time>
      </trkpt>
      <trkpt lat="44.12511" lon="0.60594">
        <ele>107.805054</ele>
        <time>2010-05-09T07:55:55Z</time>
      </trkpt>
      <trkpt lat="44.12493" lon="0.60573">
        <ele>106.843628</ele>
        <time>2010-05-09T07:56:04Z</time>
      </trkpt>
      <trkpt lat="44.12493" lon="0.60561">
        <ele>106.363037</ele>
        <time>2010-05-09T07:56:13Z</time>
      </trkpt>
      <trkpt lat="44.12494" lon="0.60558">
        <ele>105.401733</ele>
        <time>2010-05-09T07:56:15Z</time>
      </trkpt>
      <trkpt lat="44.12499" lon="0.60558">
        <ele>103.479004</ele>
        <time>2010-05-09T07:56:20Z</time>
      </trkpt>
      <trkpt lat="44.12502" lon="0.60559">
        <ele>102.037109</ele>
        <time>2010-05-09T07:56:24Z</time>
      </trkpt>
      <trkpt lat="44.12508" lon="0.60556">
        <ele>99.633789</ele>
        <time>2010-05-09T07:56:31Z</time>
      </trkpt>
      <trkpt lat="44.12506" lon="0.60537">
        <ele>95.307739</ele>
        <time>2010-05-09T07:56:37Z</time>
      </trkpt>
      <trkpt lat="44.12486" lon="0.60512">
        <ele>88.578735</ele>
        <time>2010-05-09T07:56:46Z</time>
      </trkpt>
      <trkpt lat="44.12465" lon="0.60508">
        <ele>88.098022</ele>
        <time>2010-05-09T07:56:52Z</time>
      </trkpt>
      <trkpt lat="44.12425" lon="0.60523">
        <ele>88.578735</ele>
        <time>2010-05-09T07:57:06Z</time>
      </trkpt>
      <trkpt lat="44.12399" lon="0.60529">
        <ele>90.501343</ele>
        <time>2010-05-09T07:57:17Z</time>
      </trkpt>
      <trkpt lat="44.12397" lon="0.60527">
        <ele>90.501343</ele>
        <time>2010-05-09T07:57:18Z</time>
      </trkpt>
      <trkpt lat="44.12378" lon="0.60519">
        <ele>90.02063</ele>
        <time>2010-05-09T07:57:22Z</time>
      </trkpt>
      <trkpt lat="44.1235" lon="0.60517">
        <ele>89.539917</ele>
        <time>2010-05-09T07:57:28Z</time>
      </trkpt>
      <trkpt lat="44.12333" lon="0.605">
        <ele>89.539917</ele>
        <time>2010-05-09T07:57:34Z</time>
      </trkpt>
      <trkpt lat="44.12335" lon="0.60466">
        <ele>88.098022</ele>
        <time>2010-05-09T07:57:42Z</time>
      </trkpt>
      <trkpt lat="44.12335" lon="0.6045">
        <ele>83.771973</ele>
        <time>2010-05-09T07:57:51Z</time>
      </trkpt>
      <trkpt lat="44.12336" lon="0.60437">
        <ele>87.617188</ele>
        <time>2010-05-09T07:58:03Z</time>
      </trkpt>
      <trkpt lat="44.12341" lon="0.6043">
        <ele>92.904541</ele>
        <time>2010-05-09T07:58:13Z</time>
      </trkpt>
      <trkpt lat="44.12345" lon="0.60426">
        <ele>94.827148</ele>
        <time>2010-05-09T07:58:19Z</time>
      </trkpt>
      <trkpt lat="44.12347" lon="0.60424">
        <ele>96.749878</ele>
        <time>2010-05-09T07:58:26Z</time>
      </trkpt>
      <trkpt lat="44.12357" lon="0.60416">
        <ele>98.672485</ele>
        <time>2010-05-09T07:58:38Z</time>
      </trkpt>
      <trkpt lat="44.12362" lon="0.60409">
        <ele>99.153076</ele>
        <time>2010-05-09T07:58:47Z</time>
      </trkpt>
      <trkpt lat="44.12362" lon="0.604">
        <ele>101.075684</ele>
        <time>2010-05-09T07:58:55Z</time>
      </trkpt>
      <trkpt lat="44.12364" lon="0.60389">
        <ele>102.037109</ele>
        <time>2010-05-09T07:59:04Z</time>
      </trkpt>
      <trkpt lat="44.12366" lon="0.60381">
        <ele>102.998291</ele>
        <time>2010-05-09T07:59:16Z</time>
      </trkpt>
      <trkpt lat="44.1237" lon="0.60368">
        <ele>102.998291</ele>
        <time>2010-05-09T07:59:24Z</time>
      </trkpt>
      <trkpt lat="44.12372" lon="0.60343">
        <ele>102.5177</ele>
        <time>2010-05-09T07:59:37Z</time>
      </trkpt>
      <trkpt lat="44.12376" lon="0.60321">
        <ele>104.921021</ele>
        <time>2010-05-09T07:59:48Z</time>
      </trkpt>
      <trkpt lat="44.12379" lon="0.60306">
        <ele>104.44043</ele>
        <time>2010-05-09T07:59:55Z</time>
      </trkpt>
      <trkpt lat="44.12381" lon="0.60299">
        <ele>103.479004</ele>
        <time>2010-05-09T07:59:58Z</time>
      </trkpt>
      <trkpt lat="44.12386" lon="0.60281">
        <ele>102.998291</ele>
        <time>2010-05-09T08:00:06Z</time>
      </trkpt>
      <trkpt lat="44.12401" lon="0.60269">
        <ele>104.921021</ele>
        <time>2010-05-09T08:00:16Z</time>
      </trkpt>
      <trkpt lat="44.12405" lon="0.60238">
        <ele>106.843628</ele>
        <time>2010-05-09T08:00:27Z</time>
      </trkpt>
      <trkpt lat="44.12406" lon="0.60219">
        <ele>106.363037</ele>
        <time>2010-05-09T08:00:34Z</time>
      </trkpt>
      <trkpt lat="44.12412" lon="0.60179">
        <ele>107.805054</ele>
        <time>2010-05-09T08:00:48Z</time>
      </trkpt>
      <trkpt lat="44.12416" lon="0.60157">
        <ele>106.363037</ele>
        <time>2010-05-09T08:00:57Z</time>
      </trkpt>
      <trkpt lat="44.12416" lon="0.60139">
        <ele>107.805054</ele>
        <time>2010-05-09T08:01:03Z</time>
      </trkpt>
      <trkpt lat="44.12409" lon="0.60108">
        <ele>109.246948</ele>
        <time>2010-05-09T08:01:15Z</time>
      </trkpt>
      <trkpt lat="44.12409" lon="0.60105">
        <ele>109.246948</ele>
        <time>2010-05-09T08:01:16Z</time>
      </trkpt>
      <trkpt lat="44.12398" lon="0.60074">
        <ele>112.611572</ele>
        <time>2010-05-09T08:01:30Z</time>
      </trkpt>
      <trkpt lat="44.12397" lon="0.6007">
        <ele>112.611572</ele>
        <time>2010-05-09T08:01:32Z</time>
      </trkpt>
      <trkpt lat="44.12394" lon="0.60046">
        <ele>114.053589</ele>
        <time>2010-05-09T08:01:44Z</time>
      </trkpt>
      <trkpt lat="44.12391" lon="0.60032">
        <ele>115.495605</ele>
        <time>2010-05-09T08:01:53Z</time>
      </trkpt>
      <trkpt lat="44.12388" lon="0.60025">
        <ele>115.976196</ele>
        <time>2010-05-09T08:01:58Z</time>
      </trkpt>
      <trkpt lat="44.12383" lon="0.60011">
        <ele>118.379395</ele>
        <time>2010-05-09T08:02:06Z</time>
      </trkpt>
      <trkpt lat="44.12381" lon="0.59987">
        <ele>122.224731</ele>
        <time>2010-05-09T08:02:20Z</time>
      </trkpt>
      <trkpt lat="44.1238" lon="0.59983">
        <ele>123.186157</ele>
        <time>2010-05-09T08:02:22Z</time>
      </trkpt>
      <trkpt lat="44.12377" lon="0.59963">
        <ele>126.550659</ele>
        <time>2010-05-09T08:02:33Z</time>
      </trkpt>
      <trkpt lat="44.12375" lon="0.59949">
        <ele>129.434692</ele>
        <time>2010-05-09T08:02:41Z</time>
      </trkpt>
      <trkpt lat="44.12367" lon="0.59919">
        <ele>132.318604</ele>
        <time>2010-05-09T08:02:57Z</time>
      </trkpt>
      <trkpt lat="44.12366" lon="0.59916">
        <ele>132.318604</ele>
        <time>2010-05-09T08:02:58Z</time>
      </trkpt>
      <trkpt lat="44.12369" lon="0.59901">
        <ele>133.760498</ele>
        <time>2010-05-09T08:03:04Z</time>
      </trkpt>
      <trkpt lat="44.1238" lon="0.59867">
        <ele>139.528442</ele>
        <time>2010-05-09T08:03:23Z</time>
      </trkpt>
      <trkpt lat="44.12391" lon="0.59843">
        <ele>142.412476</ele>
        <time>2010-05-09T08:03:37Z</time>
      </trkpt>
      <trkpt lat="44.12402" lon="0.59821">
        <ele>142.893066</ele>
        <time>2010-05-09T08:03:51Z</time>
      </trkpt>
      <trkpt lat="44.12416" lon="0.59799">
        <ele>145.296387</ele>
        <time>2010-05-09T08:04:07Z</time>
      </trkpt>
      <trkpt lat="44.12436" lon="0.59777">
        <ele>148.661011</ele>
        <time>2010-05-09T08:04:24Z</time>
      </trkpt>
      <trkpt lat="44.12456" lon="0.59757">
        <ele>150.583618</ele>
        <time>2010-05-09T08:04:37Z</time>
      </trkpt>
      <trkpt lat="44.12479" lon="0.59746">
        <ele>151.064209</ele>
        <time>2010-05-09T08:04:50Z</time>
      </trkpt>
      <trkpt lat="44.1251" lon="0.59735">
        <ele>154.909546</ele>
        <time>2010-05-09T08:05:07Z</time>
      </trkpt>
      <trkpt lat="44.12541" lon="0.59735">
        <ele>156.832153</ele>
        <time>2010-05-09T08:05:23Z</time>
      </trkpt>
      <trkpt lat="44.12569" lon="0.5975">
        <ele>157.312866</ele>
        <time>2010-05-09T08:05:34Z</time>
      </trkpt>
      <trkpt lat="44.12569" lon="0.59732">
        <ele>157.793579</ele>
        <time>2010-05-09T08:05:41Z</time>
      </trkpt>
      <trkpt lat="44.12562" lon="0.59729">
        <ele>158.27417</ele>
        <time>2010-05-09T08:05:43Z</time>
      </trkpt>
      <trkpt lat="44.12513" lon="0.59709">
        <ele>160.196899</ele>
        <time>2010-05-09T08:05:55Z</time>
      </trkpt>
      <trkpt lat="44.12455" lon="0.59673">
        <ele>162.600098</ele>
        <time>2010-05-09T08:06:11Z</time>
      </trkpt>
      <trkpt lat="44.12413" lon="0.59649">
        <ele>164.522705</ele>
        <time>2010-05-09T08:06:26Z</time>
      </trkpt>
      <trkpt lat="44.12375" lon="0.59634">
        <ele>165.964722</ele>
        <time>2010-05-09T08:06:39Z</time>
      </trkpt>
      <trkpt lat="44.12339" lon="0.59618">
        <ele>166.445313</ele>
        <time>2010-05-09T08:06:49Z</time>
      </trkpt>
      <trkpt lat="44.12311" lon="0.59601">
        <ele>165.964722</ele>
        <time>2010-05-09T08:06:56Z</time>
      </trkpt>
      <trkpt lat="44.12253" lon="0.59554">
        <ele>165.484131</ele>
        <time>2010-05-09T08:07:12Z</time>
      </trkpt>
      <trkpt lat="44.12206" lon="0.59515">
        <ele>165.964722</ele>
        <time>2010-05-09T08:07:26Z</time>
      </trkpt>
      <trkpt lat="44.1217" lon="0.59484">
        <ele>165.964722</ele>
        <time>2010-05-09T08:07:37Z</time>
      </trkpt>
      <trkpt lat="44.12125" lon="0.59442">
        <ele>165.003418</ele>
        <time>2010-05-09T08:07:50Z</time>
      </trkpt>
      <trkpt lat="44.12113" lon="0.59427">
        <ele>165.003418</ele>
        <time>2010-05-09T08:07:54Z</time>
      </trkpt>
      <trkpt lat="44.121" lon="0.59412">
        <ele>165.484131</ele>
        <time>2010-05-09T08:07:58Z</time>
      </trkpt>
      <trkpt lat="44.12084" lon="0.59385">
        <ele>166.445313</ele>
        <time>2010-05-09T08:08:04Z</time>
      </trkpt>
      <trkpt lat="44.12071" lon="0.59362">
        <ele>167.406738</ele>
        <time>2010-05-09T08:08:09Z</time>
      </trkpt>
      <trkpt lat="44.12044" lon="0.59301">
        <ele>169.329468</ele>
        <time>2010-05-09T08:08:22Z</time>
      </trkpt>
      <trkpt lat="44.12028" lon="0.59241">
        <ele>170.290649</ele>
        <time>2010-05-09T08:08:35Z</time>
      </trkpt>
      <trkpt lat="44.12019" lon="0.59189">
        <ele>168.848755</ele>
        <time>2010-05-09T08:08:47Z</time>
      </trkpt>
      <trkpt lat="44.12017" lon="0.59114">
        <ele>168.848755</ele>
        <time>2010-05-09T08:09:02Z</time>
      </trkpt>
      <trkpt lat="44.12013" lon="0.5901">
        <ele>168.368042</ele>
        <time>2010-05-09T08:09:19Z</time>
      </trkpt>
      <trkpt lat="44.12013" lon="0.58996">
        <ele>167.887329</ele>
        <time>2010-05-09T08:09:21Z</time>
      </trkpt>
      <trkpt lat="44.12009" lon="0.58911">
        <ele>167.887329</ele>
        <time>2010-05-09T08:09:34Z</time>
      </trkpt>
      <trkpt lat="44.12035" lon="0.58878">
        <ele>170.290649</ele>
        <time>2010-05-09T08:09:45Z</time>
      </trkpt>
      <trkpt lat="44.12057" lon="0.58853">
        <ele>170.290649</ele>
        <time>2010-05-09T08:09:55Z</time>
      </trkpt>
      <trkpt lat="44.12074" lon="0.58836">
        <ele>167.406738</ele>
        <time>2010-05-09T08:10:01Z</time>
      </trkpt>
      <trkpt lat="44.12085" lon="0.58823">
        <ele>164.522705</ele>
        <time>2010-05-09T08:10:04Z</time>
      </trkpt>
      <trkpt lat="44.12122" lon="0.58771">
        <ele>153.467651</ele>
        <time>2010-05-09T08:10:15Z</time>
      </trkpt>
      <trkpt lat="44.12137" lon="0.58749">
        <ele>146.738403</ele>
        <time>2010-05-09T08:10:24Z</time>
      </trkpt>
      <trkpt lat="44.1214" lon="0.5874">
        <ele>145.7771</ele>
        <time>2010-05-09T08:10:27Z</time>
      </trkpt>
      <trkpt lat="44.12151" lon="0.5872">
        <ele>142.412476</ele>
        <time>2010-05-09T08:10:36Z</time>
      </trkpt>
      <trkpt lat="44.12168" lon="0.58695">
        <ele>135.202515</ele>
        <time>2010-05-09T08:10:47Z</time>
      </trkpt>
      <trkpt lat="44.12169" lon="0.58694">
        <ele>134.241211</ele>
        <time>2010-05-09T08:10:48Z</time>
      </trkpt>
      <trkpt lat="44.12175" lon="0.58684">
        <ele>127.511963</ele>
        <time>2010-05-09T08:10:58Z</time>
      </trkpt>
      <trkpt lat="44.12181" lon="0.58674">
        <ele>125.108765</ele>
        <time>2010-05-09T08:11:06Z</time>
      </trkpt>
      <trkpt lat="44.12182" lon="0.58669">
        <ele>124.147339</ele>
        <time>2010-05-09T08:11:08Z</time>
      </trkpt>
      <trkpt lat="44.12187" lon="0.58656">
        <ele>121.26355</ele>
        <time>2010-05-09T08:11:13Z</time>
      </trkpt>
      <trkpt lat="44.12195" lon="0.58636">
        <ele>113.572998</ele>
        <time>2010-05-09T08:11:23Z</time>
      </trkpt>
      <trkpt lat="44.12196" lon="0.58634">
        <ele>113.092285</ele>
        <time>2010-05-09T08:11:24Z</time>
      </trkpt>
      <trkpt lat="44.12201" lon="0.58623">
        <ele>110.208252</ele>
        <time>2010-05-09T08:11:29Z</time>
      </trkpt>
      <trkpt lat="44.12202" lon="0.5862">
        <ele>109.727661</ele>
        <time>2010-05-09T08:11:31Z</time>
      </trkpt>
      <trkpt lat="44.12212" lon="0.58596">
        <ele>104.921021</ele>
        <time>2010-05-09T08:11:40Z</time>
      </trkpt>
      <trkpt lat="44.12212" lon="0.58592">
        <ele>104.921021</ele>
        <time>2010-05-09T08:11:45Z</time>
      </trkpt>
      <trkpt lat="44.12215" lon="0.5859">
        <ele>104.921021</ele>
        <time>2010-05-09T08:11:48Z</time>
      </trkpt>
      <trkpt lat="44.12227" lon="0.5857">
        <ele>103.479004</ele>
        <time>2010-05-09T08:11:55Z</time>
      </trkpt>
      <trkpt lat="44.12247" lon="0.5855">
        <ele>101.556396</ele>
        <time>2010-05-09T08:12:03Z</time>
      </trkpt>
      <trkpt lat="44.1227" lon="0.58508">
        <ele>94.346558</ele>
        <time>2010-05-09T08:12:13Z</time>
      </trkpt>
      <trkpt lat="44.12273" lon="0.58499">
        <ele>92.42395</ele>
        <time>2010-05-09T08:12:16Z</time>
      </trkpt>
      <trkpt lat="44.12276" lon="0.58491">
        <ele>90.501343</ele>
        <time>2010-05-09T08:12:19Z</time>
      </trkpt>
      <trkpt lat="44.12287" lon="0.58469">
        <ele>87.617188</ele>
        <time>2010-05-09T08:12:25Z</time>
      </trkpt>
      <trkpt lat="44.12298" lon="0.58436">
        <ele>88.098022</ele>
        <time>2010-05-09T08:12:30Z</time>
      </trkpt>
      <trkpt lat="44.12311" lon="0.58414">
        <ele>88.098022</ele>
        <time>2010-05-09T08:12:34Z</time>
      </trkpt>
      <trkpt lat="44.12321" lon="0.58397">
        <ele>87.617188</ele>
        <time>2010-05-09T08:12:37Z</time>
      </trkpt>
      <trkpt lat="44.12339" lon="0.58344">
        <ele>86.175293</ele>
        <time>2010-05-09T08:12:48Z</time>
      </trkpt>
      <trkpt lat="44.12344" lon="0.58328">
        <ele>85.69458</ele>
        <time>2010-05-09T08:12:51Z</time>
      </trkpt>
      <trkpt lat="44.12353" lon="0.58295">
        <ele>86.656006</ele>
        <time>2010-05-09T08:12:56Z</time>
      </trkpt>
      <trkpt lat="44.12365" lon="0.58238">
        <ele>88.578735</ele>
        <time>2010-05-09T08:13:07Z</time>
      </trkpt>
      <trkpt lat="44.12357" lon="0.5822">
        <ele>90.501343</ele>
        <time>2010-05-09T08:13:12Z</time>
      </trkpt>
      <trkpt lat="44.12333" lon="0.58186">
        <ele>93.385132</ele>
        <time>2010-05-09T08:13:24Z</time>
      </trkpt>
      <trkpt lat="44.12296" lon="0.58186">
        <ele>95.788452</ele>
        <time>2010-05-09T08:13:36Z</time>
      </trkpt>
      <trkpt lat="44.12253" lon="0.58185">
        <ele>96.749878</ele>
        <time>2010-05-09T08:13:51Z</time>
      </trkpt>
      <trkpt lat="44.12216" lon="0.58176">
        <ele>97.711182</ele>
        <time>2010-05-09T08:14:05Z</time>
      </trkpt>
      <trkpt lat="44.12185" lon="0.58154">
        <ele>99.633789</ele>
        <time>2010-05-09T08:14:19Z</time>
      </trkpt>
      <trkpt lat="44.12182" lon="0.58151">
        <ele>99.633789</ele>
        <time>2010-05-09T08:14:21Z</time>
      </trkpt>
      <trkpt lat="44.12174" lon="0.58141">
        <ele>99.153076</ele>
        <time>2010-05-09T08:14:26Z</time>
      </trkpt>
      <trkpt lat="44.12152" lon="0.58108">
        <ele>100.595093</ele>
        <time>2010-05-09T08:14:37Z</time>
      </trkpt>
      <trkpt lat="44.12123" lon="0.58067">
        <ele>101.075684</ele>
        <time>2010-05-09T08:14:50Z</time>
      </trkpt>
      <trkpt lat="44.12099" lon="0.58034">
        <ele>102.037109</ele>
        <time>2010-05-09T08:15:02Z</time>
      </trkpt>
      <trkpt lat="44.12078" lon="0.58012">
        <ele>104.921021</ele>
        <time>2010-05-09T08:15:15Z</time>
      </trkpt>
      <trkpt lat="44.12076" lon="0.58003">
        <ele>104.921021</ele>
        <time>2010-05-09T08:15:30Z</time>
      </trkpt>
      <trkpt lat="44.12069" lon="0.57998">
        <ele>103.959717</ele>
        <time>2010-05-09T08:15:37Z</time>
      </trkpt>
      <trkpt lat="44.12056" lon="0.57986">
        <ele>103.479004</ele>
        <time>2010-05-09T08:15:46Z</time>
      </trkpt>
      <trkpt lat="44.12035" lon="0.57963">
        <ele>103.479004</ele>
        <time>2010-05-09T08:15:56Z</time>
      </trkpt>
      <trkpt lat="44.12031" lon="0.5796">
        <ele>102.998291</ele>
        <time>2010-05-09T08:15:58Z</time>
      </trkpt>
      <trkpt lat="44.12012" lon="0.57943">
        <ele>102.5177</ele>
        <time>2010-05-09T08:16:06Z</time>
      </trkpt>
      <trkpt lat="44.11981" lon="0.57924">
        <ele>103.479004</ele>
        <time>2010-05-09T08:16:19Z</time>
      </trkpt>
      <trkpt lat="44.11951" lon="0.579">
        <ele>103.959717</ele>
        <time>2010-05-09T08:16:33Z</time>
      </trkpt>
      <trkpt lat="44.1192" lon="0.57879">
        <ele>104.921021</ele>
        <time>2010-05-09T08:16:46Z</time>
      </trkpt>
      <trkpt lat="44.1189" lon="0.57861">
        <ele>104.921021</ele>
        <time>2010-05-09T08:16:58Z</time>
      </trkpt>
      <trkpt lat="44.11863" lon="0.57848">
        <ele>104.921021</ele>
        <time>2010-05-09T08:17:10Z</time>
      </trkpt>
      <trkpt lat="44.11851" lon="0.57851">
        <ele>104.44043</ele>
        <time>2010-05-09T08:17:16Z</time>
      </trkpt>
      <trkpt lat="44.11845" lon="0.57848">
        <ele>104.44043</ele>
        <time>2010-05-09T08:17:20Z</time>
      </trkpt>
      <trkpt lat="44.11837" lon="0.57839">
        <ele>101.556396</ele>
        <time>2010-05-09T08:17:29Z</time>
      </trkpt>
      <trkpt lat="44.11828" lon="0.57846">
        <ele>103.959717</ele>
        <time>2010-05-09T08:17:42Z</time>
      </trkpt>
      <trkpt lat="44.11824" lon="0.57845">
        <ele>106.363037</ele>
        <time>2010-05-09T08:17:50Z</time>
      </trkpt>
      <trkpt lat="44.11817" lon="0.5784">
        <ele>108.766235</ele>
        <time>2010-05-09T08:17:59Z</time>
      </trkpt>
      <trkpt lat="44.11814" lon="0.5784">
        <ele>111.169556</ele>
        <time>2010-05-09T08:18:09Z</time>
      </trkpt>
      <trkpt lat="44.11806" lon="0.57823">
        <ele>110.688843</ele>
        <time>2010-05-09T08:18:19Z</time>
      </trkpt>
      <trkpt lat="44.11801" lon="0.57812">
        <ele>111.169556</ele>
        <time>2010-05-09T08:18:24Z</time>
      </trkpt>
      <trkpt lat="44.11795" lon="0.57796">
        <ele>111.169556</ele>
        <time>2010-05-09T08:18:28Z</time>
      </trkpt>
      <trkpt lat="44.11783" lon="0.57773">
        <ele>109.727661</ele>
        <time>2010-05-09T08:18:33Z</time>
      </trkpt>
      <trkpt lat="44.11763" lon="0.57735">
        <ele>103.959717</ele>
        <time>2010-05-09T08:18:41Z</time>
      </trkpt>
      <trkpt lat="44.11738" lon="0.57687">
        <ele>97.230469</ele>
        <time>2010-05-09T08:18:51Z</time>
      </trkpt>
      <trkpt lat="44.1173" lon="0.57672">
        <ele>97.230469</ele>
        <time>2010-05-09T08:18:54Z</time>
      </trkpt>
      <trkpt lat="44.11721" lon="0.57636">
        <ele>100.114502</ele>
        <time>2010-05-09T08:19:01Z</time>
      </trkpt>
      <trkpt lat="44.11718" lon="0.57613">
        <ele>100.114502</ele>
        <time>2010-05-09T08:19:05Z</time>
      </trkpt>
      <trkpt lat="44.11697" lon="0.57569">
        <ele>102.5177</ele>
        <time>2010-05-09T08:19:16Z</time>
      </trkpt>
      <trkpt lat="44.11664" lon="0.57522">
        <ele>104.44043</ele>
        <time>2010-05-09T08:19:29Z</time>
      </trkpt>
      <trkpt lat="44.11638" lon="0.57485">
        <ele>105.882446</ele>
        <time>2010-05-09T08:19:41Z</time>
      </trkpt>
      <trkpt lat="44.11609" lon="0.57452">
        <ele>107.805054</ele>
        <time>2010-05-09T08:19:53Z</time>
      </trkpt>
      <trkpt lat="44.11598" lon="0.57437">
        <ele>108.766235</ele>
        <time>2010-05-09T08:19:58Z</time>
      </trkpt>
      <trkpt lat="44.11597" lon="0.57381">
        <ele>107.324341</ele>
        <time>2010-05-09T08:20:10Z</time>
      </trkpt>
      <trkpt lat="44.11595" lon="0.57324">
        <ele>107.324341</ele>
        <time>2010-05-09T08:20:23Z</time>
      </trkpt>
      <trkpt lat="44.11598" lon="0.57288">
        <ele>108.766235</ele>
        <time>2010-05-09T08:20:34Z</time>
      </trkpt>
      <trkpt lat="44.11596" lon="0.57281">
        <ele>109.246948</ele>
        <time>2010-05-09T08:20:38Z</time>
      </trkpt>
      <trkpt lat="44.11594" lon="0.57271">
        <ele>108.766235</ele>
        <time>2010-05-09T08:20:42Z</time>
      </trkpt>
      <trkpt lat="44.11596" lon="0.5724">
        <ele>110.208252</ele>
        <time>2010-05-09T08:20:53Z</time>
      </trkpt>
      <trkpt lat="44.116" lon="0.57231">
        <ele>110.208252</ele>
        <time>2010-05-09T08:20:59Z</time>
      </trkpt>
      <trkpt lat="44.11597" lon="0.57216">
        <ele>109.246948</ele>
        <time>2010-05-09T08:21:06Z</time>
      </trkpt>
      <trkpt lat="44.11585" lon="0.5719">
        <ele>110.208252</ele>
        <time>2010-05-09T08:21:19Z</time>
      </trkpt>
      <trkpt lat="44.11584" lon="0.57188">
        <ele>110.208252</ele>
        <time>2010-05-09T08:21:20Z</time>
      </trkpt>
      <trkpt lat="44.11578" lon="0.57174">
        <ele>110.208252</ele>
        <time>2010-05-09T08:21:27Z</time>
      </trkpt>
      <trkpt lat="44.11573" lon="0.5716">
        <ele>109.246948</ele>
        <time>2010-05-09T08:21:33Z</time>
      </trkpt>
      <trkpt lat="44.1157" lon="0.5715">
        <ele>109.246948</ele>
        <time>2010-05-09T08:21:37Z</time>
      </trkpt>
      <trkpt lat="44.11563" lon="0.57121">
        <ele>109.246948</ele>
        <time>2010-05-09T08:21:47Z</time>
      </trkpt>
      <trkpt lat="44.11561" lon="0.57107">
        <ele>108.285645</ele>
        <time>2010-05-09T08:21:52Z</time>
      </trkpt>
      <trkpt lat="44.11558" lon="0.57072">
        <ele>105.401733</ele>
        <time>2010-05-09T08:22:04Z</time>
      </trkpt>
      <trkpt lat="44.11563" lon="0.57037">
        <ele>107.805054</ele>
        <time>2010-05-09T08:22:14Z</time>
      </trkpt>
      <trkpt lat="44.11563" lon="0.5703">
        <ele>108.285645</ele>
        <time>2010-05-09T08:22:17Z</time>
      </trkpt>
      <trkpt lat="44.11564" lon="0.57017">
        <ele>110.208252</ele>
        <time>2010-05-09T08:22:22Z</time>
      </trkpt>
      <trkpt lat="44.11565" lon="0.57003">
        <ele>112.130981</ele>
        <time>2010-05-09T08:22:35Z</time>
      </trkpt>
      <trkpt lat="44.11567" lon="0.56997">
        <ele>112.611572</ele>
        <time>2010-05-09T08:22:45Z</time>
      </trkpt>
      <trkpt lat="44.11569" lon="0.56992">
        <ele>114.053589</ele>
        <time>2010-05-09T08:22:57Z</time>
      </trkpt>
      <trkpt lat="44.11569" lon="0.5699">
        <ele>115.014893</ele>
        <time>2010-05-09T08:23:03Z</time>
      </trkpt>
      <trkpt lat="44.1157" lon="0.56986">
        <ele>115.976196</ele>
        <time>2010-05-09T08:23:08Z</time>
      </trkpt>
      <trkpt lat="44.11572" lon="0.56974">
        <ele>116.9375</ele>
        <time>2010-05-09T08:23:13Z</time>
      </trkpt>
      <trkpt lat="44.11574" lon="0.56964">
        <ele>118.379395</ele>
        <time>2010-05-09T08:23:17Z</time>
      </trkpt>
      <trkpt lat="44.11575" lon="0.56924">
        <ele>121.26355</ele>
        <time>2010-05-09T08:23:33Z</time>
      </trkpt>
      <trkpt lat="44.11578" lon="0.56897">
        <ele>122.705444</ele>
        <time>2010-05-09T08:23:46Z</time>
      </trkpt>
      <trkpt lat="44.11582" lon="0.56871">
        <ele>124.628052</ele>
        <time>2010-05-09T08:23:59Z</time>
      </trkpt>
      <trkpt lat="44.11583" lon="0.56859">
        <ele>126.069946</ele>
        <time>2010-05-09T08:24:06Z</time>
      </trkpt>
      <trkpt lat="44.11585" lon="0.56841">
        <ele>126.550659</ele>
        <time>2010-05-09T08:24:15Z</time>
      </trkpt>
      <trkpt lat="44.11588" lon="0.56803">
        <ele>128.954102</ele>
        <time>2010-05-09T08:24:33Z</time>
      </trkpt>
      <trkpt lat="44.11587" lon="0.56787">
        <ele>129.434692</ele>
        <time>2010-05-09T08:24:41Z</time>
      </trkpt>
      <trkpt lat="44.11588" lon="0.56772">
        <ele>130.876709</ele>
        <time>2010-05-09T08:24:48Z</time>
      </trkpt>
      <trkpt lat="44.11587" lon="0.56738">
        <ele>131.3573</ele>
        <time>2010-05-09T08:25:03Z</time>
      </trkpt>
      <trkpt lat="44.11592" lon="0.56713">
        <ele>131.3573</ele>
        <time>2010-05-09T08:25:16Z</time>
      </trkpt>
      <trkpt lat="44.11601" lon="0.56682">
        <ele>134.241211</ele>
        <time>2010-05-09T08:25:35Z</time>
      </trkpt>
      <trkpt lat="44.11606" lon="0.56666">
        <ele>135.683105</ele>
        <time>2010-05-09T08:25:45Z</time>
      </trkpt>
      <trkpt lat="44.11606" lon="0.5665">
        <ele>136.644653</ele>
        <time>2010-05-09T08:25:55Z</time>
      </trkpt>
      <trkpt lat="44.11606" lon="0.56644">
        <ele>137.125244</ele>
        <time>2010-05-09T08:25:59Z</time>
      </trkpt>
      <trkpt lat="44.11605" lon="0.56639">
        <ele>137.125244</ele>
        <time>2010-05-09T08:26:02Z</time>
      </trkpt>
      <trkpt lat="44.11603" lon="0.56632">
        <ele>137.605835</ele>
        <time>2010-05-09T08:26:07Z</time>
      </trkpt>
      <trkpt lat="44.11602" lon="0.56613">
        <ele>139.528442</ele>
        <time>2010-05-09T08:26:20Z</time>
      </trkpt>
      <trkpt lat="44.11603" lon="0.56608">
        <ele>140.970459</ele>
        <time>2010-05-09T08:26:25Z</time>
      </trkpt>
      <trkpt lat="44.11597" lon="0.56591">
        <ele>142.412476</ele>
        <time>2010-05-09T08:26:38Z</time>
      </trkpt>
      <trkpt lat="44.11594" lon="0.56577">
        <ele>144.335205</ele>
        <time>2010-05-09T08:26:50Z</time>
      </trkpt>
      <trkpt lat="44.11594" lon="0.56574">
        <ele>144.815796</ele>
        <time>2010-05-09T08:26:52Z</time>
      </trkpt>
      <trkpt lat="44.1159" lon="0.56561">
        <ele>147.699707</ele>
        <time>2010-05-09T08:27:04Z</time>
      </trkpt>
      <trkpt lat="44.1159" lon="0.56558">
        <ele>147.699707</ele>
        <time>2010-05-09T08:27:06Z</time>
      </trkpt>
      <trkpt lat="44.11589" lon="0.56552">
        <ele>149.141602</ele>
        <time>2010-05-09T08:27:11Z</time>
      </trkpt>
      <trkpt lat="44.11592" lon="0.56546">
        <ele>150.583618</ele>
        <time>2010-05-09T08:27:26Z</time>
      </trkpt>
      <trkpt lat="44.11593" lon="0.56545">
        <ele>150.583618</ele>
        <time>2010-05-09T08:27:27Z</time>
      </trkpt>
      <trkpt lat="44.11588" lon="0.56522">
        <ele>150.583618</ele>
        <time>2010-05-09T08:27:41Z</time>
      </trkpt>
      <trkpt lat="44.11583" lon="0.56508">
        <ele>151.544922</ele>
        <time>2010-05-09T08:27:49Z</time>
      </trkpt>
      <trkpt lat="44.11573" lon="0.56473">
        <ele>153.948364</ele>
        <time>2010-05-09T08:28:05Z</time>
      </trkpt>
      <trkpt lat="44.11572" lon="0.56464">
        <ele>153.467651</ele>
        <time>2010-05-09T08:28:09Z</time>
      </trkpt>
      <trkpt lat="44.1157" lon="0.56449">
        <ele>153.467651</ele>
        <time>2010-05-09T08:28:17Z</time>
      </trkpt>
      <trkpt lat="44.1157" lon="0.56417">
        <ele>154.909546</ele>
        <time>2010-05-09T08:28:33Z</time>
      </trkpt>
      <trkpt lat="44.1157" lon="0.56415">
        <ele>154.909546</ele>
        <time>2010-05-09T08:28:34Z</time>
      </trkpt>
      <trkpt lat="44.11571" lon="0.56407">
        <ele>154.909546</ele>
        <time>2010-05-09T08:28:38Z</time>
      </trkpt>
      <trkpt lat="44.11572" lon="0.56383">
        <ele>157.312866</ele>
        <time>2010-05-09T08:28:49Z</time>
      </trkpt>
      <trkpt lat="44.1157" lon="0.56357">
        <ele>158.27417</ele>
        <time>2010-05-09T08:29:01Z</time>
      </trkpt>
      <trkpt lat="44.1157" lon="0.56352">
        <ele>158.754761</ele>
        <time>2010-05-09T08:29:04Z</time>
      </trkpt>
      <trkpt lat="44.11568" lon="0.56335">
        <ele>160.196899</ele>
        <time>2010-05-09T08:29:13Z</time>
      </trkpt>
      <trkpt lat="44.11567" lon="0.56327">
        <ele>161.158203</ele>
        <time>2010-05-09T08:29:18Z</time>
      </trkpt>
      <trkpt lat="44.11567" lon="0.56323">
        <ele>161.638916</ele>
        <time>2010-05-09T08:29:20Z</time>
      </trkpt>
      <trkpt lat="44.11565" lon="0.56297">
        <ele>164.522705</ele>
        <time>2010-05-09T08:29:34Z</time>
      </trkpt>
      <trkpt lat="44.11564" lon="0.5629">
        <ele>164.522705</ele>
        <time>2010-05-09T08:29:39Z</time>
      </trkpt>
      <trkpt lat="44.11563" lon="0.56287">
        <ele>164.042114</ele>
        <time>2010-05-09T08:29:41Z</time>
      </trkpt>
      <trkpt lat="44.11559" lon="0.56252">
        <ele>164.522705</ele>
        <time>2010-05-09T08:29:56Z</time>
      </trkpt>
      <trkpt lat="44.11558" lon="0.5625">
        <ele>164.522705</ele>
        <time>2010-05-09T08:29:57Z</time>
      </trkpt>
      <trkpt lat="44.11563" lon="0.56243">
        <ele>164.042114</ele>
        <time>2010-05-09T08:30:02Z</time>
      </trkpt>
      <trkpt lat="44.11568" lon="0.56242">
        <ele>163.080811</ele>
        <time>2010-05-09T08:30:06Z</time>
      </trkpt>
      <trkpt lat="44.1157" lon="0.5624">
        <ele>163.561523</ele>
        <time>2010-05-09T08:30:19Z</time>
      </trkpt>
      <trkpt lat="44.11569" lon="0.56237">
        <ele>165.964722</ele>
        <time>2010-05-09T08:35:12Z</time>
      </trkpt>
      <trkpt lat="44.11573" lon="0.56228">
        <ele>165.964722</ele>
        <time>2010-05-09T08:35:23Z</time>
      </trkpt>
      <trkpt lat="44.1157" lon="0.56219">
        <ele>165.964722</ele>
        <time>2010-05-09T08:35:27Z</time>
      </trkpt>
      <trkpt lat="44.11573" lon="0.56204">
        <ele>165.484131</ele>
        <time>2010-05-09T08:35:31Z</time>
      </trkpt>
      <trkpt lat="44.11584" lon="0.56187">
        <ele>164.042114</ele>
        <time>2010-05-09T08:35:36Z</time>
      </trkpt>
      <trkpt lat="44.11631" lon="0.56113">
        <ele>159.716187</ele>
        <time>2010-05-09T08:35:49Z</time>
      </trkpt>
      <trkpt lat="44.11695" lon="0.56014">
        <ele>151.544922</ele>
        <time>2010-05-09T08:36:01Z</time>
      </trkpt>
      <trkpt lat="44.11751" lon="0.55928">
        <ele>146.738403</ele>
        <time>2010-05-09T08:36:13Z</time>
      </trkpt>
      <trkpt lat="44.11786" lon="0.55873">
        <ele>144.815796</ele>
        <time>2010-05-09T08:36:22Z</time>
      </trkpt>
      <trkpt lat="44.11816" lon="0.55827">
        <ele>140.009155</ele>
        <time>2010-05-09T08:36:30Z</time>
      </trkpt>
      <trkpt lat="44.11823" lon="0.55808">
        <ele>139.047852</ele>
        <time>2010-05-09T08:36:33Z</time>
      </trkpt>
      <trkpt lat="44.11832" lon="0.55783">
        <ele>136.644653</ele>
        <time>2010-05-09T08:36:37Z</time>
      </trkpt>
      <trkpt lat="44.11837" lon="0.5577">
        <ele>135.683105</ele>
        <time>2010-05-09T08:36:39Z</time>
      </trkpt>
      <trkpt lat="44.11866" lon="0.55713">
        <ele>129.434692</ele>
        <time>2010-05-09T08:36:51Z</time>
      </trkpt>
      <trkpt lat="44.1187" lon="0.55711">
        <ele>128.954102</ele>
        <time>2010-05-09T08:36:52Z</time>
      </trkpt>
      <trkpt lat="44.11885" lon="0.55715">
        <ele>126.069946</ele>
        <time>2010-05-09T08:36:56Z</time>
      </trkpt>
      <trkpt lat="44.11919" lon="0.5576">
        <ele>123.666748</ele>
        <time>2010-05-09T08:37:07Z</time>
      </trkpt>
      <trkpt lat="44.11921" lon="0.55762">
        <ele>124.147339</ele>
        <time>2010-05-09T08:37:08Z</time>
      </trkpt>
      <trkpt lat="44.11934" lon="0.55751">
        <ele>124.628052</ele>
        <time>2010-05-09T08:37:15Z</time>
      </trkpt>
      <trkpt lat="44.11936" lon="0.55747">
        <ele>124.628052</ele>
        <time>2010-05-09T08:37:17Z</time>
      </trkpt>
      <trkpt lat="44.11949" lon="0.55729">
        <ele>126.069946</ele>
        <time>2010-05-09T08:37:29Z</time>
      </trkpt>
      <trkpt lat="44.11956" lon="0.55717">
        <ele>127.511963</ele>
        <time>2010-05-09T08:37:36Z</time>
      </trkpt>
      <trkpt lat="44.11958" lon="0.55713">
        <ele>128.954102</ele>
        <time>2010-05-09T08:37:41Z</time>
      </trkpt>
      <trkpt lat="44.11963" lon="0.55705">
        <ele>129.915283</ele>
        <time>2010-05-09T08:37:47Z</time>
      </trkpt>
      <trkpt lat="44.11968" lon="0.55695">
        <ele>130.876709</ele>
        <time>2010-05-09T08:37:53Z</time>
      </trkpt>
      <trkpt lat="44.1197" lon="0.55684">
        <ele>132.318604</ele>
        <time>2010-05-09T08:37:59Z</time>
      </trkpt>
      <trkpt lat="44.1197" lon="0.55659">
        <ele>135.683105</ele>
        <time>2010-05-09T08:38:14Z</time>
      </trkpt>
      <trkpt lat="44.11969" lon="0.55638">
        <ele>138.567261</ele>
        <time>2010-05-09T08:38:26Z</time>
      </trkpt>
      <trkpt lat="44.1197" lon="0.55633">
        <ele>139.528442</ele>
        <time>2010-05-09T08:38:29Z</time>
      </trkpt>
      <trkpt lat="44.1197" lon="0.55621">
        <ele>140.009155</ele>
        <time>2010-05-09T08:38:36Z</time>
      </trkpt>
      <trkpt lat="44.1197" lon="0.55603">
        <ele>141.931763</ele>
        <time>2010-05-09T08:38:47Z</time>
      </trkpt>
      <trkpt lat="44.11971" lon="0.55581">
        <ele>142.893066</ele>
        <time>2010-05-09T08:39:03Z</time>
      </trkpt>
      <trkpt lat="44.11977" lon="0.55549">
        <ele>143.85437</ele>
        <time>2010-05-09T08:39:19Z</time>
      </trkpt>
      <trkpt lat="44.11986" lon="0.55515">
        <ele>144.815796</ele>
        <time>2010-05-09T08:39:34Z</time>
      </trkpt>
      <trkpt lat="44.11997" lon="0.5548">
        <ele>144.335205</ele>
        <time>2010-05-09T08:39:47Z</time>
      </trkpt>
      <trkpt lat="44.12012" lon="0.55435">
        <ele>143.373657</ele>
        <time>2010-05-09T08:39:58Z</time>
      </trkpt>
      <trkpt lat="44.1202" lon="0.55407">
        <ele>142.893066</ele>
        <time>2010-05-09T08:40:03Z</time>
      </trkpt>
      <trkpt lat="44.12027" lon="0.55384">
        <ele>142.893066</ele>
        <time>2010-05-09T08:40:07Z</time>
      </trkpt>
      <trkpt lat="44.12033" lon="0.55366">
        <ele>141.45105</ele>
        <time>2010-05-09T08:40:10Z</time>
      </trkpt>
      <trkpt lat="44.12063" lon="0.55276">
        <ele>139.047852</ele>
        <time>2010-05-09T08:40:25Z</time>
      </trkpt>
      <trkpt lat="44.1207" lon="0.55259">
        <ele>139.047852</ele>
        <time>2010-05-09T08:40:28Z</time>
      </trkpt>
      <trkpt lat="44.12078" lon="0.55241">
        <ele>138.086548</ele>
        <time>2010-05-09T08:40:31Z</time>
      </trkpt>
      <trkpt lat="44.12113" lon="0.55168">
        <ele>134.721924</ele>
        <time>2010-05-09T08:40:42Z</time>
      </trkpt>
      <trkpt lat="44.12125" lon="0.55141">
        <ele>133.760498</ele>
        <time>2010-05-09T08:40:46Z</time>
      </trkpt>
      <trkpt lat="44.12141" lon="0.55105">
        <ele>131.837891</ele>
        <time>2010-05-09T08:40:53Z</time>
      </trkpt>
      <trkpt lat="44.12153" lon="0.55078">
        <ele>130.395996</ele>
        <time>2010-05-09T08:40:58Z</time>
      </trkpt>
      <trkpt lat="44.12183" lon="0.55014">
        <ele>127.992554</ele>
        <time>2010-05-09T08:41:09Z</time>
      </trkpt>
      <trkpt lat="44.12198" lon="0.54992">
        <ele>126.550659</ele>
        <time>2010-05-09T08:41:14Z</time>
      </trkpt>
      <trkpt lat="44.12204" lon="0.54983">
        <ele>126.550659</ele>
        <time>2010-05-09T08:41:16Z</time>
      </trkpt>
      <trkpt lat="44.1221" lon="0.54974">
        <ele>126.069946</ele>
        <time>2010-05-09T08:41:18Z</time>
      </trkpt>
      <trkpt lat="44.12222" lon="0.54955">
        <ele>125.108765</ele>
        <time>2010-05-09T08:41:22Z</time>
      </trkpt>
      <trkpt lat="44.12256" lon="0.54896">
        <ele>121.744141</ele>
        <time>2010-05-09T08:41:32Z</time>
      </trkpt>
      <trkpt lat="44.12258" lon="0.54889">
        <ele>121.744141</ele>
        <time>2010-05-09T08:41:33Z</time>
      </trkpt>
      <trkpt lat="44.12265" lon="0.54863">
        <ele>121.744141</ele>
        <time>2010-05-09T08:41:37Z</time>
      </trkpt>
      <trkpt lat="44.12274" lon="0.54816">
        <ele>125.108765</ele>
        <time>2010-05-09T08:41:48Z</time>
      </trkpt>
      <trkpt lat="44.12281" lon="0.54767">
        <ele>127.031372</ele>
        <time>2010-05-09T08:42:03Z</time>
      </trkpt>
      <trkpt lat="44.12288" lon="0.54734">
        <ele>130.876709</ele>
        <time>2010-05-09T08:42:16Z</time>
      </trkpt>
      <trkpt lat="44.12294" lon="0.54703">
        <ele>134.721924</ele>
        <time>2010-05-09T08:42:30Z</time>
      </trkpt>
      <trkpt lat="44.12294" lon="0.54701">
        <ele>135.202515</ele>
        <time>2010-05-09T08:42:31Z</time>
      </trkpt>
      <trkpt lat="44.12299" lon="0.54675">
        <ele>137.125244</ele>
        <time>2010-05-09T08:42:44Z</time>
      </trkpt>
      <trkpt lat="44.12303" lon="0.54649">
        <ele>138.567261</ele>
        <time>2010-05-09T08:42:57Z</time>
      </trkpt>
      <trkpt lat="44.1231" lon="0.54617">
        <ele>140.489868</ele>
        <time>2010-05-09T08:43:12Z</time>
      </trkpt>
      <trkpt lat="44.12317" lon="0.54577">
        <ele>142.412476</ele>
        <time>2010-05-09T08:43:29Z</time>
      </trkpt>
      <trkpt lat="44.12326" lon="0.54544">
        <ele>144.815796</ele>
        <time>2010-05-09T08:43:43Z</time>
      </trkpt>
      <trkpt lat="44.12334" lon="0.5452">
        <ele>146.257813</ele>
        <time>2010-05-09T08:43:53Z</time>
      </trkpt>
      <trkpt lat="44.12337" lon="0.54509">
        <ele>146.738403</ele>
        <time>2010-05-09T08:43:57Z</time>
      </trkpt>
      <trkpt lat="44.1235" lon="0.54458">
        <ele>148.661011</ele>
        <time>2010-05-09T08:44:13Z</time>
      </trkpt>
      <trkpt lat="44.12374" lon="0.54422">
        <ele>149.141602</ele>
        <time>2010-05-09T08:44:27Z</time>
      </trkpt>
      <trkpt lat="44.12415" lon="0.54388">
        <ele>150.583618</ele>
        <time>2010-05-09T08:44:40Z</time>
      </trkpt>
      <trkpt lat="44.12426" lon="0.54379">
        <ele>151.064209</ele>
        <time>2010-05-09T08:44:43Z</time>
      </trkpt>
      <trkpt lat="44.12438" lon="0.54368">
        <ele>151.544922</ele>
        <time>2010-05-09T08:44:46Z</time>
      </trkpt>
      <trkpt lat="44.12485" lon="0.54298">
        <ele>149.141602</ele>
        <time>2010-05-09T08:45:00Z</time>
      </trkpt>
      <trkpt lat="44.12496" lon="0.54282">
        <ele>147.218994</ele>
        <time>2010-05-09T08:45:09Z</time>
      </trkpt>
      <trkpt lat="44.12498" lon="0.54275">
        <ele>147.699707</ele>
        <time>2010-05-09T08:45:16Z</time>
      </trkpt>
      <trkpt lat="44.12524" lon="0.54283">
        <ele>147.699707</ele>
        <time>2010-05-09T08:45:25Z</time>
      </trkpt>
      <trkpt lat="44.1254" lon="0.54274">
        <ele>146.738403</ele>
        <time>2010-05-09T08:45:29Z</time>
      </trkpt>
      <trkpt lat="44.12567" lon="0.54217">
        <ele>146.738403</ele>
        <time>2010-05-09T08:45:38Z</time>
      </trkpt>
      <trkpt lat="44.12575" lon="0.54202">
        <ele>147.218994</ele>
        <time>2010-05-09T08:45:41Z</time>
      </trkpt>
      <trkpt lat="44.12602" lon="0.54201">
        <ele>147.699707</ele>
        <time>2010-05-09T08:45:49Z</time>
      </trkpt>
      <trkpt lat="44.1262" lon="0.54215">
        <ele>145.7771</ele>
        <time>2010-05-09T08:45:54Z</time>
      </trkpt>
      <trkpt lat="44.12641" lon="0.54203">
        <ele>144.815796</ele>
        <time>2010-05-09T08:46:01Z</time>
      </trkpt>
      <trkpt lat="44.12655" lon="0.54155">
        <ele>147.699707</ele>
        <time>2010-05-09T08:46:14Z</time>
      </trkpt>
      <trkpt lat="44.12668" lon="0.5411">
        <ele>148.661011</ele>
        <time>2010-05-09T08:46:27Z</time>
      </trkpt>
      <trkpt lat="44.12674" lon="0.54074">
        <ele>147.699707</ele>
        <time>2010-05-09T08:46:34Z</time>
      </trkpt>
      <trkpt lat="44.1268" lon="0.54049">
        <ele>146.738403</ele>
        <time>2010-05-09T08:46:38Z</time>
      </trkpt>
      <trkpt lat="44.12686" lon="0.54028">
        <ele>145.296387</ele>
        <time>2010-05-09T08:46:41Z</time>
      </trkpt>
      <trkpt lat="44.12691" lon="0.53997">
        <ele>142.893066</ele>
        <time>2010-05-09T08:46:45Z</time>
      </trkpt>
      <trkpt lat="44.12712" lon="0.53897">
        <ele>137.605835</ele>
        <time>2010-05-09T08:46:57Z</time>
      </trkpt>
      <trkpt lat="44.12721" lon="0.53855">
        <ele>136.644653</ele>
        <time>2010-05-09T08:47:03Z</time>
      </trkpt>
      <trkpt lat="44.12724" lon="0.53826">
        <ele>136.644653</ele>
        <time>2010-05-09T08:47:07Z</time>
      </trkpt>
      <trkpt lat="44.12733" lon="0.53761">
        <ele>132.318604</ele>
        <time>2010-05-09T08:47:14Z</time>
      </trkpt>
      <trkpt lat="44.12737" lon="0.53722">
        <ele>130.395996</ele>
        <time>2010-05-09T08:47:23Z</time>
      </trkpt>
      <trkpt lat="44.12742" lon="0.53678">
        <ele>130.395996</ele>
        <time>2010-05-09T08:47:34Z</time>
      </trkpt>
      <trkpt lat="44.1275" lon="0.53627">
        <ele>127.992554</ele>
        <time>2010-05-09T08:47:45Z</time>
      </trkpt>
      <trkpt lat="44.12753" lon="0.53617">
        <ele>127.511963</ele>
        <time>2010-05-09T08:47:47Z</time>
      </trkpt>
      <trkpt lat="44.12755" lon="0.53606">
        <ele>126.550659</ele>
        <time>2010-05-09T08:47:49Z</time>
      </trkpt>
      <trkpt lat="44.1276" lon="0.53589">
        <ele>126.069946</ele>
        <time>2010-05-09T08:47:52Z</time>
      </trkpt>
      <trkpt lat="44.12782" lon="0.5353">
        <ele>119.34082</ele>
        <time>2010-05-09T08:48:03Z</time>
      </trkpt>
      <trkpt lat="44.12791" lon="0.53504">
        <ele>117.418213</ele>
        <time>2010-05-09T08:48:07Z</time>
      </trkpt>
      <trkpt lat="44.12818" lon="0.53397">
        <ele>115.495605</ele>
        <time>2010-05-09T08:48:19Z</time>
      </trkpt>
      <trkpt lat="44.12833" lon="0.53336">
        <ele>113.092285</ele>
        <time>2010-05-09T08:48:28Z</time>
      </trkpt>
      <trkpt lat="44.12859" lon="0.53309">
        <ele>112.611572</ele>
        <time>2010-05-09T08:48:35Z</time>
      </trkpt>
      <trkpt lat="44.1289" lon="0.5331">
        <ele>112.611572</ele>
        <time>2010-05-09T08:48:44Z</time>
      </trkpt>
      <trkpt lat="44.12923" lon="0.53327">
        <ele>110.688843</ele>
        <time>2010-05-09T08:48:55Z</time>
      </trkpt>
      <trkpt lat="44.12955" lon="0.53346">
        <ele>111.169556</ele>
        <time>2010-05-09T08:49:07Z</time>
      </trkpt>
      <trkpt lat="44.12982" lon="0.53358">
        <ele>111.169556</ele>
        <time>2010-05-09T08:49:17Z</time>
      </trkpt>
      <trkpt lat="44.13011" lon="0.53379">
        <ele>109.727661</ele>
        <time>2010-05-09T08:49:28Z</time>
      </trkpt>
      <trkpt lat="44.13038" lon="0.53392">
        <ele>110.208252</ele>
        <time>2010-05-09T08:49:40Z</time>
      </trkpt>
      <trkpt lat="44.13064" lon="0.53408">
        <ele>110.688843</ele>
        <time>2010-05-09T08:49:53Z</time>
      </trkpt>
      <trkpt lat="44.1308" lon="0.53433">
        <ele>111.169556</ele>
        <time>2010-05-09T08:50:03Z</time>
      </trkpt>
      <trkpt lat="44.13096" lon="0.5346">
        <ele>111.169556</ele>
        <time>2010-05-09T08:50:13Z</time>
      </trkpt>
      <trkpt lat="44.13103" lon="0.53481">
        <ele>111.650269</ele>
        <time>2010-05-09T08:50:23Z</time>
      </trkpt>
      <trkpt lat="44.13114" lon="0.53492">
        <ele>112.130981</ele>
        <time>2010-05-09T08:50:34Z</time>
      </trkpt>
      <trkpt lat="44.13116" lon="0.53495">
        <ele>112.611572</ele>
        <time>2010-05-09T08:50:39Z</time>
      </trkpt>
      <trkpt lat="44.1314" lon="0.53521">
        <ele>111.169556</ele>
        <time>2010-05-09T08:50:52Z</time>
      </trkpt>
      <trkpt lat="44.13162" lon="0.53545">
        <ele>110.208252</ele>
        <time>2010-05-09T08:51:03Z</time>
      </trkpt>
      <trkpt lat="44.13193" lon="0.53579">
        <ele>110.208252</ele>
        <time>2010-05-09T08:51:16Z</time>
      </trkpt>
      <trkpt lat="44.13219" lon="0.53618">
        <ele>110.688843</ele>
        <time>2010-05-09T08:51:28Z</time>
      </trkpt>
      <trkpt lat="44.13252" lon="0.53667">
        <ele>109.246948</ele>
        <time>2010-05-09T08:51:43Z</time>
      </trkpt>
      <trkpt lat="44.13281" lon="0.53715">
        <ele>108.766235</ele>
        <time>2010-05-09T08:51:57Z</time>
      </trkpt>
      <trkpt lat="44.13307" lon="0.53752">
        <ele>107.805054</ele>
        <time>2010-05-09T08:52:08Z</time>
      </trkpt>
      <trkpt lat="44.13337" lon="0.53794">
        <ele>108.285645</ele>
        <time>2010-05-09T08:52:21Z</time>
      </trkpt>
      <trkpt lat="44.13361" lon="0.5384">
        <ele>106.843628</ele>
        <time>2010-05-09T08:52:33Z</time>
      </trkpt>
      <trkpt lat="44.13399" lon="0.53879">
        <ele>103.959717</ele>
        <time>2010-05-09T08:52:46Z</time>
      </trkpt>
      <trkpt lat="44.13427" lon="0.53918">
        <ele>102.998291</ele>
        <time>2010-05-09T08:52:57Z</time>
      </trkpt>
      <trkpt lat="44.1345" lon="0.53943">
        <ele>102.998291</ele>
        <time>2010-05-09T08:53:06Z</time>
      </trkpt>
      <trkpt lat="44.13457" lon="0.53955">
        <ele>103.479004</ele>
        <time>2010-05-09T08:53:10Z</time>
      </trkpt>
      <trkpt lat="44.13472" lon="0.53996">
        <ele>102.037109</ele>
        <time>2010-05-09T08:53:21Z</time>
      </trkpt>
      <trkpt lat="44.13494" lon="0.54021">
        <ele>100.595093</ele>
        <time>2010-05-09T08:53:31Z</time>
      </trkpt>
      <trkpt lat="44.13515" lon="0.54054">
        <ele>101.556396</ele>
        <time>2010-05-09T08:53:41Z</time>
      </trkpt>
      <trkpt lat="44.13521" lon="0.54066">
        <ele>102.5177</ele>
        <time>2010-05-09T08:53:44Z</time>
      </trkpt>
      <trkpt lat="44.13537" lon="0.54068">
        <ele>105.401733</ele>
        <time>2010-05-09T08:53:53Z</time>
      </trkpt>
      <trkpt lat="44.13554" lon="0.54042">
        <ele>106.843628</ele>
        <time>2010-05-09T08:54:09Z</time>
      </trkpt>
      <trkpt lat="44.13555" lon="0.5404">
        <ele>106.843628</ele>
        <time>2010-05-09T08:54:10Z</time>
      </trkpt>
      <trkpt lat="44.13563" lon="0.54027">
        <ele>108.285645</ele>
        <time>2010-05-09T08:54:20Z</time>
      </trkpt>
      <trkpt lat="44.13565" lon="0.54022">
        <ele>109.246948</ele>
        <time>2010-05-09T08:54:24Z</time>
      </trkpt>
      <trkpt lat="44.13574" lon="0.54009">
        <ele>111.169556</ele>
        <time>2010-05-09T08:54:37Z</time>
      </trkpt>
      <trkpt lat="44.1358" lon="0.53998">
        <ele>112.130981</ele>
        <time>2010-05-09T08:54:48Z</time>
      </trkpt>
      <trkpt lat="44.1359" lon="0.5398">
        <ele>113.092285</ele>
        <time>2010-05-09T08:55:05Z</time>
      </trkpt>
      <trkpt lat="44.13599" lon="0.53966">
        <ele>115.014893</ele>
        <time>2010-05-09T08:55:18Z</time>
      </trkpt>
      <trkpt lat="44.13609" lon="0.53951">
        <ele>117.418213</ele>
        <time>2010-05-09T08:55:33Z</time>
      </trkpt>
      <trkpt lat="44.13613" lon="0.53943">
        <ele>118.379395</ele>
        <time>2010-05-09T08:55:40Z</time>
      </trkpt>
      <trkpt lat="44.13622" lon="0.53928">
        <ele>119.34082</ele>
        <time>2010-05-09T08:55:53Z</time>
      </trkpt>
      <trkpt lat="44.13623" lon="0.53926">
        <ele>119.34082</ele>
        <time>2010-05-09T08:55:55Z</time>
      </trkpt>
      <trkpt lat="44.13624" lon="0.53924">
        <ele>119.821411</ele>
        <time>2010-05-09T08:55:57Z</time>
      </trkpt>
      <trkpt lat="44.13634" lon="0.53909">
        <ele>121.744141</ele>
        <time>2010-05-09T08:56:11Z</time>
      </trkpt>
      <trkpt lat="44.13637" lon="0.53902">
        <ele>122.705444</ele>
        <time>2010-05-09T08:56:18Z</time>
      </trkpt>
      <trkpt lat="44.1364" lon="0.53897">
        <ele>123.666748</ele>
        <time>2010-05-09T08:56:23Z</time>
      </trkpt>
      <trkpt lat="44.13641" lon="0.53895">
        <ele>124.147339</ele>
        <time>2010-05-09T08:56:25Z</time>
      </trkpt>
      <trkpt lat="44.13649" lon="0.53881">
        <ele>126.069946</ele>
        <time>2010-05-09T08:56:38Z</time>
      </trkpt>
      <trkpt lat="44.1365" lon="0.5388">
        <ele>126.069946</ele>
        <time>2010-05-09T08:56:39Z</time>
      </trkpt>
      <trkpt lat="44.13656" lon="0.53869">
        <ele>127.511963</ele>
        <time>2010-05-09T08:56:49Z</time>
      </trkpt>
      <trkpt lat="44.13662" lon="0.53862">
        <ele>128.954102</ele>
        <time>2010-05-09T08:56:56Z</time>
      </trkpt>
      <trkpt lat="44.13671" lon="0.53845">
        <ele>131.3573</ele>
        <time>2010-05-09T08:57:12Z</time>
      </trkpt>
      <trkpt lat="44.13674" lon="0.53838">
        <ele>131.837891</ele>
        <time>2010-05-09T08:57:18Z</time>
      </trkpt>
      <trkpt lat="44.13679" lon="0.53829">
        <ele>133.279907</ele>
        <time>2010-05-09T08:57:26Z</time>
      </trkpt>
      <trkpt lat="44.13681" lon="0.53823">
        <ele>133.760498</ele>
        <time>2010-05-09T08:57:30Z</time>
      </trkpt>
      <trkpt lat="44.13682" lon="0.53817">
        <ele>134.241211</ele>
        <time>2010-05-09T08:57:34Z</time>
      </trkpt>
      <trkpt lat="44.13681" lon="0.53799">
        <ele>136.644653</ele>
        <time>2010-05-09T08:57:48Z</time>
      </trkpt>
      <trkpt lat="44.13684" lon="0.53789">
        <ele>139.047852</ele>
        <time>2010-05-09T08:57:57Z</time>
      </trkpt>
      <trkpt lat="44.13685" lon="0.53787">
        <ele>139.528442</ele>
        <time>2010-05-09T08:57:59Z</time>
      </trkpt>
      <trkpt lat="44.13688" lon="0.53778">
        <ele>140.489868</ele>
        <time>2010-05-09T08:58:07Z</time>
      </trkpt>
      <trkpt lat="44.13695" lon="0.53763">
        <ele>140.970459</ele>
        <time>2010-05-09T08:58:19Z</time>
      </trkpt>
      <trkpt lat="44.13698" lon="0.53746">
        <ele>140.970459</ele>
        <time>2010-05-09T08:58:34Z</time>
      </trkpt>
      <trkpt lat="44.13699" lon="0.53741">
        <ele>142.893066</ele>
        <time>2010-05-09T08:58:40Z</time>
      </trkpt>
      <trkpt lat="44.13702" lon="0.53728">
        <ele>147.218994</ele>
        <time>2010-05-09T08:58:53Z</time>
      </trkpt>
      <trkpt lat="44.13707" lon="0.53717">
        <ele>148.18042</ele>
        <time>2010-05-09T08:59:03Z</time>
      </trkpt>
      <trkpt lat="44.13708" lon="0.53714">
        <ele>148.18042</ele>
        <time>2010-05-09T08:59:05Z</time>
      </trkpt>
      <trkpt lat="44.1371" lon="0.53708">
        <ele>148.661011</ele>
        <time>2010-05-09T08:59:09Z</time>
      </trkpt>
      <trkpt lat="44.13712" lon="0.53704">
        <ele>148.661011</ele>
        <time>2010-05-09T08:59:12Z</time>
      </trkpt>
      <trkpt lat="44.13714" lon="0.537">
        <ele>149.141602</ele>
        <time>2010-05-09T08:59:15Z</time>
      </trkpt>
      <trkpt lat="44.1372" lon="0.53684">
        <ele>151.064209</ele>
        <time>2010-05-09T08:59:27Z</time>
      </trkpt>
      <trkpt lat="44.13729" lon="0.53669">
        <ele>153.467651</ele>
        <time>2010-05-09T08:59:39Z</time>
      </trkpt>
      <trkpt lat="44.1374" lon="0.53655">
        <ele>153.948364</ele>
        <time>2010-05-09T08:59:52Z</time>
      </trkpt>
      <trkpt lat="44.13745" lon="0.53652">
        <ele>155.390259</ele>
        <time>2010-05-09T09:00:02Z</time>
      </trkpt>
      <trkpt lat="44.13748" lon="0.53647">
        <ele>155.870972</ele>
        <time>2010-05-09T09:00:06Z</time>
      </trkpt>
      <trkpt lat="44.13761" lon="0.53635">
        <ele>156.832153</ele>
        <time>2010-05-09T09:00:19Z</time>
      </trkpt>
      <trkpt lat="44.13766" lon="0.5363">
        <ele>156.351563</ele>
        <time>2010-05-09T09:00:24Z</time>
      </trkpt>
      <trkpt lat="44.13771" lon="0.53625">
        <ele>156.351563</ele>
        <time>2010-05-09T09:00:29Z</time>
      </trkpt>
      <trkpt lat="44.13789" lon="0.53603">
        <ele>156.351563</ele>
        <time>2010-05-09T09:00:43Z</time>
      </trkpt>
      <trkpt lat="44.13798" lon="0.5361">
        <ele>158.27417</ele>
        <time>2010-05-09T09:00:53Z</time>
      </trkpt>
      <trkpt lat="44.13805" lon="0.53621">
        <ele>158.27417</ele>
        <time>2010-05-09T09:01:02Z</time>
      </trkpt>
      <trkpt lat="44.13805" lon="0.53624">
        <ele>158.27417</ele>
        <time>2010-05-09T09:01:04Z</time>
      </trkpt>
      <trkpt lat="44.13815" lon="0.53639">
        <ele>159.716187</ele>
        <time>2010-05-09T09:01:15Z</time>
      </trkpt>
      <trkpt lat="44.13816" lon="0.53642">
        <ele>159.716187</ele>
        <time>2010-05-09T09:01:17Z</time>
      </trkpt>
      <trkpt lat="44.13832" lon="0.5366">
        <ele>161.638916</ele>
        <time>2010-05-09T09:01:32Z</time>
      </trkpt>
      <trkpt lat="44.13833" lon="0.53661">
        <ele>161.638916</ele>
        <time>2010-05-09T09:01:33Z</time>
      </trkpt>
      <trkpt lat="44.13839" lon="0.53667">
        <ele>162.600098</ele>
        <time>2010-05-09T09:01:38Z</time>
      </trkpt>
      <trkpt lat="44.13847" lon="0.53678">
        <ele>164.522705</ele>
        <time>2010-05-09T09:01:48Z</time>
      </trkpt>
      <trkpt lat="44.13861" lon="0.53694">
        <ele>166.445313</ele>
        <time>2010-05-09T09:02:00Z</time>
      </trkpt>
      <trkpt lat="44.13876" lon="0.53705">
        <ele>169.329468</ele>
        <time>2010-05-09T09:02:10Z</time>
      </trkpt>
      <trkpt lat="44.13881" lon="0.53708">
        <ele>169.329468</ele>
        <time>2010-05-09T09:02:14Z</time>
      </trkpt>
      <trkpt lat="44.13897" lon="0.53724">
        <ele>170.771362</ele>
        <time>2010-05-09T09:02:28Z</time>
      </trkpt>
      <trkpt lat="44.13919" lon="0.53748">
        <ele>170.771362</ele>
        <time>2010-05-09T09:02:41Z</time>
      </trkpt>
      <trkpt lat="44.13928" lon="0.53759">
        <ele>169.810059</ele>
        <time>2010-05-09T09:02:45Z</time>
      </trkpt>
      <trkpt lat="44.13946" lon="0.53819">
        <ele>165.484131</ele>
        <time>2010-05-09T09:02:56Z</time>
      </trkpt>
      <trkpt lat="44.13953" lon="0.53836">
        <ele>164.522705</ele>
        <time>2010-05-09T09:02:59Z</time>
      </trkpt>
      <trkpt lat="44.1396" lon="0.53851">
        <ele>163.561523</ele>
        <time>2010-05-09T09:03:02Z</time>
      </trkpt>
      <trkpt lat="44.13987" lon="0.5392">
        <ele>164.042114</ele>
        <time>2010-05-09T09:03:16Z</time>
      </trkpt>
      <trkpt lat="44.14004" lon="0.53966">
        <ele>165.003418</ele>
        <time>2010-05-09T09:03:28Z</time>
      </trkpt>
      <trkpt lat="44.14025" lon="0.54008">
        <ele>164.042114</ele>
        <time>2010-05-09T09:03:39Z</time>
      </trkpt>
      <trkpt lat="44.14056" lon="0.54058">
        <ele>164.522705</ele>
        <time>2010-05-09T09:03:52Z</time>
      </trkpt>
      <trkpt lat="44.14094" lon="0.5411">
        <ele>161.638916</ele>
        <time>2010-05-09T09:04:04Z</time>
      </trkpt>
      <trkpt lat="44.14098" lon="0.54114">
        <ele>161.158203</ele>
        <time>2010-05-09T09:04:05Z</time>
      </trkpt>
      <trkpt lat="44.14129" lon="0.5414">
        <ele>160.196899</ele>
        <time>2010-05-09T09:04:11Z</time>
      </trkpt>
      <trkpt lat="44.14139" lon="0.54145">
        <ele>160.67749</ele>
        <time>2010-05-09T09:04:13Z</time>
      </trkpt>
      <trkpt lat="44.14196" lon="0.54181">
        <ele>165.964722</ele>
        <time>2010-05-09T09:04:27Z</time>
      </trkpt>
      <trkpt lat="44.1423" lon="0.54217">
        <ele>167.887329</ele>
        <time>2010-05-09T09:04:39Z</time>
      </trkpt>
      <trkpt lat="44.14274" lon="0.54247">
        <ele>166.445313</ele>
        <time>2010-05-09T09:04:52Z</time>
      </trkpt>
      <trkpt lat="44.14315" lon="0.54272">
        <ele>164.042114</ele>
        <time>2010-05-09T09:05:02Z</time>
      </trkpt>
      <trkpt lat="44.14364" lon="0.54302">
        <ele>162.119507</ele>
        <time>2010-05-09T09:05:13Z</time>
      </trkpt>
      <trkpt lat="44.14368" lon="0.54304">
        <ele>162.119507</ele>
        <time>2010-05-09T09:05:14Z</time>
      </trkpt>
      <trkpt lat="44.1439" lon="0.54315">
        <ele>163.080811</ele>
        <time>2010-05-09T09:05:19Z</time>
      </trkpt>
      <trkpt lat="44.14399" lon="0.5432">
        <ele>163.561523</ele>
        <time>2010-05-09T09:05:21Z</time>
      </trkpt>
      <trkpt lat="44.14421" lon="0.54331">
        <ele>165.003418</ele>
        <time>2010-05-09T09:05:26Z</time>
      </trkpt>
      <trkpt lat="44.14437" lon="0.54339">
        <ele>165.964722</ele>
        <time>2010-05-09T09:05:30Z</time>
      </trkpt>
      <trkpt lat="44.14488" lon="0.54364">
        <ele>166.926025</ele>
        <time>2010-05-09T09:05:43Z</time>
      </trkpt>
      <trkpt lat="44.14525" lon="0.54379">
        <ele>168.368042</ele>
        <time>2010-05-09T09:05:53Z</time>
      </trkpt>
      <trkpt lat="44.14557" lon="0.54394">
        <ele>170.290649</ele>
        <time>2010-05-09T09:06:02Z</time>
      </trkpt>
      <trkpt lat="44.14577" lon="0.54403">
        <ele>170.290649</ele>
        <time>2010-05-09T09:06:07Z</time>
      </trkpt>
      <trkpt lat="44.14595" lon="0.54414">
        <ele>168.848755</ele>
        <time>2010-05-09T09:06:11Z</time>
      </trkpt>
      <trkpt lat="44.14638" lon="0.54436">
        <ele>164.522705</ele>
        <time>2010-05-09T09:06:19Z</time>
      </trkpt>
      <trkpt lat="44.14697" lon="0.5449">
        <ele>155.390259</ele>
        <time>2010-05-09T09:06:29Z</time>
      </trkpt>
      <trkpt lat="44.14744" lon="0.5453">
        <ele>150.583618</ele>
        <time>2010-05-09T09:06:36Z</time>
      </trkpt>
      <trkpt lat="44.14769" lon="0.54549">
        <ele>149.141602</ele>
        <time>2010-05-09T09:06:41Z</time>
      </trkpt>
      <trkpt lat="44.14799" lon="0.54563">
        <ele>140.970459</ele>
        <time>2010-05-09T09:06:53Z</time>
      </trkpt>
      <trkpt lat="44.14826" lon="0.54577">
        <ele>136.644653</ele>
        <time>2010-05-09T09:07:00Z</time>
      </trkpt>
      <trkpt lat="44.14847" lon="0.54587">
        <ele>134.721924</ele>
        <time>2010-05-09T09:07:04Z</time>
      </trkpt>
      <trkpt lat="44.14894" lon="0.54621">
        <ele>127.992554</ele>
        <time>2010-05-09T09:07:14Z</time>
      </trkpt>
      <trkpt lat="44.14935" lon="0.54681">
        <ele>122.705444</ele>
        <time>2010-05-09T09:07:27Z</time>
      </trkpt>
      <trkpt lat="44.14955" lon="0.54713">
        <ele>117.898804</ele>
        <time>2010-05-09T09:07:36Z</time>
      </trkpt>
      <trkpt lat="44.14958" lon="0.54761">
        <ele>117.898804</ele>
        <time>2010-05-09T09:07:48Z</time>
      </trkpt>
      <trkpt lat="44.14955" lon="0.54811">
        <ele>117.418213</ele>
        <time>2010-05-09T09:08:00Z</time>
      </trkpt>
      <trkpt lat="44.14953" lon="0.54831">
        <ele>117.898804</ele>
        <time>2010-05-09T09:08:04Z</time>
      </trkpt>
      <trkpt lat="44.14954" lon="0.54873">
        <ele>116.9375</ele>
        <time>2010-05-09T09:08:10Z</time>
      </trkpt>
      <trkpt lat="44.1495" lon="0.54916">
        <ele>116.9375</ele>
        <time>2010-05-09T09:08:16Z</time>
      </trkpt>
      <trkpt lat="44.14944" lon="0.54975">
        <ele>118.860107</ele>
        <time>2010-05-09T09:08:29Z</time>
      </trkpt>
      <trkpt lat="44.14951" lon="0.55034">
        <ele>117.418213</ele>
        <time>2010-05-09T09:08:41Z</time>
      </trkpt>
      <trkpt lat="44.14942" lon="0.55125">
        <ele>113.572998</ele>
        <time>2010-05-09T09:08:54Z</time>
      </trkpt>
      <trkpt lat="44.14943" lon="0.55245">
        <ele>104.44043</ele>
        <time>2010-05-09T09:09:05Z</time>
      </trkpt>
      <trkpt lat="44.14947" lon="0.55327">
        <ele>98.672485</ele>
        <time>2010-05-09T09:09:11Z</time>
      </trkpt>
      <trkpt lat="44.14935" lon="0.55384">
        <ele>95.307739</ele>
        <time>2010-05-09T09:09:16Z</time>
      </trkpt>
      <trkpt lat="44.14917" lon="0.55423">
        <ele>93.865845</ele>
        <time>2010-05-09T09:09:20Z</time>
      </trkpt>
      <trkpt lat="44.14903" lon="0.55472">
        <ele>90.501343</ele>
        <time>2010-05-09T09:09:27Z</time>
      </trkpt>
      <trkpt lat="44.14916" lon="0.55501">
        <ele>87.617188</ele>
        <time>2010-05-09T09:09:31Z</time>
      </trkpt>
      <trkpt lat="44.14925" lon="0.55515">
        <ele>86.656006</ele>
        <time>2010-05-09T09:09:34Z</time>
      </trkpt>
      <trkpt lat="44.14934" lon="0.55539">
        <ele>85.213989</ele>
        <time>2010-05-09T09:09:38Z</time>
      </trkpt>
      <trkpt lat="44.1494" lon="0.55551">
        <ele>84.252686</ele>
        <time>2010-05-09T09:09:40Z</time>
      </trkpt>
      <trkpt lat="44.1495" lon="0.55583">
        <ele>82.810791</ele>
        <time>2010-05-09T09:09:46Z</time>
      </trkpt>
      <trkpt lat="44.14962" lon="0.55649">
        <ele>80.888184</ele>
        <time>2010-05-09T09:09:58Z</time>
      </trkpt>
      <trkpt lat="44.14967" lon="0.55661">
        <ele>79.446045</ele>
        <time>2010-05-09T09:10:04Z</time>
      </trkpt>
      <trkpt lat="44.1497" lon="0.55669">
        <ele>78.965454</ele>
        <time>2010-05-09T09:10:07Z</time>
      </trkpt>
      <trkpt lat="44.14971" lon="0.55674">
        <ele>78.965454</ele>
        <time>2010-05-09T09:10:09Z</time>
      </trkpt>
      <trkpt lat="44.14974" lon="0.55682">
        <ele>78.965454</ele>
        <time>2010-05-09T09:10:13Z</time>
      </trkpt>
      <trkpt lat="44.14993" lon="0.55701">
        <ele>79.446045</ele>
        <time>2010-05-09T09:10:24Z</time>
      </trkpt>
      <trkpt lat="44.15005" lon="0.55723">
        <ele>78.484741</ele>
        <time>2010-05-09T09:10:31Z</time>
      </trkpt>
      <trkpt lat="44.15019" lon="0.55759">
        <ele>79.926636</ele>
        <time>2010-05-09T09:10:43Z</time>
      </trkpt>
      <trkpt lat="44.1502" lon="0.55762">
        <ele>80.407471</ele>
        <time>2010-05-09T09:10:44Z</time>
      </trkpt>
      <trkpt lat="44.15012" lon="0.55775">
        <ele>80.407471</ele>
        <time>2010-05-09T09:10:52Z</time>
      </trkpt>
      <trkpt lat="44.14979" lon="0.55799">
        <ele>78.004028</ele>
        <time>2010-05-09T09:11:06Z</time>
      </trkpt>
      <trkpt lat="44.14964" lon="0.55812">
        <ele>75.120239</ele>
        <time>2010-05-09T09:11:13Z</time>
      </trkpt>
      <trkpt lat="44.14949" lon="0.55833">
        <ele>74.639526</ele>
        <time>2010-05-09T09:11:23Z</time>
      </trkpt>
      <trkpt lat="44.14934" lon="0.55845">
        <ele>75.120239</ele>
        <time>2010-05-09T09:11:33Z</time>
      </trkpt>
      <trkpt lat="44.14922" lon="0.55857">
        <ele>78.484741</ele>
        <time>2010-05-09T09:11:42Z</time>
      </trkpt>
      <trkpt lat="44.14906" lon="0.55873">
        <ele>82.810791</ele>
        <time>2010-05-09T09:11:54Z</time>
      </trkpt>
      <trkpt lat="44.14895" lon="0.55882">
        <ele>84.252686</ele>
        <time>2010-05-09T09:12:01Z</time>
      </trkpt>
      <trkpt lat="44.14885" lon="0.55891">
        <ele>85.213989</ele>
        <time>2010-05-09T09:12:08Z</time>
      </trkpt>
      <trkpt lat="44.14875" lon="0.55901">
        <ele>84.733398</ele>
        <time>2010-05-09T09:12:16Z</time>
      </trkpt>
      <trkpt lat="44.14871" lon="0.55905">
        <ele>85.213989</ele>
        <time>2010-05-09T09:12:23Z</time>
      </trkpt>
      <trkpt lat="44.14861" lon="0.55926">
        <ele>87.617188</ele>
        <time>2010-05-09T09:12:39Z</time>
      </trkpt>
      <trkpt lat="44.14859" lon="0.5593">
        <ele>88.578735</ele>
        <time>2010-05-09T09:12:45Z</time>
      </trkpt>
      <trkpt lat="44.14856" lon="0.55937">
        <ele>88.578735</ele>
        <time>2010-05-09T09:12:49Z</time>
      </trkpt>
      <trkpt lat="44.14854" lon="0.5594">
        <ele>88.578735</ele>
        <time>2010-05-09T09:12:51Z</time>
      </trkpt>
      <trkpt lat="44.1484" lon="0.55959">
        <ele>87.136597</ele>
        <time>2010-05-09T09:13:06Z</time>
      </trkpt>
      <trkpt lat="44.14833" lon="0.55962">
        <ele>87.136597</ele>
        <time>2010-05-09T09:13:11Z</time>
      </trkpt>
      <trkpt lat="44.14828" lon="0.55967">
        <ele>87.136597</ele>
        <time>2010-05-09T09:13:15Z</time>
      </trkpt>
      <trkpt lat="44.14802" lon="0.55969">
        <ele>85.69458</ele>
        <time>2010-05-09T09:13:26Z</time>
      </trkpt>
      <trkpt lat="44.14799" lon="0.5597">
        <ele>85.213989</ele>
        <time>2010-05-09T09:13:27Z</time>
      </trkpt>
      <trkpt lat="44.14784" lon="0.55964">
        <ele>83.771973</ele>
        <time>2010-05-09T09:13:31Z</time>
      </trkpt>
      <trkpt lat="44.14762" lon="0.55948">
        <ele>81.849365</ele>
        <time>2010-05-09T09:13:36Z</time>
      </trkpt>
      <trkpt lat="44.14737" lon="0.55954">
        <ele>82.810791</ele>
        <time>2010-05-09T09:13:46Z</time>
      </trkpt>
      <trkpt lat="44.14702" lon="0.55956">
        <ele>83.291382</ele>
        <time>2010-05-09T09:13:59Z</time>
      </trkpt>
      <trkpt lat="44.14671" lon="0.55956">
        <ele>83.771973</ele>
        <time>2010-05-09T09:14:12Z</time>
      </trkpt>
      <trkpt lat="44.14647" lon="0.55956">
        <ele>86.656006</ele>
        <time>2010-05-09T09:14:25Z</time>
      </trkpt>
      <trkpt lat="44.14636" lon="0.55958">
        <ele>88.098022</ele>
        <time>2010-05-09T09:14:31Z</time>
      </trkpt>
      <trkpt lat="44.14626" lon="0.55961">
        <ele>88.578735</ele>
        <time>2010-05-09T09:14:36Z</time>
      </trkpt>
      <trkpt lat="44.146" lon="0.55973">
        <ele>90.02063</ele>
        <time>2010-05-09T09:14:50Z</time>
      </trkpt>
      <trkpt lat="44.14569" lon="0.55989">
        <ele>90.981934</ele>
        <time>2010-05-09T09:15:06Z</time>
      </trkpt>
      <trkpt lat="44.14548" lon="0.55995">
        <ele>92.904541</ele>
        <time>2010-05-09T09:15:21Z</time>
      </trkpt>
      <trkpt lat="44.14541" lon="0.55997">
        <ele>93.865845</ele>
        <time>2010-05-09T09:15:28Z</time>
      </trkpt>
      <trkpt lat="44.14529" lon="0.56001">
        <ele>95.307739</ele>
        <time>2010-05-09T09:15:39Z</time>
      </trkpt>
      <trkpt lat="44.14519" lon="0.56008">
        <ele>95.307739</ele>
        <time>2010-05-09T09:15:49Z</time>
      </trkpt>
      <trkpt lat="44.14506" lon="0.56018">
        <ele>93.385132</ele>
        <time>2010-05-09T09:16:01Z</time>
      </trkpt>
      <trkpt lat="44.14489" lon="0.56034">
        <ele>92.904541</ele>
        <time>2010-05-09T09:16:13Z</time>
      </trkpt>
      <trkpt lat="44.14481" lon="0.56042">
        <ele>91.943237</ele>
        <time>2010-05-09T09:16:16Z</time>
      </trkpt>
      <trkpt lat="44.14444" lon="0.56081">
        <ele>87.617188</ele>
        <time>2010-05-09T09:16:27Z</time>
      </trkpt>
      <trkpt lat="44.14445" lon="0.56092">
        <ele>88.098022</ele>
        <time>2010-05-09T09:16:33Z</time>
      </trkpt>
      <trkpt lat="44.14447" lon="0.56093">
        <ele>88.098022</ele>
        <time>2010-05-09T09:16:35Z</time>
      </trkpt>
      <trkpt lat="44.14457" lon="0.56101">
        <ele>90.02063</ele>
        <time>2010-05-09T09:16:45Z</time>
      </trkpt>
      <trkpt lat="44.14473" lon="0.56104">
        <ele>95.307739</ele>
        <time>2010-05-09T09:16:59Z</time>
      </trkpt>
      <trkpt lat="44.14474" lon="0.56104">
        <ele>96.749878</ele>
        <time>2010-05-09T09:17:08Z</time>
      </trkpt>
      <trkpt lat="44.14483" lon="0.56104">
        <ele>97.711182</ele>
        <time>2010-05-09T09:17:20Z</time>
      </trkpt>
      <trkpt lat="44.14488" lon="0.56103">
        <ele>98.191895</ele>
        <time>2010-05-09T09:17:28Z</time>
      </trkpt>
      <trkpt lat="44.14496" lon="0.56103">
        <ele>99.153076</ele>
        <time>2010-05-09T09:17:34Z</time>
      </trkpt>
      <trkpt lat="44.14512" lon="0.56103">
        <ele>101.556396</ele>
        <time>2010-05-09T09:17:47Z</time>
      </trkpt>
      <trkpt lat="44.14529" lon="0.56104">
        <ele>102.998291</ele>
        <time>2010-05-09T09:18:00Z</time>
      </trkpt>
      <trkpt lat="44.1453" lon="0.56104">
        <ele>102.998291</ele>
        <time>2010-05-09T09:18:01Z</time>
      </trkpt>
      <trkpt lat="44.14544" lon="0.56109">
        <ele>103.479004</ele>
        <time>2010-05-09T09:18:13Z</time>
      </trkpt>
      <trkpt lat="44.14553" lon="0.56115">
        <ele>104.921021</ele>
        <time>2010-05-09T09:18:21Z</time>
      </trkpt>
      <trkpt lat="44.14567" lon="0.56131">
        <ele>107.324341</ele>
        <time>2010-05-09T09:18:37Z</time>
      </trkpt>
      <trkpt lat="44.14576" lon="0.56142">
        <ele>108.285645</ele>
        <time>2010-05-09T09:18:48Z</time>
      </trkpt>
      <trkpt lat="44.14584" lon="0.5615">
        <ele>108.766235</ele>
        <time>2010-05-09T09:18:55Z</time>
      </trkpt>
      <trkpt lat="44.14602" lon="0.56164">
        <ele>110.688843</ele>
        <time>2010-05-09T09:19:11Z</time>
      </trkpt>
      <trkpt lat="44.14618" lon="0.56182">
        <ele>113.092285</ele>
        <time>2010-05-09T09:19:28Z</time>
      </trkpt>
      <trkpt lat="44.14626" lon="0.56191">
        <ele>113.572998</ele>
        <time>2010-05-09T09:19:36Z</time>
      </trkpt>
      <trkpt lat="44.1464" lon="0.56207">
        <ele>115.014893</ele>
        <time>2010-05-09T09:19:51Z</time>
      </trkpt>
      <trkpt lat="44.14649" lon="0.56217">
        <ele>116.456787</ele>
        <time>2010-05-09T09:20:01Z</time>
      </trkpt>
      <trkpt lat="44.14651" lon="0.56221">
        <ele>116.9375</ele>
        <time>2010-05-09T09:20:05Z</time>
      </trkpt>
      <trkpt lat="44.14664" lon="0.56233">
        <ele>117.418213</ele>
        <time>2010-05-09T09:20:20Z</time>
      </trkpt>
      <trkpt lat="44.14671" lon="0.56242">
        <ele>117.898804</ele>
        <time>2010-05-09T09:20:30Z</time>
      </trkpt>
      <trkpt lat="44.14675" lon="0.56248">
        <ele>118.860107</ele>
        <time>2010-05-09T09:20:36Z</time>
      </trkpt>
      <trkpt lat="44.14686" lon="0.56264">
        <ele>121.744141</ele>
        <time>2010-05-09T09:20:52Z</time>
      </trkpt>
      <trkpt lat="44.14689" lon="0.56271">
        <ele>122.705444</ele>
        <time>2010-05-09T09:21:01Z</time>
      </trkpt>
      <trkpt lat="44.14691" lon="0.56279">
        <ele>122.705444</ele>
        <time>2010-05-09T09:21:12Z</time>
      </trkpt>
      <trkpt lat="44.147" lon="0.56291">
        <ele>123.666748</ele>
        <time>2010-05-09T09:21:26Z</time>
      </trkpt>
      <trkpt lat="44.14704" lon="0.563">
        <ele>126.069946</ele>
        <time>2010-05-09T09:21:38Z</time>
      </trkpt>
      <trkpt lat="44.14708" lon="0.56307">
        <ele>128.473389</ele>
        <time>2010-05-09T09:21:48Z</time>
      </trkpt>
      <trkpt lat="44.14712" lon="0.56316">
        <ele>129.915283</ele>
        <time>2010-05-09T09:22:01Z</time>
      </trkpt>
      <trkpt lat="44.14712" lon="0.56321">
        <ele>130.876709</ele>
        <time>2010-05-09T09:22:15Z</time>
      </trkpt>
      <trkpt lat="44.14712" lon="0.56323">
        <ele>130.395996</ele>
        <time>2010-05-09T09:22:27Z</time>
      </trkpt>
      <trkpt lat="44.14729" lon="0.56336">
        <ele>130.876709</ele>
        <time>2010-05-09T09:22:37Z</time>
      </trkpt>
      <trkpt lat="44.14733" lon="0.5634">
        <ele>131.3573</ele>
        <time>2010-05-09T09:22:40Z</time>
      </trkpt>
      <trkpt lat="44.14752" lon="0.5636">
        <ele>133.760498</ele>
        <time>2010-05-09T09:22:56Z</time>
      </trkpt>
      <trkpt lat="44.14763" lon="0.56371">
        <ele>136.16394</ele>
        <time>2010-05-09T09:23:08Z</time>
      </trkpt>
      <trkpt lat="44.14775" lon="0.56386">
        <ele>138.086548</ele>
        <time>2010-05-09T09:23:22Z</time>
      </trkpt>
      <trkpt lat="44.14786" lon="0.56395">
        <ele>141.45105</ele>
        <time>2010-05-09T09:23:36Z</time>
      </trkpt>
      <trkpt lat="44.14796" lon="0.56396">
        <ele>145.7771</ele>
        <time>2010-05-09T09:23:47Z</time>
      </trkpt>
      <trkpt lat="44.148" lon="0.56394">
        <ele>148.18042</ele>
        <time>2010-05-09T09:23:52Z</time>
      </trkpt>
      <trkpt lat="44.1481" lon="0.56391">
        <ele>151.544922</ele>
        <time>2010-05-09T09:24:03Z</time>
      </trkpt>
      <trkpt lat="44.14811" lon="0.56391">
        <ele>151.544922</ele>
        <time>2010-05-09T09:24:04Z</time>
      </trkpt>
      <trkpt lat="44.14825" lon="0.56391">
        <ele>153.467651</ele>
        <time>2010-05-09T09:24:16Z</time>
      </trkpt>
      <trkpt lat="44.1483" lon="0.56391">
        <ele>154.428955</ele>
        <time>2010-05-09T09:24:20Z</time>
      </trkpt>
      <trkpt lat="44.14843" lon="0.56398">
        <ele>155.390259</ele>
        <time>2010-05-09T09:24:33Z</time>
      </trkpt>
      <trkpt lat="44.14856" lon="0.56403">
        <ele>156.832153</ele>
        <time>2010-05-09T09:24:46Z</time>
      </trkpt>
      <trkpt lat="44.14865" lon="0.56408">
        <ele>158.27417</ele>
        <time>2010-05-09T09:24:55Z</time>
      </trkpt>
      <trkpt lat="44.14877" lon="0.56416">
        <ele>159.716187</ele>
        <time>2010-05-09T09:25:08Z</time>
      </trkpt>
      <trkpt lat="44.14891" lon="0.5643">
        <ele>159.235474</ele>
        <time>2010-05-09T09:25:22Z</time>
      </trkpt>
      <trkpt lat="44.14895" lon="0.56449">
        <ele>159.235474</ele>
        <time>2010-05-09T09:25:31Z</time>
      </trkpt>
      <trkpt lat="44.14897" lon="0.56462">
        <ele>160.67749</ele>
        <time>2010-05-09T09:25:38Z</time>
      </trkpt>
      <trkpt lat="44.14898" lon="0.56476">
        <ele>161.158203</ele>
        <time>2010-05-09T09:25:50Z</time>
      </trkpt>
      <trkpt lat="44.14907" lon="0.56479">
        <ele>161.158203</ele>
        <time>2010-05-09T09:25:56Z</time>
      </trkpt>
      <trkpt lat="44.14932" lon="0.56483">
        <ele>161.638916</ele>
        <time>2010-05-09T09:26:07Z</time>
      </trkpt>
      <trkpt lat="44.14963" lon="0.56487">
        <ele>163.080811</ele>
        <time>2010-05-09T09:26:19Z</time>
      </trkpt>
      <trkpt lat="44.15008" lon="0.56493">
        <ele>164.042114</ele>
        <time>2010-05-09T09:26:32Z</time>
      </trkpt>
      <trkpt lat="44.15053" lon="0.56515">
        <ele>162.600098</ele>
        <time>2010-05-09T09:26:45Z</time>
      </trkpt>
      <trkpt lat="44.15099" lon="0.56541">
        <ele>162.600098</ele>
        <time>2010-05-09T09:26:59Z</time>
      </trkpt>
      <trkpt lat="44.15135" lon="0.56554">
        <ele>161.638916</ele>
        <time>2010-05-09T09:27:10Z</time>
      </trkpt>
      <trkpt lat="44.15146" lon="0.5659">
        <ele>160.196899</ele>
        <time>2010-05-09T09:27:19Z</time>
      </trkpt>
      <trkpt lat="44.15145" lon="0.56603">
        <ele>159.716187</ele>
        <time>2010-05-09T09:27:21Z</time>
      </trkpt>
      <trkpt lat="44.15139" lon="0.5663">
        <ele>158.754761</ele>
        <time>2010-05-09T09:27:25Z</time>
      </trkpt>
      <trkpt lat="44.15136" lon="0.56654">
        <ele>157.312866</ele>
        <time>2010-05-09T09:27:28Z</time>
      </trkpt>
      <trkpt lat="44.15133" lon="0.56676">
        <ele>155.870972</ele>
        <time>2010-05-09T09:27:31Z</time>
      </trkpt>
      <trkpt lat="44.15131" lon="0.56716">
        <ele>152.025757</ele>
        <time>2010-05-09T09:27:37Z</time>
      </trkpt>
      <trkpt lat="44.15138" lon="0.56768">
        <ele>143.85437</ele>
        <time>2010-05-09T09:27:46Z</time>
      </trkpt>
      <trkpt lat="44.15142" lon="0.56783">
        <ele>141.931763</ele>
        <time>2010-05-09T09:27:49Z</time>
      </trkpt>
      <trkpt lat="44.15165" lon="0.56844">
        <ele>139.047852</ele>
        <time>2010-05-09T09:27:59Z</time>
      </trkpt>
      <trkpt lat="44.15186" lon="0.56876">
        <ele>137.125244</ele>
        <time>2010-05-09T09:28:05Z</time>
      </trkpt>
      <trkpt lat="44.15197" lon="0.56888">
        <ele>136.644653</ele>
        <time>2010-05-09T09:28:08Z</time>
      </trkpt>
      <trkpt lat="44.1521" lon="0.56902">
        <ele>135.683105</ele>
        <time>2010-05-09T09:28:12Z</time>
      </trkpt>
      <trkpt lat="44.15241" lon="0.5694">
        <ele>132.318604</ele>
        <time>2010-05-09T09:28:24Z</time>
      </trkpt>
      <trkpt lat="44.15272" lon="0.56985">
        <ele>130.876709</ele>
        <time>2010-05-09T09:28:38Z</time>
      </trkpt>
      <trkpt lat="44.15279" lon="0.56995">
        <ele>131.3573</ele>
        <time>2010-05-09T09:28:41Z</time>
      </trkpt>
      <trkpt lat="44.15297" lon="0.57009">
        <ele>131.3573</ele>
        <time>2010-05-09T09:28:49Z</time>
      </trkpt>
      <trkpt lat="44.15331" lon="0.57024">
        <ele>130.395996</ele>
        <time>2010-05-09T09:28:59Z</time>
      </trkpt>
      <trkpt lat="44.15351" lon="0.57033">
        <ele>130.395996</ele>
        <time>2010-05-09T09:29:04Z</time>
      </trkpt>
      <trkpt lat="44.15384" lon="0.57064">
        <ele>129.434692</ele>
        <time>2010-05-09T09:29:13Z</time>
      </trkpt>
      <trkpt lat="44.15391" lon="0.57073">
        <ele>128.473389</ele>
        <time>2010-05-09T09:29:15Z</time>
      </trkpt>
      <trkpt lat="44.15461" lon="0.57134">
        <ele>123.666748</ele>
        <time>2010-05-09T09:29:28Z</time>
      </trkpt>
      <trkpt lat="44.15527" lon="0.57241">
        <ele>117.898804</ele>
        <time>2010-05-09T09:29:40Z</time>
      </trkpt>
      <trkpt lat="44.15542" lon="0.57264">
        <ele>116.456787</ele>
        <time>2010-05-09T09:29:43Z</time>
      </trkpt>
      <trkpt lat="44.15613" lon="0.5732">
        <ele>107.805054</ele>
        <time>2010-05-09T09:29:52Z</time>
      </trkpt>
      <trkpt lat="44.15629" lon="0.57334">
        <ele>105.401733</ele>
        <time>2010-05-09T09:29:54Z</time>
      </trkpt>
      <trkpt lat="44.15664" lon="0.57407">
        <ele>97.711182</ele>
        <time>2010-05-09T09:30:01Z</time>
      </trkpt>
      <trkpt lat="44.15688" lon="0.57455">
        <ele>92.904541</ele>
        <time>2010-05-09T09:30:11Z</time>
      </trkpt>
      <trkpt lat="44.15703" lon="0.57487">
        <ele>90.02063</ele>
        <time>2010-05-09T09:30:22Z</time>
      </trkpt>
      <trkpt lat="44.15707" lon="0.57495">
        <ele>88.578735</ele>
        <time>2010-05-09T09:30:25Z</time>
      </trkpt>
      <trkpt lat="44.15715" lon="0.5751">
        <ele>86.656006</ele>
        <time>2010-05-09T09:30:32Z</time>
      </trkpt>
      <trkpt lat="44.15729" lon="0.57546">
        <ele>84.252686</ele>
        <time>2010-05-09T09:30:43Z</time>
      </trkpt>
      <trkpt lat="44.15749" lon="0.5759">
        <ele>81.849365</ele>
        <time>2010-05-09T09:30:54Z</time>
      </trkpt>
      <trkpt lat="44.15772" lon="0.57639">
        <ele>80.888184</ele>
        <time>2010-05-09T09:31:06Z</time>
      </trkpt>
      <trkpt lat="44.15783" lon="0.57667">
        <ele>79.926636</ele>
        <time>2010-05-09T09:31:13Z</time>
      </trkpt>
      <trkpt lat="44.15789" lon="0.57668">
        <ele>78.484741</ele>
        <time>2010-05-09T09:31:17Z</time>
      </trkpt>
      <trkpt lat="44.15808" lon="0.57678">
        <ele>73.197632</ele>
        <time>2010-05-09T09:31:26Z</time>
      </trkpt>
      <trkpt lat="44.15816" lon="0.57682">
        <ele>71.274902</ele>
        <time>2010-05-09T09:31:29Z</time>
      </trkpt>
      <trkpt lat="44.15843" lon="0.57696">
        <ele>64.545654</ele>
        <time>2010-05-09T09:31:39Z</time>
      </trkpt>
      <trkpt lat="44.15851" lon="0.57701">
        <ele>62.622925</ele>
        <time>2010-05-09T09:31:43Z</time>
      </trkpt>
      <trkpt lat="44.15858" lon="0.57708">
        <ele>61.661743</ele>
        <time>2010-05-09T09:31:46Z</time>
      </trkpt>
      <trkpt lat="44.15879" lon="0.57723">
        <ele>60.700317</ele>
        <time>2010-05-09T09:31:54Z</time>
      </trkpt>
      <trkpt lat="44.15907" lon="0.5774">
        <ele>57.816528</ele>
        <time>2010-05-09T09:32:05Z</time>
      </trkpt>
      <trkpt lat="44.15936" lon="0.57752">
        <ele>60.219727</ele>
        <time>2010-05-09T09:32:13Z</time>
      </trkpt>
      <trkpt lat="44.15976" lon="0.57768">
        <ele>61.661743</ele>
        <time>2010-05-09T09:32:23Z</time>
      </trkpt>
      <trkpt lat="44.15994" lon="0.57779">
        <ele>61.18103</ele>
        <time>2010-05-09T09:32:28Z</time>
      </trkpt>
      <trkpt lat="44.16009" lon="0.57783">
        <ele>62.142334</ele>
        <time>2010-05-09T09:32:31Z</time>
      </trkpt>
      <trkpt lat="44.16033" lon="0.57791">
        <ele>63.584351</ele>
        <time>2010-05-09T09:32:36Z</time>
      </trkpt>
      <trkpt lat="44.16067" lon="0.57811">
        <ele>62.622925</ele>
        <time>2010-05-09T09:32:43Z</time>
      </trkpt>
      <trkpt lat="44.16101" lon="0.57829">
        <ele>63.103638</ele>
        <time>2010-05-09T09:32:50Z</time>
      </trkpt>
      <trkpt lat="44.16151" lon="0.57861">
        <ele>63.103638</ele>
        <time>2010-05-09T09:33:02Z</time>
      </trkpt>
      <trkpt lat="44.16182" lon="0.57881">
        <ele>65.026367</ele>
        <time>2010-05-09T09:33:11Z</time>
      </trkpt>
      <trkpt lat="44.16204" lon="0.57836">
        <ele>65.026367</ele>
        <time>2010-05-09T09:33:22Z</time>
      </trkpt>
      <trkpt lat="44.16226" lon="0.57781">
        <ele>68.390869</ele>
        <time>2010-05-09T09:33:34Z</time>
      </trkpt>
      <trkpt lat="44.16229" lon="0.57779">
        <ele>68.871582</ele>
        <time>2010-05-09T09:33:35Z</time>
      </trkpt>
      <trkpt lat="44.16243" lon="0.57783">
        <ele>70.313477</ele>
        <time>2010-05-09T09:33:39Z</time>
      </trkpt>
      <trkpt lat="44.16309" lon="0.57849">
        <ele>70.794189</ele>
        <time>2010-05-09T09:33:57Z</time>
      </trkpt>
      <trkpt lat="44.16315" lon="0.57856">
        <ele>70.313477</ele>
        <time>2010-05-09T09:33:59Z</time>
      </trkpt>
      <trkpt lat="44.16323" lon="0.57884">
        <ele>70.313477</ele>
        <time>2010-05-09T09:34:04Z</time>
      </trkpt>
      <trkpt lat="44.16306" lon="0.57944">
        <ele>69.832886</ele>
        <time>2010-05-09T09:34:13Z</time>
      </trkpt>
      <trkpt lat="44.16296" lon="0.57963">
        <ele>70.794189</ele>
        <time>2010-05-09T09:34:17Z</time>
      </trkpt>
      <trkpt lat="44.16283" lon="0.58026">
        <ele>73.197632</ele>
        <time>2010-05-09T09:34:30Z</time>
      </trkpt>
      <trkpt lat="44.1627" lon="0.58094">
        <ele>75.120239</ele>
        <time>2010-05-09T09:34:46Z</time>
      </trkpt>
      <trkpt lat="44.16263" lon="0.58142">
        <ele>76.562134</ele>
        <time>2010-05-09T09:35:02Z</time>
      </trkpt>
      <trkpt lat="44.16257" lon="0.58165">
        <ele>80.407471</ele>
        <time>2010-05-09T09:35:11Z</time>
      </trkpt>
      <trkpt lat="44.16259" lon="0.58202">
        <ele>83.291382</ele>
        <time>2010-05-09T09:35:23Z</time>
      </trkpt>
      <trkpt lat="44.16258" lon="0.58251">
        <ele>81.849365</ele>
        <time>2010-05-09T09:35:36Z</time>
      </trkpt>
      <trkpt lat="44.16254" lon="0.583">
        <ele>80.407471</ele>
        <time>2010-05-09T09:35:49Z</time>
      </trkpt>
      <trkpt lat="44.1625" lon="0.58341">
        <ele>82.330078</ele>
        <time>2010-05-09T09:36:00Z</time>
      </trkpt>
      <trkpt lat="44.16249" lon="0.58362">
        <ele>84.252686</ele>
        <time>2010-05-09T09:36:07Z</time>
      </trkpt>
      <trkpt lat="44.16243" lon="0.58374">
        <ele>85.213989</ele>
        <time>2010-05-09T09:36:18Z</time>
      </trkpt>
      <trkpt lat="44.16237" lon="0.58378">
        <ele>86.175293</ele>
        <time>2010-05-09T09:36:30Z</time>
      </trkpt>
      <trkpt lat="44.16236" lon="0.58377">
        <ele>86.175293</ele>
        <time>2010-05-09T09:36:36Z</time>
      </trkpt>
      <trkpt lat="44.16233" lon="0.58385">
        <ele>87.136597</ele>
        <time>2010-05-09T09:36:40Z</time>
      </trkpt>
      <trkpt lat="44.16233" lon="0.58399">
        <ele>87.617188</ele>
        <time>2010-05-09T09:36:45Z</time>
      </trkpt>
      <trkpt lat="44.16233" lon="0.58412">
        <ele>87.617188</ele>
        <time>2010-05-09T09:36:49Z</time>
      </trkpt>
      <trkpt lat="44.16227" lon="0.58441">
        <ele>86.175293</ele>
        <time>2010-05-09T09:37:00Z</time>
      </trkpt>
      <trkpt lat="44.16228" lon="0.58459">
        <ele>84.252686</ele>
        <time>2010-05-09T09:37:06Z</time>
      </trkpt>
      <trkpt lat="44.16226" lon="0.58474">
        <ele>82.810791</ele>
        <time>2010-05-09T09:37:10Z</time>
      </trkpt>
      <trkpt lat="44.16223" lon="0.58509">
        <ele>79.446045</ele>
        <time>2010-05-09T09:37:19Z</time>
      </trkpt>
      <trkpt lat="44.16222" lon="0.58513">
        <ele>79.446045</ele>
        <time>2010-05-09T09:37:20Z</time>
      </trkpt>
      <trkpt lat="44.16216" lon="0.58567">
        <ele>81.849365</ele>
        <time>2010-05-09T09:37:33Z</time>
      </trkpt>
      <trkpt lat="44.16215" lon="0.58613">
        <ele>81.368774</ele>
        <time>2010-05-09T09:37:43Z</time>
      </trkpt>
      <trkpt lat="44.16213" lon="0.58632">
        <ele>81.849365</ele>
        <time>2010-05-09T09:37:47Z</time>
      </trkpt>
      <trkpt lat="44.16213" lon="0.58649">
        <ele>81.368774</ele>
        <time>2010-05-09T09:37:51Z</time>
      </trkpt>
      <trkpt lat="44.16209" lon="0.58698">
        <ele>78.004028</ele>
        <time>2010-05-09T09:38:02Z</time>
      </trkpt>
      <trkpt lat="44.16209" lon="0.58711">
        <ele>76.562134</ele>
        <time>2010-05-09T09:38:05Z</time>
      </trkpt>
      <trkpt lat="44.16201" lon="0.58756">
        <ele>77.042847</ele>
        <time>2010-05-09T09:38:15Z</time>
      </trkpt>
      <trkpt lat="44.162" lon="0.58806">
        <ele>78.004028</ele>
        <time>2010-05-09T09:38:25Z</time>
      </trkpt>
      <trkpt lat="44.16196" lon="0.58858">
        <ele>81.368774</ele>
        <time>2010-05-09T09:38:38Z</time>
      </trkpt>
      <trkpt lat="44.16193" lon="0.58899">
        <ele>86.656006</ele>
        <time>2010-05-09T09:38:52Z</time>
      </trkpt>
      <trkpt lat="44.16191" lon="0.58943">
        <ele>89.539917</ele>
        <time>2010-05-09T09:39:05Z</time>
      </trkpt>
      <trkpt lat="44.1619" lon="0.5898">
        <ele>88.578735</ele>
        <time>2010-05-09T09:39:14Z</time>
      </trkpt>
      <trkpt lat="44.16189" lon="0.59026">
        <ele>84.252686</ele>
        <time>2010-05-09T09:39:25Z</time>
      </trkpt>
      <trkpt lat="44.16189" lon="0.59046">
        <ele>83.291382</ele>
        <time>2010-05-09T09:39:28Z</time>
      </trkpt>
      <trkpt lat="44.16184" lon="0.59092">
        <ele>82.810791</ele>
        <time>2010-05-09T09:39:38Z</time>
      </trkpt>
      <trkpt lat="44.16187" lon="0.59143">
        <ele>86.175293</ele>
        <time>2010-05-09T09:39:53Z</time>
      </trkpt>
      <trkpt lat="44.16182" lon="0.59183">
        <ele>87.136597</ele>
        <time>2010-05-09T09:40:02Z</time>
      </trkpt>
      <trkpt lat="44.16181" lon="0.59197">
        <ele>88.098022</ele>
        <time>2010-05-09T09:40:06Z</time>
      </trkpt>
      <trkpt lat="44.16175" lon="0.59243">
        <ele>90.02063</ele>
        <time>2010-05-09T09:40:21Z</time>
      </trkpt>
      <trkpt lat="44.16171" lon="0.59298">
        <ele>91.462524</ele>
        <time>2010-05-09T09:40:34Z</time>
      </trkpt>
      <trkpt lat="44.16165" lon="0.59358">
        <ele>92.42395</ele>
        <time>2010-05-09T09:40:45Z</time>
      </trkpt>
      <trkpt lat="44.16162" lon="0.59376">
        <ele>91.943237</ele>
        <time>2010-05-09T09:40:48Z</time>
      </trkpt>
      <trkpt lat="44.16157" lon="0.59408">
        <ele>90.501343</ele>
        <time>2010-05-09T09:40:53Z</time>
      </trkpt>
      <trkpt lat="44.16148" lon="0.59477">
        <ele>87.617188</ele>
        <time>2010-05-09T09:41:04Z</time>
      </trkpt>
      <trkpt lat="44.16189" lon="0.59505">
        <ele>86.175293</ele>
        <time>2010-05-09T09:41:15Z</time>
      </trkpt>
      <trkpt lat="44.16194" lon="0.59508">
        <ele>86.175293</ele>
        <time>2010-05-09T09:41:16Z</time>
      </trkpt>
      <trkpt lat="44.1621" lon="0.59519">
        <ele>85.213989</ele>
        <time>2010-05-09T09:41:19Z</time>
      </trkpt>
      <trkpt lat="44.16238" lon="0.59569">
        <ele>81.368774</ele>
        <time>2010-05-09T09:41:26Z</time>
      </trkpt>
      <trkpt lat="44.16303" lon="0.59602">
        <ele>74.158813</ele>
        <time>2010-05-09T09:41:35Z</time>
      </trkpt>
      <trkpt lat="44.16317" lon="0.59636">
        <ele>72.716919</ele>
        <time>2010-05-09T09:41:41Z</time>
      </trkpt>
      <trkpt lat="44.16306" lon="0.59703">
        <ele>75.120239</ele>
        <time>2010-05-09T09:41:54Z</time>
      </trkpt>
      <trkpt lat="44.16299" lon="0.59749">
        <ele>75.120239</ele>
        <time>2010-05-09T09:42:02Z</time>
      </trkpt>
      <trkpt lat="44.16297" lon="0.59761">
        <ele>75.120239</ele>
        <time>2010-05-09T09:42:04Z</time>
      </trkpt>
      <trkpt lat="44.16291" lon="0.59783">
        <ele>74.639526</ele>
        <time>2010-05-09T09:42:08Z</time>
      </trkpt>
      <trkpt lat="44.16274" lon="0.59848">
        <ele>74.158813</ele>
        <time>2010-05-09T09:42:19Z</time>
      </trkpt>
      <trkpt lat="44.1626" lon="0.59908">
        <ele>75.120239</ele>
        <time>2010-05-09T09:42:29Z</time>
      </trkpt>
      <trkpt lat="44.16253" lon="0.5993">
        <ele>75.120239</ele>
        <time>2010-05-09T09:42:33Z</time>
      </trkpt>
      <trkpt lat="44.16246" lon="0.59953">
        <ele>75.120239</ele>
        <time>2010-05-09T09:42:37Z</time>
      </trkpt>
      <trkpt lat="44.16215" lon="0.60024">
        <ele>74.639526</ele>
        <time>2010-05-09T09:42:52Z</time>
      </trkpt>
      <trkpt lat="44.16204" lon="0.60059">
        <ele>74.639526</ele>
        <time>2010-05-09T09:42:59Z</time>
      </trkpt>
      <trkpt lat="44.16194" lon="0.60089">
        <ele>74.158813</ele>
        <time>2010-05-09T09:43:04Z</time>
      </trkpt>
      <trkpt lat="44.16185" lon="0.6011">
        <ele>73.678223</ele>
        <time>2010-05-09T09:43:08Z</time>
      </trkpt>
      <trkpt lat="44.16171" lon="0.60133">
        <ele>70.313477</ele>
        <time>2010-05-09T09:43:13Z</time>
      </trkpt>
      <trkpt lat="44.16121" lon="0.60181">
        <ele>66.948975</ele>
        <time>2010-05-09T09:43:27Z</time>
      </trkpt>
      <trkpt lat="44.16115" lon="0.60191">
        <ele>66.468262</ele>
        <time>2010-05-09T09:43:29Z</time>
      </trkpt>
      <trkpt lat="44.16105" lon="0.60219">
        <ele>65.50708</ele>
        <time>2010-05-09T09:43:34Z</time>
      </trkpt>
      <trkpt lat="44.16102" lon="0.60238">
        <ele>64.545654</ele>
        <time>2010-05-09T09:43:37Z</time>
      </trkpt>
      <trkpt lat="44.16104" lon="0.60278">
        <ele>63.103638</ele>
        <time>2010-05-09T09:43:43Z</time>
      </trkpt>
      <trkpt lat="44.16106" lon="0.60291">
        <ele>61.661743</ele>
        <time>2010-05-09T09:43:45Z</time>
      </trkpt>
      <trkpt lat="44.16113" lon="0.6031">
        <ele>60.219727</ele>
        <time>2010-05-09T09:43:48Z</time>
      </trkpt>
      <trkpt lat="44.16172" lon="0.60393">
        <ele>55.413086</ele>
        <time>2010-05-09T09:44:04Z</time>
      </trkpt>
      <trkpt lat="44.16176" lon="0.60399">
        <ele>54.932373</ele>
        <time>2010-05-09T09:44:05Z</time>
      </trkpt>
      <trkpt lat="44.16187" lon="0.60426">
        <ele>54.932373</ele>
        <time>2010-05-09T09:44:09Z</time>
      </trkpt>
      <trkpt lat="44.16182" lon="0.60497">
        <ele>53.490479</ele>
        <time>2010-05-09T09:44:19Z</time>
      </trkpt>
      <trkpt lat="44.16175" lon="0.60507">
        <ele>53.971191</ele>
        <time>2010-05-09T09:44:21Z</time>
      </trkpt>
      <trkpt lat="44.16128" lon="0.60551">
        <ele>56.855103</ele>
        <time>2010-05-09T09:44:32Z</time>
      </trkpt>
      <trkpt lat="44.16116" lon="0.60562">
        <ele>57.335815</ele>
        <time>2010-05-09T09:44:35Z</time>
      </trkpt>
      <trkpt lat="44.16095" lon="0.60578">
        <ele>58.297119</ele>
        <time>2010-05-09T09:44:40Z</time>
      </trkpt>
      <trkpt lat="44.16064" lon="0.60603">
        <ele>57.335815</ele>
        <time>2010-05-09T09:44:48Z</time>
      </trkpt>
      <trkpt lat="44.1605" lon="0.60616">
        <ele>57.816528</ele>
        <time>2010-05-09T09:44:52Z</time>
      </trkpt>
      <trkpt lat="44.16035" lon="0.60665">
        <ele>56.374512</ele>
        <time>2010-05-09T09:45:00Z</time>
      </trkpt>
      <trkpt lat="44.16035" lon="0.60683">
        <ele>55.413086</ele>
        <time>2010-05-09T09:45:02Z</time>
      </trkpt>
      <trkpt lat="44.16039" lon="0.6073">
        <ele>53.490479</ele>
        <time>2010-05-09T09:45:07Z</time>
      </trkpt>
      <trkpt lat="44.16053" lon="0.60779">
        <ele>51.087158</ele>
        <time>2010-05-09T09:45:12Z</time>
      </trkpt>
      <trkpt lat="44.1607" lon="0.60815">
        <ele>49.164551</ele>
        <time>2010-05-09T09:45:16Z</time>
      </trkpt>
      <trkpt lat="44.16098" lon="0.60849">
        <ele>47.241821</ele>
        <time>2010-05-09T09:45:21Z</time>
      </trkpt>
      <trkpt lat="44.1612" lon="0.60867">
        <ele>47.241821</ele>
        <time>2010-05-09T09:45:25Z</time>
      </trkpt>
      <trkpt lat="44.16147" lon="0.60881">
        <ele>48.203369</ele>
        <time>2010-05-09T09:45:30Z</time>
      </trkpt>
      <trkpt lat="44.16163" lon="0.60886">
        <ele>49.645264</ele>
        <time>2010-05-09T09:45:33Z</time>
      </trkpt>
      <trkpt lat="44.16246" lon="0.60904">
        <ele>54.451782</ele>
        <time>2010-05-09T09:45:49Z</time>
      </trkpt>
      <trkpt lat="44.16326" lon="0.6092">
        <ele>53.490479</ele>
        <time>2010-05-09T09:46:06Z</time>
      </trkpt>
      <trkpt lat="44.16373" lon="0.60934">
        <ele>51.087158</ele>
        <time>2010-05-09T09:46:15Z</time>
      </trkpt>
      <trkpt lat="44.16412" lon="0.6095">
        <ele>49.645264</ele>
        <time>2010-05-09T09:46:22Z</time>
      </trkpt>
      <trkpt lat="44.16455" lon="0.6096">
        <ele>48.68396</ele>
        <time>2010-05-09T09:46:30Z</time>
      </trkpt>
      <trkpt lat="44.16483" lon="0.60962">
        <ele>48.68396</ele>
        <time>2010-05-09T09:46:35Z</time>
      </trkpt>
      <trkpt lat="44.16501" lon="0.60986">
        <ele>48.203369</ele>
        <time>2010-05-09T09:46:40Z</time>
      </trkpt>
      <trkpt lat="44.16508" lon="0.61044">
        <ele>47.241821</ele>
        <time>2010-05-09T09:46:50Z</time>
      </trkpt>
      <trkpt lat="44.1651" lon="0.6105">
        <ele>43.877319</ele>
        <time>2010-05-09T09:47:06Z</time>
      </trkpt>
      <trkpt lat="44.16512" lon="0.61054">
        <ele>43.877319</ele>
        <time>2010-05-09T09:47:25Z</time>
      </trkpt>
      <trkpt lat="44.16522" lon="0.61063">
        <ele>44.358032</ele>
        <time>2010-05-09T09:47:30Z</time>
      </trkpt>
      <trkpt lat="44.16537" lon="0.61062">
        <ele>44.838623</ele>
        <time>2010-05-09T09:47:34Z</time>
      </trkpt>
      <trkpt lat="44.16551" lon="0.61052">
        <ele>45.799927</ele>
        <time>2010-05-09T09:47:38Z</time>
      </trkpt>
      <trkpt lat="44.16631" lon="0.61016">
        <ele>47.241821</ele>
        <time>2010-05-09T09:47:55Z</time>
      </trkpt>
      <trkpt lat="44.1664" lon="0.61013">
        <ele>47.241821</ele>
        <time>2010-05-09T09:47:57Z</time>
      </trkpt>
      <trkpt lat="44.16657" lon="0.61021">
        <ele>46.76123</ele>
        <time>2010-05-09T09:48:02Z</time>
      </trkpt>
      <trkpt lat="44.16674" lon="0.61">
        <ele>46.76123</ele>
        <time>2010-05-09T09:48:09Z</time>
      </trkpt>
      <trkpt lat="44.1675" lon="0.60973">
        <ele>46.76123</ele>
        <time>2010-05-09T09:48:26Z</time>
      </trkpt>
      <trkpt lat="44.16777" lon="0.60961">
        <ele>47.241821</ele>
        <time>2010-05-09T09:48:32Z</time>
      </trkpt>
      <trkpt lat="44.16818" lon="0.60945">
        <ele>47.722534</ele>
        <time>2010-05-09T09:48:41Z</time>
      </trkpt>
      <trkpt lat="44.16852" lon="0.60948">
        <ele>48.68396</ele>
        <time>2010-05-09T09:48:49Z</time>
      </trkpt>
      <trkpt lat="44.16867" lon="0.6094">
        <ele>49.164551</ele>
        <time>2010-05-09T09:48:52Z</time>
      </trkpt>
      <trkpt lat="44.16888" lon="0.60932">
        <ele>48.68396</ele>
        <time>2010-05-09T09:48:56Z</time>
      </trkpt>
      <trkpt lat="44.16926" lon="0.60927">
        <ele>48.68396</ele>
        <time>2010-05-09T09:49:03Z</time>
      </trkpt>
      <trkpt lat="44.1694" lon="0.60926">
        <ele>49.164551</ele>
        <time>2010-05-09T09:49:06Z</time>
      </trkpt>
      <trkpt lat="44.16949" lon="0.60928">
        <ele>49.645264</ele>
        <time>2010-05-09T09:49:08Z</time>
      </trkpt>
      <trkpt lat="44.16966" lon="0.60936">
        <ele>50.125977</ele>
        <time>2010-05-09T09:49:12Z</time>
      </trkpt>
      <trkpt lat="44.16984" lon="0.6095">
        <ele>50.125977</ele>
        <time>2010-05-09T09:49:17Z</time>
      </trkpt>
      <trkpt lat="44.17008" lon="0.60988">
        <ele>49.164551</ele>
        <time>2010-05-09T09:49:29Z</time>
      </trkpt>
      <trkpt lat="44.17029" lon="0.61037">
        <ele>49.164551</ele>
        <time>2010-05-09T09:49:41Z</time>
      </trkpt>
      <trkpt lat="44.17055" lon="0.61117">
        <ele>47.722534</ele>
        <time>2010-05-09T09:49:57Z</time>
      </trkpt>
      <trkpt lat="44.17062" lon="0.61138">
        <ele>47.241821</ele>
        <time>2010-05-09T09:50:01Z</time>
      </trkpt>
      <trkpt lat="44.1707" lon="0.61157">
        <ele>47.241821</ele>
        <time>2010-05-09T09:50:05Z</time>
      </trkpt>
      <trkpt lat="44.17088" lon="0.612">
        <ele>47.241821</ele>
        <time>2010-05-09T09:50:16Z</time>
      </trkpt>
      <trkpt lat="44.17098" lon="0.61241">
        <ele>46.28064</ele>
        <time>2010-05-09T09:50:26Z</time>
      </trkpt>
      <trkpt lat="44.17104" lon="0.6127">
        <ele>46.28064</ele>
        <time>2010-05-09T09:50:37Z</time>
      </trkpt>
      <trkpt lat="44.17109" lon="0.61278">
        <ele>45.799927</ele>
        <time>2010-05-09T09:50:49Z</time>
      </trkpt>
      <trkpt lat="44.17111" lon="0.61277">
        <ele>43.877319</ele>
        <time>2010-05-09T09:51:02Z</time>
      </trkpt>
      <trkpt lat="44.17114" lon="0.61284">
        <ele>40.512817</ele>
        <time>2010-05-09T09:51:13Z</time>
      </trkpt>
      <trkpt lat="44.17118" lon="0.61294">
        <ele>39.55127</ele>
        <time>2010-05-09T09:51:17Z</time>
      </trkpt>
      <trkpt lat="44.17118" lon="0.61305">
        <ele>37.148071</ele>
        <time>2010-05-09T09:51:24Z</time>
      </trkpt>
      <trkpt lat="44.17121" lon="0.61309">
        <ele>35.225464</ele>
        <time>2010-05-09T09:51:29Z</time>
      </trkpt>
      <trkpt lat="44.17122" lon="0.61309">
        <ele>35.225464</ele>
        <time>2010-05-09T09:51:31Z</time>
      </trkpt>
      <trkpt lat="44.17126" lon="0.61311">
        <ele>33.783447</ele>
        <time>2010-05-09T09:51:42Z</time>
      </trkpt>
      <trkpt lat="44.17131" lon="0.61332">
        <ele>31.380127</ele>
        <time>2010-05-09T09:51:50Z</time>
      </trkpt>
      <trkpt lat="44.1714" lon="0.61349">
        <ele>28.015503</ele>
        <time>2010-05-09T09:51:59Z</time>
      </trkpt>
      <trkpt lat="44.17152" lon="0.61344">
        <ele>26.573608</ele>
        <time>2010-05-09T09:52:07Z</time>
      </trkpt>
      <trkpt lat="44.17171" lon="0.61345">
        <ele>24.651001</ele>
        <time>2010-05-09T09:52:13Z</time>
      </trkpt>
      <trkpt lat="44.17188" lon="0.61339">
        <ele>21.286377</ele>
        <time>2010-05-09T09:52:18Z</time>
      </trkpt>
      <trkpt lat="44.17206" lon="0.61328">
        <ele>17.921753</ele>
        <time>2010-05-09T09:52:25Z</time>
      </trkpt>
      <trkpt lat="44.17259" lon="0.61314">
        <ele>19.36377</ele>
        <time>2010-05-09T09:52:39Z</time>
      </trkpt>
      <trkpt lat="44.17283" lon="0.61308">
        <ele>20.324951</ele>
        <time>2010-05-09T09:52:48Z</time>
      </trkpt>
      <trkpt lat="44.17285" lon="0.61307">
        <ele>20.805664</ele>
        <time>2010-05-09T09:52:49Z</time>
      </trkpt>
      <trkpt lat="44.17322" lon="0.61295">
        <ele>23.689575</ele>
        <time>2010-05-09T09:53:02Z</time>
      </trkpt>
      <trkpt lat="44.17358" lon="0.6128">
        <ele>23.689575</ele>
        <time>2010-05-09T09:53:14Z</time>
      </trkpt>
      <trkpt lat="44.17391" lon="0.61269">
        <ele>23.689575</ele>
        <time>2010-05-09T09:53:27Z</time>
      </trkpt>
      <trkpt lat="44.17416" lon="0.61256">
        <ele>24.651001</ele>
        <time>2010-05-09T09:53:37Z</time>
      </trkpt>
      <trkpt lat="44.17443" lon="0.61247">
        <ele>24.651001</ele>
        <time>2010-05-09T09:53:46Z</time>
      </trkpt>
      <trkpt lat="44.17483" lon="0.61236">
        <ele>28.496216</ele>
        <time>2010-05-09T09:53:59Z</time>
      </trkpt>
      <trkpt lat="44.17509" lon="0.6122">
        <ele>30.899536</ele>
        <time>2010-05-09T09:54:08Z</time>
      </trkpt>
      <trkpt lat="44.17548" lon="0.61208">
        <ele>31.860718</ele>
        <time>2010-05-09T09:54:21Z</time>
      </trkpt>
      <trkpt lat="44.17582" lon="0.61214">
        <ele>35.706055</ele>
        <time>2010-05-09T09:54:32Z</time>
      </trkpt>
      <trkpt lat="44.17597" lon="0.61208">
        <ele>34.26416</ele>
        <time>2010-05-09T09:54:35Z</time>
      </trkpt>
      <trkpt lat="44.17612" lon="0.61204">
        <ele>32.822266</ele>
        <time>2010-05-09T09:54:38Z</time>
      </trkpt>
      <trkpt lat="44.1764" lon="0.61199">
        <ele>33.302856</ele>
        <time>2010-05-09T09:54:45Z</time>
      </trkpt>
      <trkpt lat="44.1769" lon="0.61194">
        <ele>33.302856</ele>
        <time>2010-05-09T09:54:58Z</time>
      </trkpt>
      <trkpt lat="44.17739" lon="0.61188">
        <ele>35.225464</ele>
        <time>2010-05-09T09:55:12Z</time>
      </trkpt>
      <trkpt lat="44.1775" lon="0.61189">
        <ele>34.744873</ele>
        <time>2010-05-09T09:55:15Z</time>
      </trkpt>
      <trkpt lat="44.17758" lon="0.61186">
        <ele>34.744873</ele>
        <time>2010-05-09T09:55:17Z</time>
      </trkpt>
      <trkpt lat="44.17774" lon="0.61183">
        <ele>34.26416</ele>
        <time>2010-05-09T09:55:21Z</time>
      </trkpt>
      <trkpt lat="44.17839" lon="0.61174">
        <ele>34.26416</ele>
        <time>2010-05-09T09:55:36Z</time>
      </trkpt>
      <trkpt lat="44.1788" lon="0.6117">
        <ele>32.341553</ele>
        <time>2010-05-09T09:55:46Z</time>
      </trkpt>
      <trkpt lat="44.17942" lon="0.61164">
        <ele>32.822266</ele>
        <time>2010-05-09T09:56:01Z</time>
      </trkpt>
      <trkpt lat="44.17959" lon="0.61163">
        <ele>33.783447</ele>
        <time>2010-05-09T09:56:05Z</time>
      </trkpt>
      <trkpt lat="44.17967" lon="0.61162">
        <ele>33.783447</ele>
        <time>2010-05-09T09:56:07Z</time>
      </trkpt>
      <trkpt lat="44.1798" lon="0.6116">
        <ele>33.302856</ele>
        <time>2010-05-09T09:56:10Z</time>
      </trkpt>
      <trkpt lat="44.18002" lon="0.61147">
        <ele>31.860718</ele>
        <time>2010-05-09T09:56:16Z</time>
      </trkpt>
      <trkpt lat="44.18006" lon="0.61155">
        <ele>30.899536</ele>
        <time>2010-05-09T09:56:21Z</time>
      </trkpt>
      <trkpt lat="44.18014" lon="0.61169">
        <ele>31.860718</ele>
        <time>2010-05-09T09:56:28Z</time>
      </trkpt>
      <trkpt lat="44.18052" lon="0.61165">
        <ele>30.418823</ele>
        <time>2010-05-09T09:56:42Z</time>
      </trkpt>
      <trkpt lat="44.18093" lon="0.61156">
        <ele>32.822266</ele>
        <time>2010-05-09T09:56:54Z</time>
      </trkpt>
      <trkpt lat="44.18134" lon="0.61151">
        <ele>34.26416</ele>
        <time>2010-05-09T09:57:05Z</time>
      </trkpt>
      <trkpt lat="44.18167" lon="0.6114">
        <ele>37.628662</ele>
        <time>2010-05-09T09:57:15Z</time>
      </trkpt>
      <trkpt lat="44.18206" lon="0.61135">
        <ele>40.032104</ele>
        <time>2010-05-09T09:57:26Z</time>
      </trkpt>
      <trkpt lat="44.18247" lon="0.61131">
        <ele>42.916016</ele>
        <time>2010-05-09T09:57:37Z</time>
      </trkpt>
      <trkpt lat="44.18291" lon="0.61124">
        <ele>43.396606</ele>
        <time>2010-05-09T09:57:49Z</time>
      </trkpt>
      <trkpt lat="44.1833" lon="0.61122">
        <ele>44.838623</ele>
        <time>2010-05-09T09:58:00Z</time>
      </trkpt>
      <trkpt lat="44.18373" lon="0.61119">
        <ele>48.68396</ele>
        <time>2010-05-09T09:58:12Z</time>
      </trkpt>
      <trkpt lat="44.18419" lon="0.61111">
        <ele>47.241821</ele>
        <time>2010-05-09T09:58:25Z</time>
      </trkpt>
      <trkpt lat="44.18453" lon="0.61106">
        <ele>42.916016</ele>
        <time>2010-05-09T09:58:34Z</time>
      </trkpt>
      <trkpt lat="44.18488" lon="0.61096">
        <ele>39.070679</ele>
        <time>2010-05-09T09:58:43Z</time>
      </trkpt>
      <trkpt lat="44.18531" lon="0.61085">
        <ele>39.55127</ele>
        <time>2010-05-09T09:58:54Z</time>
      </trkpt>
      <trkpt lat="44.18586" lon="0.61073">
        <ele>41.954712</ele>
        <time>2010-05-09T09:59:08Z</time>
      </trkpt>
      <trkpt lat="44.18655" lon="0.61057">
        <ele>42.916016</ele>
        <time>2010-05-09T09:59:26Z</time>
      </trkpt>
      <trkpt lat="44.18686" lon="0.61051">
        <ele>41.954712</ele>
        <time>2010-05-09T09:59:34Z</time>
      </trkpt>
      <trkpt lat="44.18744" lon="0.61043">
        <ele>41.954712</ele>
        <time>2010-05-09T09:59:49Z</time>
      </trkpt>
      <trkpt lat="44.18793" lon="0.6103">
        <ele>41.473999</ele>
        <time>2010-05-09T10:00:03Z</time>
      </trkpt>
      <trkpt lat="44.18838" lon="0.61025">
        <ele>40.032104</ele>
        <time>2010-05-09T10:00:16Z</time>
      </trkpt>
      <trkpt lat="44.18893" lon="0.61018">
        <ele>39.070679</ele>
        <time>2010-05-09T10:00:31Z</time>
      </trkpt>
      <trkpt lat="44.18937" lon="0.61008">
        <ele>38.590088</ele>
        <time>2010-05-09T10:00:44Z</time>
      </trkpt>
      <trkpt lat="44.1898" lon="0.61003">
        <ele>37.628662</ele>
        <time>2010-05-09T10:00:57Z</time>
      </trkpt>
      <trkpt lat="44.19028" lon="0.60994">
        <ele>36.66748</ele>
        <time>2010-05-09T10:01:12Z</time>
      </trkpt>
      <trkpt lat="44.19066" lon="0.60985">
        <ele>34.744873</ele>
        <time>2010-05-09T10:01:24Z</time>
      </trkpt>
      <trkpt lat="44.19109" lon="0.60978">
        <ele>35.706055</ele>
        <time>2010-05-09T10:01:37Z</time>
      </trkpt>
      <trkpt lat="44.19155" lon="0.6097">
        <ele>37.148071</ele>
        <time>2010-05-09T10:01:50Z</time>
      </trkpt>
      <trkpt lat="44.192" lon="0.60962">
        <ele>36.186768</ele>
        <time>2010-05-09T10:02:02Z</time>
      </trkpt>
      <trkpt lat="44.19248" lon="0.60957">
        <ele>36.186768</ele>
        <time>2010-05-09T10:02:14Z</time>
      </trkpt>
      <trkpt lat="44.19301" lon="0.60948">
        <ele>36.186768</ele>
        <time>2010-05-09T10:02:28Z</time>
      </trkpt>
      <trkpt lat="44.19334" lon="0.6094">
        <ele>34.744873</ele>
        <time>2010-05-09T10:02:37Z</time>
      </trkpt>
      <trkpt lat="44.1935" lon="0.60939">
        <ele>32.822266</ele>
        <time>2010-05-09T10:02:41Z</time>
      </trkpt>
      <trkpt lat="44.19382" lon="0.60928">
        <ele>30.899536</ele>
        <time>2010-05-09T10:02:50Z</time>
      </trkpt>
      <trkpt lat="44.19387" lon="0.6092">
        <ele>31.860718</ele>
        <time>2010-05-09T10:02:53Z</time>
      </trkpt>
      <trkpt lat="44.19427" lon="0.60907">
        <ele>28.496216</ele>
        <time>2010-05-09T10:03:06Z</time>
      </trkpt>
      <trkpt lat="44.19472" lon="0.60895">
        <ele>27.534912</ele>
        <time>2010-05-09T10:03:19Z</time>
      </trkpt>
      <trkpt lat="44.19487" lon="0.60892">
        <ele>27.054321</ele>
        <time>2010-05-09T10:03:23Z</time>
      </trkpt>
      <trkpt lat="44.19499" lon="0.60889">
        <ele>27.534912</ele>
        <time>2010-05-09T10:03:26Z</time>
      </trkpt>
      <trkpt lat="44.19515" lon="0.60886">
        <ele>28.496216</ele>
        <time>2010-05-09T10:03:30Z</time>
      </trkpt>
      <trkpt lat="44.19528" lon="0.60883">
        <ele>28.496216</ele>
        <time>2010-05-09T10:03:33Z</time>
      </trkpt>
      <trkpt lat="44.19557" lon="0.6089">
        <ele>29.93811</ele>
        <time>2010-05-09T10:03:41Z</time>
      </trkpt>
      <trkpt lat="44.19568" lon="0.60888">
        <ele>29.45752</ele>
        <time>2010-05-09T10:03:44Z</time>
      </trkpt>
      <trkpt lat="44.19607" lon="0.60879">
        <ele>30.418823</ele>
        <time>2010-05-09T10:03:54Z</time>
      </trkpt>
      <trkpt lat="44.1965" lon="0.60877">
        <ele>28.976929</ele>
        <time>2010-05-09T10:04:05Z</time>
      </trkpt>
      <trkpt lat="44.19668" lon="0.60875">
        <ele>28.015503</ele>
        <time>2010-05-09T10:04:09Z</time>
      </trkpt>
      <trkpt lat="44.19739" lon="0.60865">
        <ele>24.170288</ele>
        <time>2010-05-09T10:04:25Z</time>
      </trkpt>
      <trkpt lat="44.19758" lon="0.60862">
        <ele>23.689575</ele>
        <time>2010-05-09T10:04:29Z</time>
      </trkpt>
      <trkpt lat="44.19776" lon="0.6086">
        <ele>23.208984</ele>
        <time>2010-05-09T10:04:33Z</time>
      </trkpt>
      <trkpt lat="44.19857" lon="0.60846">
        <ele>22.728271</ele>
        <time>2010-05-09T10:04:51Z</time>
      </trkpt>
      <trkpt lat="44.19918" lon="0.60813">
        <ele>23.208984</ele>
        <time>2010-05-09T10:05:05Z</time>
      </trkpt>
      <trkpt lat="44.19978" lon="0.60775">
        <ele>21.286377</ele>
        <time>2010-05-09T10:05:19Z</time>
      </trkpt>
      <trkpt lat="44.19986" lon="0.6077">
        <ele>21.286377</ele>
        <time>2010-05-09T10:05:21Z</time>
      </trkpt>
      <trkpt lat="44.20003" lon="0.60761">
        <ele>21.766968</ele>
        <time>2010-05-09T10:05:25Z</time>
      </trkpt>
      <trkpt lat="44.20073" lon="0.60718">
        <ele>21.766968</ele>
        <time>2010-05-09T10:05:41Z</time>
      </trkpt>
      <trkpt lat="44.20087" lon="0.60711">
        <ele>22.247559</ele>
        <time>2010-05-09T10:05:44Z</time>
      </trkpt>
      <trkpt lat="44.20132" lon="0.6069">
        <ele>22.728271</ele>
        <time>2010-05-09T10:05:54Z</time>
      </trkpt>
      <trkpt lat="44.20199" lon="0.60663">
        <ele>21.766968</ele>
        <time>2010-05-09T10:06:10Z</time>
      </trkpt>
      <trkpt lat="44.20208" lon="0.60659">
        <ele>21.286377</ele>
        <time>2010-05-09T10:06:12Z</time>
      </trkpt>
      <trkpt lat="44.20232" lon="0.60649">
        <ele>21.286377</ele>
        <time>2010-05-09T10:06:17Z</time>
      </trkpt>
      <trkpt lat="44.20308" lon="0.60616">
        <ele>20.324951</ele>
        <time>2010-05-09T10:06:34Z</time>
      </trkpt>
      <trkpt lat="44.20343" lon="0.606">
        <ele>22.247559</ele>
        <time>2010-05-09T10:06:42Z</time>
      </trkpt>
      <trkpt lat="44.20426" lon="0.60565">
        <ele>24.170288</ele>
        <time>2010-05-09T10:07:01Z</time>
      </trkpt>
      <trkpt lat="44.20498" lon="0.60535">
        <ele>25.131714</ele>
        <time>2010-05-09T10:07:17Z</time>
      </trkpt>
      <trkpt lat="44.20521" lon="0.60524">
        <ele>26.092896</ele>
        <time>2010-05-09T10:07:22Z</time>
      </trkpt>
      <trkpt lat="44.20591" lon="0.60494">
        <ele>29.45752</ele>
        <time>2010-05-09T10:07:38Z</time>
      </trkpt>
      <trkpt lat="44.20615" lon="0.6048">
        <ele>29.93811</ele>
        <time>2010-05-09T10:07:45Z</time>
      </trkpt>
      <trkpt lat="44.20626" lon="0.60449">
        <ele>30.899536</ele>
        <time>2010-05-09T10:07:51Z</time>
      </trkpt>
      <trkpt lat="44.20629" lon="0.6042">
        <ele>31.860718</ele>
        <time>2010-05-09T10:07:56Z</time>
      </trkpt>
      <trkpt lat="44.20656" lon="0.60353">
        <ele>35.706055</ele>
        <time>2010-05-09T10:08:11Z</time>
      </trkpt>
      <trkpt lat="44.20643" lon="0.60309">
        <ele>38.109375</ele>
        <time>2010-05-09T10:08:22Z</time>
      </trkpt>
      <trkpt lat="44.20638" lon="0.60289">
        <ele>38.590088</ele>
        <time>2010-05-09T10:08:27Z</time>
      </trkpt>
      <trkpt lat="44.20658" lon="0.60249">
        <ele>40.032104</ele>
        <time>2010-05-09T10:08:38Z</time>
      </trkpt>
      <trkpt lat="44.20662" lon="0.60203">
        <ele>41.954712</ele>
        <time>2010-05-09T10:08:48Z</time>
      </trkpt>
      <trkpt lat="44.20647" lon="0.60134">
        <ele>45.319214</ele>
        <time>2010-05-09T10:09:02Z</time>
      </trkpt>
      <trkpt lat="44.20647" lon="0.60083">
        <ele>49.164551</ele>
        <time>2010-05-09T10:09:13Z</time>
      </trkpt>
      <trkpt lat="44.20647" lon="0.60061">
        <ele>49.645264</ele>
        <time>2010-05-09T10:09:18Z</time>
      </trkpt>
      <trkpt lat="44.20642" lon="0.60041">
        <ele>49.164551</ele>
        <time>2010-05-09T10:09:21Z</time>
      </trkpt>
      <trkpt lat="44.2063" lon="0.59984">
        <ele>48.203369</ele>
        <time>2010-05-09T10:09:29Z</time>
      </trkpt>
      <trkpt lat="44.20627" lon="0.59971">
        <ele>48.203369</ele>
        <time>2010-05-09T10:09:31Z</time>
      </trkpt>
      <trkpt lat="44.20613" lon="0.59908">
        <ele>47.722534</ele>
        <time>2010-05-09T10:09:41Z</time>
      </trkpt>
      <trkpt lat="44.20608" lon="0.59884">
        <ele>47.722534</ele>
        <time>2010-05-09T10:09:45Z</time>
      </trkpt>
      <trkpt lat="44.20605" lon="0.59872">
        <ele>47.241821</ele>
        <time>2010-05-09T10:09:47Z</time>
      </trkpt>
      <trkpt lat="44.20593" lon="0.59855">
        <ele>56.855103</ele>
        <time>2010-05-09T10:10:17Z</time>
      </trkpt>
      <trkpt lat="44.20594" lon="0.59858">
        <ele>56.855103</ele>
        <time>2010-05-09T10:10:20Z</time>
      </trkpt>
      <trkpt lat="44.2059" lon="0.5981">
        <ele>50.125977</ele>
        <time>2010-05-09T10:10:32Z</time>
      </trkpt>
      <trkpt lat="44.20576" lon="0.59739">
        <ele>48.203369</ele>
        <time>2010-05-09T10:10:44Z</time>
      </trkpt>
      <trkpt lat="44.20571" lon="0.59711">
        <ele>47.722534</ele>
        <time>2010-05-09T10:10:48Z</time>
      </trkpt>
      <trkpt lat="44.20565" lon="0.59673">
        <ele>48.203369</ele>
        <time>2010-05-09T10:10:53Z</time>
      </trkpt>
      <trkpt lat="44.20559" lon="0.59651">
        <ele>47.722534</ele>
        <time>2010-05-09T10:10:56Z</time>
      </trkpt>
      <trkpt lat="44.20549" lon="0.59629">
        <ele>47.241821</ele>
        <time>2010-05-09T10:10:59Z</time>
      </trkpt>
      <trkpt lat="44.2054" lon="0.59603">
        <ele>47.241821</ele>
        <time>2010-05-09T10:11:02Z</time>
      </trkpt>
      <trkpt lat="44.20534" lon="0.59578">
        <ele>47.241821</ele>
        <time>2010-05-09T10:11:05Z</time>
      </trkpt>
      <trkpt lat="44.2053" lon="0.59563">
        <ele>46.76123</ele>
        <time>2010-05-09T10:11:07Z</time>
      </trkpt>
      <trkpt lat="44.20524" lon="0.59535">
        <ele>46.28064</ele>
        <time>2010-05-09T10:11:12Z</time>
      </trkpt>
      <trkpt lat="44.20516" lon="0.59504">
        <ele>46.76123</ele>
        <time>2010-05-09T10:11:18Z</time>
      </trkpt>
      <trkpt lat="44.20513" lon="0.59487">
        <ele>46.76123</ele>
        <time>2010-05-09T10:11:21Z</time>
      </trkpt>
      <trkpt lat="44.20495" lon="0.59399">
        <ele>45.319214</ele>
        <time>2010-05-09T10:11:37Z</time>
      </trkpt>
      <trkpt lat="44.20482" lon="0.59351">
        <ele>44.838623</ele>
        <time>2010-05-09T10:11:47Z</time>
      </trkpt>
      <trkpt lat="44.20478" lon="0.59351">
        <ele>44.838623</ele>
        <time>2010-05-09T10:11:53Z</time>
      </trkpt>
      <trkpt lat="44.20472" lon="0.59355">
        <ele>45.319214</ele>
        <time>2010-05-09T10:12:03Z</time>
      </trkpt>
      <trkpt lat="44.2046" lon="0.59336">
        <ele>44.838623</ele>
        <time>2010-05-09T10:12:09Z</time>
      </trkpt>
      <trkpt lat="44.20426" lon="0.59319">
        <ele>45.799927</ele>
        <time>2010-05-09T10:12:21Z</time>
      </trkpt>
      <trkpt lat="44.20423" lon="0.59316">
        <ele>45.799927</ele>
        <time>2010-05-09T10:12:22Z</time>
      </trkpt>
      <trkpt lat="44.20372" lon="0.59268">
        <ele>45.799927</ele>
        <time>2010-05-09T10:12:37Z</time>
      </trkpt>
      <trkpt lat="44.20318" lon="0.59228">
        <ele>45.319214</ele>
        <time>2010-05-09T10:12:52Z</time>
      </trkpt>
      <trkpt lat="44.20262" lon="0.59191">
        <ele>46.76123</ele>
        <time>2010-05-09T10:13:07Z</time>
      </trkpt>
      <trkpt lat="44.20211" lon="0.59161">
        <ele>46.76123</ele>
        <time>2010-05-09T10:13:21Z</time>
      </trkpt>
      <trkpt lat="44.20189" lon="0.59148">
        <ele>46.28064</ele>
        <time>2010-05-09T10:13:28Z</time>
      </trkpt>
      <trkpt lat="44.20189" lon="0.59134">
        <ele>45.799927</ele>
        <time>2010-05-09T10:13:32Z</time>
      </trkpt>
      <trkpt lat="44.20201" lon="0.59058">
        <ele>45.799927</ele>
        <time>2010-05-09T10:13:47Z</time>
      </trkpt>
      <trkpt lat="44.20213" lon="0.58952">
        <ele>45.799927</ele>
        <time>2010-05-09T10:14:06Z</time>
      </trkpt>
      <trkpt lat="44.20231" lon="0.58873">
        <ele>45.799927</ele>
        <time>2010-05-09T10:14:23Z</time>
      </trkpt>
      <trkpt lat="44.20247" lon="0.58866">
        <ele>49.645264</ele>
        <time>2010-05-09T10:14:34Z</time>
      </trkpt>
      <trkpt lat="44.2025" lon="0.58862">
        <ele>51.567871</ele>
        <time>2010-05-09T10:14:46Z</time>
      </trkpt>
    </trkseg>
  </trk>
</gpx>